<?xml version="1.0" encoding="UTF-8"?>
<gpx xmlns="http://www.topografix.com/GPX/1/1" version="1.1" xmlns:xsi="http://www.w3.org/2001/XMLSchema-instance" xsi:schemaLocation="http://www.topografix.com/GPX/1/1 http://www.topografix.com/GPX/1/1/gpx.xsd" creator="MotionXGPSFull 24.4 Build 5112 R64">
<trk>
<name><![CDATA[遊電車河 with Agnes]]></name>
<desc><![CDATA[Oct 4, 2022  3:03 pm]]></desc>
<trkseg>
<trkpt lat="22.2769539" lon="114.2289478">
<ele>4.280</ele>
<time>2022-10-04T07:03:05.999Z</time>
</trkpt>
<trkpt lat="22.2769554" lon="114.2289443">
<ele>5.228</ele>
<time>2022-10-04T07:03:06.999Z</time>
</trkpt>
<trkpt lat="22.2769554" lon="114.2289443">
<ele>7.699</ele>
<time>2022-10-04T07:03:07.999Z</time>
</trkpt>
<trkpt lat="22.2769554" lon="114.2289443">
<ele>9.759</ele>
<time>2022-10-04T07:03:12.763Z</time>
</trkpt>
<trkpt lat="22.2769982" lon="114.2287896">
<ele>9.720</ele>
<time>2022-10-04T07:03:21.519Z</time>
</trkpt>
<trkpt lat="22.2770685" lon="114.2287114">
<ele>9.973</ele>
<time>2022-10-04T07:03:24.467Z</time>
</trkpt>
<trkpt lat="22.2771037" lon="114.2286119">
<ele>13.028</ele>
<time>2022-10-04T07:03:26.964Z</time>
</trkpt>
<trkpt lat="22.2771489" lon="114.2284948">
<ele>17.396</ele>
<time>2022-10-04T07:03:29.691Z</time>
</trkpt>
<trkpt lat="22.2771774" lon="114.2283864">
<ele>20.361</ele>
<time>2022-10-04T07:03:32.053Z</time>
</trkpt>
<trkpt lat="22.2772154" lon="114.2282653">
<ele>21.433</ele>
<time>2022-10-04T07:03:34.673Z</time>
</trkpt>
<trkpt lat="22.2772802" lon="114.2281186">
<ele>21.613</ele>
<time>2022-10-04T07:03:38.073Z</time>
</trkpt>
<trkpt lat="22.2772650" lon="114.2279640">
<ele>21.980</ele>
<time>2022-10-04T07:03:41.484Z</time>
</trkpt>
<trkpt lat="22.2773262" lon="114.2278415">
<ele>22.878</ele>
<time>2022-10-04T07:03:44.225Z</time>
</trkpt>
<trkpt lat="22.2773949" lon="114.2276841">
<ele>24.170</ele>
<time>2022-10-04T07:03:47.111Z</time>
</trkpt>
<trkpt lat="22.2774912" lon="114.2274906">
<ele>25.247</ele>
<time>2022-10-04T07:03:50.259Z</time>
</trkpt>
<trkpt lat="22.2775952" lon="114.2272987">
<ele>25.326</ele>
<time>2022-10-04T07:03:53.389Z</time>
</trkpt>
<trkpt lat="22.2776830" lon="114.2271508">
<ele>24.123</ele>
<time>2022-10-04T07:03:56.283Z</time>
</trkpt>
<trkpt lat="22.2777503" lon="114.2270438">
<ele>22.177</ele>
<time>2022-10-04T07:03:58.670Z</time>
</trkpt>
<trkpt lat="22.2778649" lon="114.2269622">
<ele>20.491</ele>
<time>2022-10-04T07:04:01.276Z</time>
</trkpt>
<trkpt lat="22.2780648" lon="114.2269191">
<ele>19.677</ele>
<time>2022-10-04T07:04:04.602Z</time>
</trkpt>
<trkpt lat="22.2782276" lon="114.2268015">
<ele>19.663</ele>
<time>2022-10-04T07:04:07.493Z</time>
</trkpt>
<trkpt lat="22.2783760" lon="114.2266472">
<ele>20.572</ele>
<time>2022-10-04T07:04:10.463Z</time>
</trkpt>
<trkpt lat="22.2785471" lon="114.2265508">
<ele>22.232</ele>
<time>2022-10-04T07:04:13.340Z</time>
</trkpt>
<trkpt lat="22.2786724" lon="114.2264595">
<ele>23.679</ele>
<time>2022-10-04T07:04:15.715Z</time>
</trkpt>
<trkpt lat="22.2788061" lon="114.2263212">
<ele>24.001</ele>
<time>2022-10-04T07:04:18.763Z</time>
</trkpt>
<trkpt lat="22.2789013" lon="114.2261329">
<ele>23.583</ele>
<time>2022-10-04T07:04:22.287Z</time>
</trkpt>
<trkpt lat="22.2790352" lon="114.2261069">
<ele>23.644</ele>
<time>2022-10-04T07:04:24.818Z</time>
</trkpt>
<trkpt lat="22.2791506" lon="114.2259441">
<ele>24.497</ele>
<time>2022-10-04T07:04:28.054Z</time>
</trkpt>
<trkpt lat="22.2793363" lon="114.2258099">
<ele>25.188</ele>
<time>2022-10-04T07:04:31.489Z</time>
</trkpt>
<trkpt lat="22.2794921" lon="114.2257009">
<ele>25.185</ele>
<time>2022-10-04T07:04:34.860Z</time>
</trkpt>
<trkpt lat="22.2795720" lon="114.2256378">
<ele>24.695</ele>
<time>2022-10-04T07:04:36.999Z</time>
</trkpt>
<trkpt lat="22.2795720" lon="114.2256378">
<ele>24.083</ele>
<time>2022-10-04T07:04:39.999Z</time>
</trkpt>
<trkpt lat="22.2795720" lon="114.2256378">
<ele>23.701</ele>
<time>2022-10-04T07:05:43.246Z</time>
</trkpt>
<trkpt lat="22.2796163" lon="114.2254714">
<ele>23.714</ele>
<time>2022-10-04T07:05:52.953Z</time>
</trkpt>
<trkpt lat="22.2797040" lon="114.2254274">
<ele>23.276</ele>
<time>2022-10-04T07:05:55.580Z</time>
</trkpt>
<trkpt lat="22.2798150" lon="114.2253402">
<ele>21.700</ele>
<time>2022-10-04T07:05:58.510Z</time>
</trkpt>
<trkpt lat="22.2800449" lon="114.2255364">
<ele>19.749</ele>
<time>2022-10-04T07:06:03.888Z</time>
</trkpt>
<trkpt lat="22.2801912" lon="114.2253938">
<ele>17.754</ele>
<time>2022-10-04T07:06:07.132Z</time>
</trkpt>
<trkpt lat="22.2803220" lon="114.2253052">
<ele>15.101</ele>
<time>2022-10-04T07:06:09.529Z</time>
</trkpt>
<trkpt lat="22.2803848" lon="114.2251509">
<ele>12.359</ele>
<time>2022-10-04T07:06:11.790Z</time>
</trkpt>
<trkpt lat="22.2804668" lon="114.2249713">
<ele>10.607</ele>
<time>2022-10-04T07:06:14.317Z</time>
</trkpt>
<trkpt lat="22.2804640" lon="114.2247827">
<ele>9.814</ele>
<time>2022-10-04T07:06:16.681Z</time>
</trkpt>
<trkpt lat="22.2804766" lon="114.2245889">
<ele>9.398</ele>
<time>2022-10-04T07:06:19.193Z</time>
</trkpt>
<trkpt lat="22.2804806" lon="114.2244541">
<ele>9.088</ele>
<time>2022-10-04T07:06:20.999Z</time>
</trkpt>
<trkpt lat="22.2804806" lon="114.2244541">
<ele>8.903</ele>
<time>2022-10-04T07:06:26.999Z</time>
</trkpt>
<trkpt lat="22.2804806" lon="114.2244541">
<ele>8.847</ele>
<time>2022-10-04T07:06:38.128Z</time>
</trkpt>
<trkpt lat="22.2806704" lon="114.2241579">
<ele>8.881</ele>
<time>2022-10-04T07:07:18.752Z</time>
</trkpt>
<trkpt lat="22.2807355" lon="114.2240321">
<ele>9.099</ele>
<time>2022-10-04T07:07:21.934Z</time>
</trkpt>
<trkpt lat="22.2808389" lon="114.2238544">
<ele>10.012</ele>
<time>2022-10-04T07:07:24.985Z</time>
</trkpt>
<trkpt lat="22.2809240" lon="114.2237197">
<ele>11.859</ele>
<time>2022-10-04T07:07:27.025Z</time>
</trkpt>
<trkpt lat="22.2809463" lon="114.2234805">
<ele>13.879</ele>
<time>2022-10-04T07:07:29.812Z</time>
</trkpt>
<trkpt lat="22.2810359" lon="114.2232832">
<ele>15.204</ele>
<time>2022-10-04T07:07:32.398Z</time>
</trkpt>
<trkpt lat="22.2812527" lon="114.2231495">
<ele>15.750</ele>
<time>2022-10-04T07:07:35.786Z</time>
</trkpt>
<trkpt lat="22.2812400" lon="114.2229206">
<ele>15.453</ele>
<time>2022-10-04T07:07:39.259Z</time>
</trkpt>
<trkpt lat="22.2812804" lon="114.2228251">
<ele>14.407</ele>
<time>2022-10-04T07:07:41.024Z</time>
</trkpt>
<trkpt lat="22.2813971" lon="114.2227571">
<ele>13.663</ele>
<time>2022-10-04T07:07:43.507Z</time>
</trkpt>
<trkpt lat="22.2814424" lon="114.2226536">
<ele>14.103</ele>
<time>2022-10-04T07:07:45.942Z</time>
</trkpt>
<trkpt lat="22.2813832" lon="114.2225794">
<ele>15.509</ele>
<time>2022-10-04T07:07:49.000Z</time>
</trkpt>
<trkpt lat="22.2813832" lon="114.2225794">
<ele>16.839</ele>
<time>2022-10-04T07:07:51.000Z</time>
</trkpt>
<trkpt lat="22.2813832" lon="114.2225794">
<ele>17.254</ele>
<time>2022-10-04T07:07:59.634Z</time>
</trkpt>
<trkpt lat="22.2813956" lon="114.2224226">
<ele>17.040</ele>
<time>2022-10-04T07:08:08.681Z</time>
</trkpt>
<trkpt lat="22.2813956" lon="114.2224226">
<ele>17.040</ele>
<time>2022-10-04T07:08:08.681Z</time>
</trkpt>
<trkpt lat="22.2819316" lon="114.2219971">
<ele>20.826</ele>
<time>2022-10-04T07:08:49.999Z</time>
</trkpt>
<trkpt lat="22.2819316" lon="114.2219971">
<ele>20.817</ele>
<time>2022-10-04T07:08:56.017Z</time>
</trkpt>
<trkpt lat="22.2832757" lon="114.2211435">
<ele>22.112</ele>
<time>2022-10-04T07:09:54.266Z</time>
</trkpt>
<trkpt lat="22.2833967" lon="114.2211312">
<ele>22.102</ele>
<time>2022-10-04T07:09:56.999Z</time>
</trkpt>
<trkpt lat="22.2833967" lon="114.2211312">
<ele>22.095</ele>
<time>2022-10-04T07:10:00.999Z</time>
</trkpt>
<trkpt lat="22.2833967" lon="114.2211312">
<ele>22.085</ele>
<time>2022-10-04T07:10:07.112Z</time>
</trkpt>
<trkpt lat="22.2835989" lon="114.2211644">
<ele>22.075</ele>
<time>2022-10-04T07:10:19.938Z</time>
</trkpt>
<trkpt lat="22.2836551" lon="114.2210767">
<ele>21.022</ele>
<time>2022-10-04T07:10:22.318Z</time>
</trkpt>
<trkpt lat="22.2837546" lon="114.2209899">
<ele>18.292</ele>
<time>2022-10-04T07:10:24.937Z</time>
</trkpt>
<trkpt lat="22.2838849" lon="114.2209073">
<ele>15.497</ele>
<time>2022-10-04T07:10:27.625Z</time>
</trkpt>
<trkpt lat="22.2839980" lon="114.2207236">
<ele>14.195</ele>
<time>2022-10-04T07:10:30.868Z</time>
</trkpt>
<trkpt lat="22.2841449" lon="114.2206091">
<ele>14.060</ele>
<time>2022-10-04T07:10:33.605Z</time>
</trkpt>
<trkpt lat="22.2842638" lon="114.2204860">
<ele>14.644</ele>
<time>2022-10-04T07:10:36.330Z</time>
</trkpt>
<trkpt lat="22.2843129" lon="114.2204043">
<ele>15.909</ele>
<time>2022-10-04T07:10:37.999Z</time>
</trkpt>
<trkpt lat="22.2843129" lon="114.2204043">
<ele>17.470</ele>
<time>2022-10-04T07:10:40.999Z</time>
</trkpt>
<trkpt lat="22.2843129" lon="114.2204043">
<ele>18.388</ele>
<time>2022-10-04T07:10:47.812Z</time>
</trkpt>
<trkpt lat="22.2844230" lon="114.2203409">
<ele>18.319</ele>
<time>2022-10-04T07:10:54.009Z</time>
</trkpt>
<trkpt lat="22.2844821" lon="114.2202549">
<ele>19.215</ele>
<time>2022-10-04T07:10:56.999Z</time>
</trkpt>
<trkpt lat="22.2844821" lon="114.2202549">
<ele>22.464</ele>
<time>2022-10-04T07:11:01.999Z</time>
</trkpt>
<trkpt lat="22.2844821" lon="114.2202549">
<ele>25.341</ele>
<time>2022-10-04T07:11:09.670Z</time>
</trkpt>
<trkpt lat="22.2845967" lon="114.2200831">
<ele>25.303</ele>
<time>2022-10-04T07:11:23.915Z</time>
</trkpt>
<trkpt lat="22.2846746" lon="114.2199947">
<ele>24.396</ele>
<time>2022-10-04T07:11:26.673Z</time>
</trkpt>
<trkpt lat="22.2846797" lon="114.2198946">
<ele>25.016</ele>
<time>2022-10-04T07:11:28.931Z</time>
</trkpt>
<trkpt lat="22.2847742" lon="114.2198199">
<ele>26.674</ele>
<time>2022-10-04T07:11:31.794Z</time>
</trkpt>
<trkpt lat="22.2848416" lon="114.2197190">
<ele>28.014</ele>
<time>2022-10-04T07:11:34.352Z</time>
</trkpt>
<trkpt lat="22.2848951" lon="114.2196336">
<ele>28.629</ele>
<time>2022-10-04T07:11:36.277Z</time>
</trkpt>
<trkpt lat="22.2849250" lon="114.2195275">
<ele>28.683</ele>
<time>2022-10-04T07:11:38.212Z</time>
</trkpt>
<trkpt lat="22.2849588" lon="114.2194243">
<ele>28.481</ele>
<time>2022-10-04T07:11:40.055Z</time>
</trkpt>
<trkpt lat="22.2849881" lon="114.2193150">
<ele>28.273</ele>
<time>2022-10-04T07:11:41.960Z</time>
</trkpt>
<trkpt lat="22.2850245" lon="114.2192040">
<ele>28.181</ele>
<time>2022-10-04T07:11:43.945Z</time>
</trkpt>
<trkpt lat="22.2850476" lon="114.2190865">
<ele>28.222</ele>
<time>2022-10-04T07:11:45.971Z</time>
</trkpt>
<trkpt lat="22.2850741" lon="114.2189187">
<ele>28.360</ele>
<time>2022-10-04T07:11:48.762Z</time>
</trkpt>
<trkpt lat="22.2850262" lon="114.2187265">
<ele>28.656</ele>
<time>2022-10-04T07:11:51.955Z</time>
</trkpt>
<trkpt lat="22.2850003" lon="114.2185502">
<ele>29.302</ele>
<time>2022-10-04T07:11:54.850Z</time>
</trkpt>
<trkpt lat="22.2849787" lon="114.2183936">
<ele>30.347</ele>
<time>2022-10-04T07:11:57.625Z</time>
</trkpt>
<trkpt lat="22.2849660" lon="114.2182644">
<ele>31.582</ele>
<time>2022-10-04T07:12:00.229Z</time>
</trkpt>
<trkpt lat="22.2849263" lon="114.2181483">
<ele>32.790</ele>
<time>2022-10-04T07:12:02.467Z</time>
</trkpt>
<trkpt lat="22.2848741" lon="114.2178670">
<ele>33.774</ele>
<time>2022-10-04T07:12:06.655Z</time>
</trkpt>
<trkpt lat="22.2848410" lon="114.2176608">
<ele>34.358</ele>
<time>2022-10-04T07:12:09.474Z</time>
</trkpt>
<trkpt lat="22.2847894" lon="114.2174561">
<ele>34.461</ele>
<time>2022-10-04T07:12:12.262Z</time>
</trkpt>
<trkpt lat="22.2847711" lon="114.2172152">
<ele>34.191</ele>
<time>2022-10-04T07:12:15.382Z</time>
</trkpt>
<trkpt lat="22.2847518" lon="114.2170215">
<ele>33.788</ele>
<time>2022-10-04T07:12:17.964Z</time>
</trkpt>
<trkpt lat="22.2847462" lon="114.2168183">
<ele>33.427</ele>
<time>2022-10-04T07:12:20.729Z</time>
</trkpt>
<trkpt lat="22.2847726" lon="114.2166163">
<ele>33.176</ele>
<time>2022-10-04T07:12:23.665Z</time>
</trkpt>
<trkpt lat="22.2847922" lon="114.2164602">
<ele>33.315</ele>
<time>2022-10-04T07:12:26.135Z</time>
</trkpt>
<trkpt lat="22.2847984" lon="114.2163541">
<ele>33.955</ele>
<time>2022-10-04T07:12:28.110Z</time>
</trkpt>
<trkpt lat="22.2847610" lon="114.2162200">
<ele>34.614</ele>
<time>2022-10-04T07:12:31.269Z</time>
</trkpt>
<trkpt lat="22.2847345" lon="114.2161108">
<ele>34.551</ele>
<time>2022-10-04T07:12:35.181Z</time>
</trkpt>
<trkpt lat="22.2847974" lon="114.2160297">
<ele>33.683</ele>
<time>2022-10-04T07:12:39.999Z</time>
</trkpt>
<trkpt lat="22.2847974" lon="114.2160297">
<ele>32.703</ele>
<time>2022-10-04T07:12:41.999Z</time>
</trkpt>
<trkpt lat="22.2847974" lon="114.2160297">
<ele>32.249</ele>
<time>2022-10-04T07:13:44.396Z</time>
</trkpt>
<trkpt lat="22.2847337" lon="114.2157079">
<ele>32.288</ele>
<time>2022-10-04T07:13:59.524Z</time>
</trkpt>
<trkpt lat="22.2846979" lon="114.2155382">
<ele>32.256</ele>
<time>2022-10-04T07:14:02.516Z</time>
</trkpt>
<trkpt lat="22.2847647" lon="114.2153691">
<ele>31.770</ele>
<time>2022-10-04T07:14:04.841Z</time>
</trkpt>
<trkpt lat="22.2847737" lon="114.2150986">
<ele>31.170</ele>
<time>2022-10-04T07:14:07.753Z</time>
</trkpt>
<trkpt lat="22.2847897" lon="114.2148318">
<ele>30.790</ele>
<time>2022-10-04T07:14:10.549Z</time>
</trkpt>
<trkpt lat="22.2847822" lon="114.2146040">
<ele>30.532</ele>
<time>2022-10-04T07:14:12.968Z</time>
</trkpt>
<trkpt lat="22.2847526" lon="114.2143463">
<ele>30.342</ele>
<time>2022-10-04T07:14:15.850Z</time>
</trkpt>
<trkpt lat="22.2846900" lon="114.2141817">
<ele>30.813</ele>
<time>2022-10-04T07:14:17.956Z</time>
</trkpt>
<trkpt lat="22.2847475" lon="114.2139509">
<ele>32.436</ele>
<time>2022-10-04T07:14:21.111Z</time>
</trkpt>
<trkpt lat="22.2847894" lon="114.2138328">
<ele>34.413</ele>
<time>2022-10-04T07:14:22.999Z</time>
</trkpt>
<trkpt lat="22.2847894" lon="114.2138328">
<ele>35.614</ele>
<time>2022-10-04T07:14:26.999Z</time>
</trkpt>
<trkpt lat="22.2847894" lon="114.2138328">
<ele>35.945</ele>
<time>2022-10-04T07:14:51.663Z</time>
</trkpt>
<trkpt lat="22.2846753" lon="114.2139821">
<ele>35.844</ele>
<time>2022-10-04T07:15:17.999Z</time>
</trkpt>
<trkpt lat="22.2846753" lon="114.2139821">
<ele>35.703</ele>
<time>2022-10-04T07:15:23.999Z</time>
</trkpt>
<trkpt lat="22.2846753" lon="114.2139821">
<ele>35.684</ele>
<time>2022-10-04T07:15:24.099Z</time>
</trkpt>
<trkpt lat="22.2847208" lon="114.2137165">
<ele>35.742</ele>
<time>2022-10-04T07:15:36.183Z</time>
</trkpt>
<trkpt lat="22.2847580" lon="114.2136205">
<ele>39.136</ele>
<time>2022-10-04T07:15:37.969Z</time>
</trkpt>
<trkpt lat="22.2847612" lon="114.2134643">
<ele>47.869</ele>
<time>2022-10-04T07:15:40.401Z</time>
</trkpt>
<trkpt lat="22.2846349" lon="114.2132623">
<ele>56.649</ele>
<time>2022-10-04T07:15:45.270Z</time>
</trkpt>
<trkpt lat="22.2845618" lon="114.2131506">
<ele>60.458</ele>
<time>2022-10-04T07:15:48.417Z</time>
</trkpt>
<trkpt lat="22.2846005" lon="114.2130612">
<ele>60.703</ele>
<time>2022-10-04T07:15:50.557Z</time>
</trkpt>
<trkpt lat="22.2846071" lon="114.2129560">
<ele>59.891</ele>
<time>2022-10-04T07:15:52.723Z</time>
</trkpt>
<trkpt lat="22.2846294" lon="114.2128208">
<ele>58.985</ele>
<time>2022-10-04T07:15:55.711Z</time>
</trkpt>
<trkpt lat="22.2846872" lon="114.2127094">
<ele>57.679</ele>
<time>2022-10-04T07:15:59.272Z</time>
</trkpt>
<trkpt lat="22.2847378" lon="114.2125957">
<ele>55.830</ele>
<time>2022-10-04T07:16:02.867Z</time>
</trkpt>
<trkpt lat="22.2847621" lon="114.2124457">
<ele>53.708</ele>
<time>2022-10-04T07:16:07.202Z</time>
</trkpt>
<trkpt lat="22.2849197" lon="114.2123912">
<ele>51.359</ele>
<time>2022-10-04T07:16:12.296Z</time>
</trkpt>
<trkpt lat="22.2849443" lon="114.2122841">
<ele>48.981</ele>
<time>2022-10-04T07:16:15.439Z</time>
</trkpt>
<trkpt lat="22.2852209" lon="114.2118180">
<ele>46.097</ele>
<time>2022-10-04T07:16:31.206Z</time>
</trkpt>
<trkpt lat="22.2851966" lon="114.2116720">
<ele>43.570</ele>
<time>2022-10-04T07:16:35.431Z</time>
</trkpt>
<trkpt lat="22.2852385" lon="114.2115801">
<ele>38.126</ele>
<time>2022-10-04T07:16:38.348Z</time>
</trkpt>
<trkpt lat="22.2853494" lon="114.2115462">
<ele>31.836</ele>
<time>2022-10-04T07:16:41.895Z</time>
</trkpt>
<trkpt lat="22.2854532" lon="114.2114672">
<ele>27.391</ele>
<time>2022-10-04T07:16:46.490Z</time>
</trkpt>
<trkpt lat="22.2855322" lon="114.2114111">
<ele>24.667</ele>
<time>2022-10-04T07:16:50.406Z</time>
</trkpt>
<trkpt lat="22.2856563" lon="114.2113447">
<ele>22.505</ele>
<time>2022-10-04T07:16:55.366Z</time>
</trkpt>
<trkpt lat="22.2858220" lon="114.2112801">
<ele>20.571</ele>
<time>2022-10-04T07:17:01.076Z</time>
</trkpt>
<trkpt lat="22.2859647" lon="114.2111761">
<ele>19.004</ele>
<time>2022-10-04T07:17:05.676Z</time>
</trkpt>
<trkpt lat="22.2860907" lon="114.2110631">
<ele>17.839</ele>
<time>2022-10-04T07:17:09.090Z</time>
</trkpt>
<trkpt lat="22.2862525" lon="114.2109666">
<ele>17.060</ele>
<time>2022-10-04T07:17:12.607Z</time>
</trkpt>
<trkpt lat="22.2863813" lon="114.2108575">
<ele>16.591</ele>
<time>2022-10-04T07:17:15.624Z</time>
</trkpt>
<trkpt lat="22.2865658" lon="114.2109006">
<ele>16.181</ele>
<time>2022-10-04T07:17:19.042Z</time>
</trkpt>
<trkpt lat="22.2866954" lon="114.2108843">
<ele>15.652</ele>
<time>2022-10-04T07:17:21.630Z</time>
</trkpt>
<trkpt lat="22.2868207" lon="114.2107501">
<ele>15.182</ele>
<time>2022-10-04T07:17:25.764Z</time>
</trkpt>
<trkpt lat="22.2870082" lon="114.2105948">
<ele>15.074</ele>
<time>2022-10-04T07:17:30.769Z</time>
</trkpt>
<trkpt lat="22.2871582" lon="114.2105555">
<ele>15.471</ele>
<time>2022-10-04T07:17:33.380Z</time>
</trkpt>
<trkpt lat="22.2872207" lon="114.2104516">
<ele>16.279</ele>
<time>2022-10-04T07:17:35.317Z</time>
</trkpt>
<trkpt lat="22.2873255" lon="114.2104517">
<ele>17.197</ele>
<time>2022-10-04T07:17:37.544Z</time>
</trkpt>
<trkpt lat="22.2874050" lon="114.2103938">
<ele>17.858</ele>
<time>2022-10-04T07:17:39.941Z</time>
</trkpt>
<trkpt lat="22.2875245" lon="114.2104394">
<ele>18.102</ele>
<time>2022-10-04T07:17:43.141Z</time>
</trkpt>
<trkpt lat="22.2876138" lon="114.2103589">
<ele>18.046</ele>
<time>2022-10-04T07:17:45.999Z</time>
</trkpt>
<trkpt lat="22.2876138" lon="114.2103589">
<ele>17.935</ele>
<time>2022-10-04T07:17:51.999Z</time>
</trkpt>
<trkpt lat="22.2876138" lon="114.2103589">
<ele>17.878</ele>
<time>2022-10-04T07:17:52.099Z</time>
</trkpt>
<trkpt lat="22.2876331" lon="114.2101259">
<ele>17.895</ele>
<time>2022-10-04T07:18:12.949Z</time>
</trkpt>
<trkpt lat="22.2877339" lon="114.2100814">
<ele>19.563</ele>
<time>2022-10-04T07:18:15.386Z</time>
</trkpt>
<trkpt lat="22.2878242" lon="114.2100504">
<ele>23.809</ele>
<time>2022-10-04T07:18:17.108Z</time>
</trkpt>
<trkpt lat="22.2879306" lon="114.2100233">
<ele>27.942</ele>
<time>2022-10-04T07:18:18.878Z</time>
</trkpt>
<trkpt lat="22.2880430" lon="114.2099847">
<ele>29.341</ele>
<time>2022-10-04T07:18:20.641Z</time>
</trkpt>
<trkpt lat="22.2881572" lon="114.2099296">
<ele>28.631</ele>
<time>2022-10-04T07:18:22.444Z</time>
</trkpt>
<trkpt lat="22.2882790" lon="114.2099096">
<ele>27.308</ele>
<time>2022-10-04T07:18:24.290Z</time>
</trkpt>
<trkpt lat="22.2883822" lon="114.2098819">
<ele>26.200</ele>
<time>2022-10-04T07:18:26.165Z</time>
</trkpt>
<trkpt lat="22.2884749" lon="114.2098849">
<ele>25.368</ele>
<time>2022-10-04T07:18:28.024Z</time>
</trkpt>
<trkpt lat="22.2885637" lon="114.2098502">
<ele>24.741</ele>
<time>2022-10-04T07:18:30.344Z</time>
</trkpt>
<trkpt lat="22.2886671" lon="114.2098181">
<ele>24.362</ele>
<time>2022-10-04T07:18:33.602Z</time>
</trkpt>
<trkpt lat="22.2887575" lon="114.2097891">
<ele>24.090</ele>
<time>2022-10-04T07:18:36.999Z</time>
</trkpt>
<trkpt lat="22.2887575" lon="114.2097891">
<ele>23.790</ele>
<time>2022-10-04T07:18:39.999Z</time>
</trkpt>
<trkpt lat="22.2887575" lon="114.2097891">
<ele>23.575</ele>
<time>2022-10-04T07:18:50.198Z</time>
</trkpt>
<trkpt lat="22.2888964" lon="114.2097417">
<ele>23.574</ele>
<time>2022-10-04T07:18:57.518Z</time>
</trkpt>
<trkpt lat="22.2890317" lon="114.2097316">
<ele>22.721</ele>
<time>2022-10-04T07:19:00.580Z</time>
</trkpt>
<trkpt lat="22.2891249" lon="114.2097033">
<ele>19.997</ele>
<time>2022-10-04T07:19:02.310Z</time>
</trkpt>
<trkpt lat="22.2892821" lon="114.2096711">
<ele>16.651</ele>
<time>2022-10-04T07:19:05.157Z</time>
</trkpt>
<trkpt lat="22.2893802" lon="114.2096835">
<ele>14.593</ele>
<time>2022-10-04T07:19:06.999Z</time>
</trkpt>
<trkpt lat="22.2893802" lon="114.2096835">
<ele>13.997</ele>
<time>2022-10-04T07:19:12.999Z</time>
</trkpt>
<trkpt lat="22.2893802" lon="114.2096835">
<ele>14.135</ele>
<time>2022-10-04T07:19:38.963Z</time>
</trkpt>
<trkpt lat="22.2895869" lon="114.2097078">
<ele>14.410</ele>
<time>2022-10-04T07:19:50.300Z</time>
</trkpt>
<trkpt lat="22.2896790" lon="114.2096670">
<ele>15.135</ele>
<time>2022-10-04T07:19:52.251Z</time>
</trkpt>
<trkpt lat="22.2897814" lon="114.2096117">
<ele>16.635</ele>
<time>2022-10-04T07:19:54.119Z</time>
</trkpt>
<trkpt lat="22.2898873" lon="114.2095439">
<ele>17.947</ele>
<time>2022-10-04T07:19:55.914Z</time>
</trkpt>
<trkpt lat="22.2900117" lon="114.2095052">
<ele>18.180</ele>
<time>2022-10-04T07:19:57.667Z</time>
</trkpt>
<trkpt lat="22.2901428" lon="114.2094779">
<ele>17.693</ele>
<time>2022-10-04T07:19:59.434Z</time>
</trkpt>
<trkpt lat="22.2902775" lon="114.2095178">
<ele>17.073</ele>
<time>2022-10-04T07:20:01.302Z</time>
</trkpt>
<trkpt lat="22.2903946" lon="114.2094812">
<ele>16.650</ele>
<time>2022-10-04T07:20:02.878Z</time>
</trkpt>
<trkpt lat="22.2905702" lon="114.2093780">
<ele>16.508</ele>
<time>2022-10-04T07:20:05.282Z</time>
</trkpt>
<trkpt lat="22.2906754" lon="114.2092473">
<ele>16.386</ele>
<time>2022-10-04T07:20:07.214Z</time>
</trkpt>
<trkpt lat="22.2907933" lon="114.2092040">
<ele>15.974</ele>
<time>2022-10-04T07:20:08.968Z</time>
</trkpt>
<trkpt lat="22.2908673" lon="114.2091036">
<ele>15.287</ele>
<time>2022-10-04T07:20:10.859Z</time>
</trkpt>
<trkpt lat="22.2908711" lon="114.2090024">
<ele>14.637</ele>
<time>2022-10-04T07:20:12.999Z</time>
</trkpt>
<trkpt lat="22.2908711" lon="114.2090024">
<ele>14.313</ele>
<time>2022-10-04T07:20:16.999Z</time>
</trkpt>
<trkpt lat="22.2908711" lon="114.2090024">
<ele>14.339</ele>
<time>2022-10-04T07:20:30.809Z</time>
</trkpt>
<trkpt lat="22.2909844" lon="114.2088525">
<ele>14.496</ele>
<time>2022-10-04T07:20:40.534Z</time>
</trkpt>
<trkpt lat="22.2910428" lon="114.2087102">
<ele>16.111</ele>
<time>2022-10-04T07:20:44.651Z</time>
</trkpt>
<trkpt lat="22.2910957" lon="114.2086033">
<ele>20.067</ele>
<time>2022-10-04T07:20:47.487Z</time>
</trkpt>
<trkpt lat="22.2912386" lon="114.2086095">
<ele>24.086</ele>
<time>2022-10-04T07:20:50.681Z</time>
</trkpt>
<trkpt lat="22.2913273" lon="114.2085854">
<ele>25.992</ele>
<time>2022-10-04T07:20:52.609Z</time>
</trkpt>
<trkpt lat="22.2913996" lon="114.2084866">
<ele>26.303</ele>
<time>2022-10-04T07:20:54.937Z</time>
</trkpt>
<trkpt lat="22.2914525" lon="114.2084017">
<ele>26.060</ele>
<time>2022-10-04T07:20:56.798Z</time>
</trkpt>
<trkpt lat="22.2915139" lon="114.2082756">
<ele>25.887</ele>
<time>2022-10-04T07:20:59.239Z</time>
</trkpt>
<trkpt lat="22.2915459" lon="114.2081607">
<ele>25.934</ele>
<time>2022-10-04T07:21:01.144Z</time>
</trkpt>
<trkpt lat="22.2915873" lon="114.2080492">
<ele>26.117</ele>
<time>2022-10-04T07:21:02.945Z</time>
</trkpt>
<trkpt lat="22.2916069" lon="114.2079165">
<ele>26.063</ele>
<time>2022-10-04T07:21:04.863Z</time>
</trkpt>
<trkpt lat="22.2916350" lon="114.2077971">
<ele>25.316</ele>
<time>2022-10-04T07:21:06.551Z</time>
</trkpt>
<trkpt lat="22.2916674" lon="114.2076573">
<ele>23.894</ele>
<time>2022-10-04T07:21:08.486Z</time>
</trkpt>
<trkpt lat="22.2916978" lon="114.2075277">
<ele>22.062</ele>
<time>2022-10-04T07:21:10.380Z</time>
</trkpt>
<trkpt lat="22.2916986" lon="114.2074212">
<ele>20.186</ele>
<time>2022-10-04T07:21:12.419Z</time>
</trkpt>
<trkpt lat="22.2916840" lon="114.2073065">
<ele>18.849</ele>
<time>2022-10-04T07:21:14.999Z</time>
</trkpt>
<trkpt lat="22.2916840" lon="114.2073065">
<ele>18.354</ele>
<time>2022-10-04T07:21:17.999Z</time>
</trkpt>
<trkpt lat="22.2916840" lon="114.2073065">
<ele>18.429</ele>
<time>2022-10-04T07:21:55.358Z</time>
</trkpt>
<trkpt lat="22.2917238" lon="114.2070815">
<ele>18.663</ele>
<time>2022-10-04T07:22:08.408Z</time>
</trkpt>
<trkpt lat="22.2918188" lon="114.2070036">
<ele>21.505</ele>
<time>2022-10-04T07:22:11.726Z</time>
</trkpt>
<trkpt lat="22.2918556" lon="114.2069062">
<ele>28.555</ele>
<time>2022-10-04T07:22:14.178Z</time>
</trkpt>
<trkpt lat="22.2919036" lon="114.2067903">
<ele>35.412</ele>
<time>2022-10-04T07:22:16.811Z</time>
</trkpt>
<trkpt lat="22.2919690" lon="114.2067089">
<ele>37.558</ele>
<time>2022-10-04T07:22:18.974Z</time>
</trkpt>
<trkpt lat="22.2919889" lon="114.2065711">
<ele>36.034</ele>
<time>2022-10-04T07:22:21.775Z</time>
</trkpt>
<trkpt lat="22.2920295" lon="114.2064378">
<ele>33.572</ele>
<time>2022-10-04T07:22:24.463Z</time>
</trkpt>
<trkpt lat="22.2920297" lon="114.2063329">
<ele>31.854</ele>
<time>2022-10-04T07:22:26.404Z</time>
</trkpt>
<trkpt lat="22.2920935" lon="114.2062019">
<ele>31.091</ele>
<time>2022-10-04T07:22:29.115Z</time>
</trkpt>
<trkpt lat="22.2920699" lon="114.2060897">
<ele>30.775</ele>
<time>2022-10-04T07:22:31.155Z</time>
</trkpt>
<trkpt lat="22.2920655" lon="114.2059754">
<ele>30.477</ele>
<time>2022-10-04T07:22:33.140Z</time>
</trkpt>
<trkpt lat="22.2921048" lon="114.2058835">
<ele>30.180</ele>
<time>2022-10-04T07:22:34.876Z</time>
</trkpt>
<trkpt lat="22.2921216" lon="114.2057772">
<ele>29.891</ele>
<time>2022-10-04T07:22:36.709Z</time>
</trkpt>
<trkpt lat="22.2921672" lon="114.2056803">
<ele>29.563</ele>
<time>2022-10-04T07:22:38.692Z</time>
</trkpt>
<trkpt lat="22.2922391" lon="114.2055865">
<ele>29.129</ele>
<time>2022-10-04T07:22:41.144Z</time>
</trkpt>
<trkpt lat="22.2922509" lon="114.2054843">
<ele>28.158</ele>
<time>2022-10-04T07:22:43.460Z</time>
</trkpt>
<trkpt lat="22.2922495" lon="114.2053777">
<ele>26.584</ele>
<time>2022-10-04T07:22:46.090Z</time>
</trkpt>
<trkpt lat="22.2922271" lon="114.2052736">
<ele>25.102</ele>
<time>2022-10-04T07:22:49.048Z</time>
</trkpt>
<trkpt lat="22.2921781" lon="114.2051898">
<ele>24.215</ele>
<time>2022-10-04T07:22:53.823Z</time>
</trkpt>
<trkpt lat="22.2921657" lon="114.2050904">
<ele>23.757</ele>
<time>2022-10-04T07:23:03.000Z</time>
</trkpt>
<trkpt lat="22.2921657" lon="114.2050904">
<ele>23.528</ele>
<time>2022-10-04T07:23:13.000Z</time>
</trkpt>
<trkpt lat="22.2921657" lon="114.2050904">
<ele>23.470</ele>
<time>2022-10-04T07:23:13.100Z</time>
</trkpt>
<trkpt lat="22.2921573" lon="114.2048077">
<ele>23.502</ele>
<time>2022-10-04T07:23:58.799Z</time>
</trkpt>
<trkpt lat="22.2921595" lon="114.2046413">
<ele>22.674</ele>
<time>2022-10-04T07:24:01.780Z</time>
</trkpt>
<trkpt lat="22.2921615" lon="114.2045192">
<ele>20.343</ele>
<time>2022-10-04T07:24:03.741Z</time>
</trkpt>
<trkpt lat="22.2921314" lon="114.2044028">
<ele>17.711</ele>
<time>2022-10-04T07:24:05.537Z</time>
</trkpt>
<trkpt lat="22.2920990" lon="114.2042814">
<ele>16.246</ele>
<time>2022-10-04T07:24:07.283Z</time>
</trkpt>
<trkpt lat="22.2920656" lon="114.2041466">
<ele>15.806</ele>
<time>2022-10-04T07:24:09.155Z</time>
</trkpt>
<trkpt lat="22.2920284" lon="114.2040017">
<ele>15.610</ele>
<time>2022-10-04T07:24:11.060Z</time>
</trkpt>
<trkpt lat="22.2919904" lon="114.2038483">
<ele>15.277</ele>
<time>2022-10-04T07:24:13.087Z</time>
</trkpt>
<trkpt lat="22.2919485" lon="114.2037063">
<ele>15.125</ele>
<time>2022-10-04T07:24:15.000Z</time>
</trkpt>
<trkpt lat="22.2919485" lon="114.2037063">
<ele>15.404</ele>
<time>2022-10-04T07:24:21.000Z</time>
</trkpt>
<trkpt lat="22.2919485" lon="114.2037063">
<ele>15.729</ele>
<time>2022-10-04T07:24:47.565Z</time>
</trkpt>
<trkpt lat="22.2918669" lon="114.2034992">
<ele>15.729</ele>
<time>2022-10-04T07:25:02.545Z</time>
</trkpt>
<trkpt lat="22.2918513" lon="114.2033942">
<ele>17.677</ele>
<time>2022-10-04T07:25:09.000Z</time>
</trkpt>
<trkpt lat="22.2918513" lon="114.2033942">
<ele>23.091</ele>
<time>2022-10-04T07:25:10.000Z</time>
</trkpt>
<trkpt lat="22.2918513" lon="114.2033942">
<ele>27.670</ele>
<time>2022-10-04T07:25:16.869Z</time>
</trkpt>
<trkpt lat="22.2918422" lon="114.2032012">
<ele>27.589</ele>
<time>2022-10-04T07:25:27.555Z</time>
</trkpt>
<trkpt lat="22.2918179" lon="114.2030879">
<ele>26.480</ele>
<time>2022-10-04T07:25:30.356Z</time>
</trkpt>
<trkpt lat="22.2918098" lon="114.2029608">
<ele>28.123</ele>
<time>2022-10-04T07:25:32.901Z</time>
</trkpt>
<trkpt lat="22.2917863" lon="114.2028431">
<ele>30.999</ele>
<time>2022-10-04T07:25:34.858Z</time>
</trkpt>
<trkpt lat="22.2917628" lon="114.2027180">
<ele>32.696</ele>
<time>2022-10-04T07:25:36.667Z</time>
</trkpt>
<trkpt lat="22.2917314" lon="114.2025774">
<ele>33.242</ele>
<time>2022-10-04T07:25:38.548Z</time>
</trkpt>
<trkpt lat="22.2916969" lon="114.2023697">
<ele>33.370</ele>
<time>2022-10-04T07:25:41.179Z</time>
</trkpt>
<trkpt lat="22.2916378" lon="114.2022134">
<ele>33.470</ele>
<time>2022-10-04T07:25:43.142Z</time>
</trkpt>
<trkpt lat="22.2916151" lon="114.2020430">
<ele>33.450</ele>
<time>2022-10-04T07:25:45.065Z</time>
</trkpt>
<trkpt lat="22.2915705" lon="114.2019011">
<ele>33.221</ele>
<time>2022-10-04T07:25:46.717Z</time>
</trkpt>
<trkpt lat="22.2916107" lon="114.2016166">
<ele>32.998</ele>
<time>2022-10-04T07:25:49.859Z</time>
</trkpt>
<trkpt lat="22.2915880" lon="114.2013748">
<ele>33.145</ele>
<time>2022-10-04T07:25:52.489Z</time>
</trkpt>
<trkpt lat="22.2914777" lon="114.2011516">
<ele>33.599</ele>
<time>2022-10-04T07:25:55.316Z</time>
</trkpt>
<trkpt lat="22.2914679" lon="114.2010091">
<ele>33.925</ele>
<time>2022-10-04T07:25:56.978Z</time>
</trkpt>
<trkpt lat="22.2914733" lon="114.2008947">
<ele>33.954</ele>
<time>2022-10-04T07:25:58.385Z</time>
</trkpt>
<trkpt lat="22.2913390" lon="114.2007479">
<ele>33.807</ele>
<time>2022-10-04T07:26:01.160Z</time>
</trkpt>
<trkpt lat="22.2913946" lon="114.2005074">
<ele>33.440</ele>
<time>2022-10-04T07:26:05.000Z</time>
</trkpt>
<trkpt lat="22.2913946" lon="114.2005074">
<ele>32.899</ele>
<time>2022-10-04T07:26:09.000Z</time>
</trkpt>
<trkpt lat="22.2913946" lon="114.2005074">
<ele>32.532</ele>
<time>2022-10-04T07:26:09.100Z</time>
</trkpt>
<trkpt lat="22.2912511" lon="114.2007644">
<ele>32.610</ele>
<time>2022-10-04T07:26:20.000Z</time>
</trkpt>
<trkpt lat="22.2912511" lon="114.2007644">
<ele>32.904</ele>
<time>2022-10-04T07:26:24.000Z</time>
</trkpt>
<trkpt lat="22.2912511" lon="114.2007644">
<ele>33.041</ele>
<time>2022-10-04T07:27:27.640Z</time>
</trkpt>
<trkpt lat="22.2912535" lon="114.2005780">
<ele>32.986</ele>
<time>2022-10-04T07:27:37.275Z</time>
</trkpt>
<trkpt lat="22.2912455" lon="114.2004642">
<ele>35.657</ele>
<time>2022-10-04T07:27:39.962Z</time>
</trkpt>
<trkpt lat="22.2912210" lon="114.2003351">
<ele>42.777</ele>
<time>2022-10-04T07:27:42.605Z</time>
</trkpt>
<trkpt lat="22.2912106" lon="114.2001673">
<ele>50.078</ele>
<time>2022-10-04T07:27:45.671Z</time>
</trkpt>
<trkpt lat="22.2911612" lon="114.2000222">
<ele>53.457</ele>
<time>2022-10-04T07:27:48.378Z</time>
</trkpt>
<trkpt lat="22.2911789" lon="114.1998341">
<ele>53.643</ele>
<time>2022-10-04T07:27:51.602Z</time>
</trkpt>
<trkpt lat="22.2911697" lon="114.1996619">
<ele>52.374</ele>
<time>2022-10-04T07:27:54.404Z</time>
</trkpt>
<trkpt lat="22.2911209" lon="114.1994930">
<ele>51.067</ele>
<time>2022-10-04T07:27:57.179Z</time>
</trkpt>
<trkpt lat="22.2910974" lon="114.1993207">
<ele>50.171</ele>
<time>2022-10-04T07:27:59.891Z</time>
</trkpt>
<trkpt lat="22.2911208" lon="114.1991059">
<ele>49.195</ele>
<time>2022-10-04T07:28:03.256Z</time>
</trkpt>
<trkpt lat="22.2910929" lon="114.1989353">
<ele>47.791</ele>
<time>2022-10-04T07:28:05.933Z</time>
</trkpt>
<trkpt lat="22.2910645" lon="114.1988294">
<ele>46.202</ele>
<time>2022-10-04T07:28:07.648Z</time>
</trkpt>
<trkpt lat="22.2910847" lon="114.1987225">
<ele>44.871</ele>
<time>2022-10-04T07:28:09.394Z</time>
</trkpt>
<trkpt lat="22.2909928" lon="114.1986694">
<ele>44.054</ele>
<time>2022-10-04T07:28:11.316Z</time>
</trkpt>
<trkpt lat="22.2911331" lon="114.1985098">
<ele>43.647</ele>
<time>2022-10-04T07:28:15.105Z</time>
</trkpt>
<trkpt lat="22.2908580" lon="114.1979623">
<ele>43.295</ele>
<time>2022-10-04T07:28:25.611Z</time>
</trkpt>
<trkpt lat="22.2908812" lon="114.1978116">
<ele>43.487</ele>
<time>2022-10-04T07:28:28.010Z</time>
</trkpt>
<trkpt lat="22.2906324" lon="114.1973525">
<ele>44.454</ele>
<time>2022-10-04T07:28:36.898Z</time>
</trkpt>
<trkpt lat="22.2905770" lon="114.1972331">
<ele>45.111</ele>
<time>2022-10-04T07:28:39.327Z</time>
</trkpt>
<trkpt lat="22.2905194" lon="114.1971436">
<ele>45.752</ele>
<time>2022-10-04T07:28:41.495Z</time>
</trkpt>
<trkpt lat="22.2904815" lon="114.1973224">
<ele>46.123</ele>
<time>2022-10-04T07:28:45.999Z</time>
</trkpt>
<trkpt lat="22.2904815" lon="114.1973224">
<ele>46.212</ele>
<time>2022-10-04T07:28:47.999Z</time>
</trkpt>
<trkpt lat="22.2904815" lon="114.1973224">
<ele>46.165</ele>
<time>2022-10-04T07:29:00.281Z</time>
</trkpt>
<trkpt lat="22.2904541" lon="114.1970473">
<ele>46.100</ele>
<time>2022-10-04T07:29:20.535Z</time>
</trkpt>
<trkpt lat="22.2904738" lon="114.1969352">
<ele>42.811</ele>
<time>2022-10-04T07:29:23.115Z</time>
</trkpt>
<trkpt lat="22.2905097" lon="114.1967968">
<ele>34.327</ele>
<time>2022-10-04T07:29:25.851Z</time>
</trkpt>
<trkpt lat="22.2904974" lon="114.1966883">
<ele>25.763</ele>
<time>2022-10-04T07:29:27.690Z</time>
</trkpt>
<trkpt lat="22.2904799" lon="114.1965926">
<ele>22.035</ele>
<time>2022-10-04T07:29:29.164Z</time>
</trkpt>
<trkpt lat="22.2904435" lon="114.1964679">
<ele>22.000</ele>
<time>2022-10-04T07:29:31.031Z</time>
</trkpt>
<trkpt lat="22.2904543" lon="114.1962932">
<ele>23.284</ele>
<time>2022-10-04T07:29:33.467Z</time>
</trkpt>
<trkpt lat="22.2904478" lon="114.1961794">
<ele>24.284</ele>
<time>2022-10-04T07:29:35.071Z</time>
</trkpt>
<trkpt lat="22.2903394" lon="114.1960230">
<ele>24.479</ele>
<time>2022-10-04T07:29:37.954Z</time>
</trkpt>
<trkpt lat="22.2902321" lon="114.1959044">
<ele>24.092</ele>
<time>2022-10-04T07:29:40.743Z</time>
</trkpt>
<trkpt lat="22.2901991" lon="114.1957966">
<ele>23.246</ele>
<time>2022-10-04T07:29:42.828Z</time>
</trkpt>
<trkpt lat="22.2902291" lon="114.1956606">
<ele>21.934</ele>
<time>2022-10-04T07:29:45.491Z</time>
</trkpt>
<trkpt lat="22.2902246" lon="114.1955162">
<ele>20.604</ele>
<time>2022-10-04T07:29:48.395Z</time>
</trkpt>
<trkpt lat="22.2902072" lon="114.1954062">
<ele>19.818</ele>
<time>2022-10-04T07:29:50.724Z</time>
</trkpt>
<trkpt lat="22.2901778" lon="114.1952813">
<ele>19.585</ele>
<time>2022-10-04T07:29:53.427Z</time>
</trkpt>
<trkpt lat="22.2901097" lon="114.1951737">
<ele>19.595</ele>
<time>2022-10-04T07:29:56.047Z</time>
</trkpt>
<trkpt lat="22.2900188" lon="114.1950841">
<ele>19.657</ele>
<time>2022-10-04T07:29:58.637Z</time>
</trkpt>
<trkpt lat="22.2900355" lon="114.1949518">
<ele>19.836</ele>
<time>2022-10-04T07:30:01.161Z</time>
</trkpt>
<trkpt lat="22.2900170" lon="114.1948534">
<ele>20.270</ele>
<time>2022-10-04T07:30:03.170Z</time>
</trkpt>
<trkpt lat="22.2899189" lon="114.1947962">
<ele>20.845</ele>
<time>2022-10-04T07:30:05.583Z</time>
</trkpt>
<trkpt lat="22.2898201" lon="114.1946939">
<ele>21.256</ele>
<time>2022-10-04T07:30:08.396Z</time>
</trkpt>
<trkpt lat="22.2897481" lon="114.1946271">
<ele>21.329</ele>
<time>2022-10-04T07:30:10.208Z</time>
</trkpt>
<trkpt lat="22.2896830" lon="114.1945506">
<ele>21.021</ele>
<time>2022-10-04T07:30:11.978Z</time>
</trkpt>
<trkpt lat="22.2895282" lon="114.1945499">
<ele>20.429</ele>
<time>2022-10-04T07:30:14.880Z</time>
</trkpt>
<trkpt lat="22.2894406" lon="114.1944698">
<ele>19.786</ele>
<time>2022-10-04T07:30:17.337Z</time>
</trkpt>
<trkpt lat="22.2893432" lon="114.1944421">
<ele>19.252</ele>
<time>2022-10-04T07:30:19.924Z</time>
</trkpt>
<trkpt lat="22.2892466" lon="114.1944573">
<ele>18.721</ele>
<time>2022-10-04T07:30:23.098Z</time>
</trkpt>
<trkpt lat="22.2891541" lon="114.1944137">
<ele>18.006</ele>
<time>2022-10-04T07:30:27.000Z</time>
</trkpt>
<trkpt lat="22.2891541" lon="114.1944137">
<ele>17.227</ele>
<time>2022-10-04T07:30:32.000Z</time>
</trkpt>
<trkpt lat="22.2891541" lon="114.1944137">
<ele>16.790</ele>
<time>2022-10-04T07:30:57.264Z</time>
</trkpt>
<trkpt lat="22.2889894" lon="114.1943146">
<ele>16.816</ele>
<time>2022-10-04T07:31:09.104Z</time>
</trkpt>
<trkpt lat="22.2888802" lon="114.1942571">
<ele>15.556</ele>
<time>2022-10-04T07:31:12.744Z</time>
</trkpt>
<trkpt lat="22.2887799" lon="114.1942062">
<ele>11.675</ele>
<time>2022-10-04T07:31:15.547Z</time>
</trkpt>
<trkpt lat="22.2887055" lon="114.1941166">
<ele>7.283</ele>
<time>2022-10-04T07:31:18.047Z</time>
</trkpt>
<trkpt lat="22.2885724" lon="114.1940421">
<ele>4.988</ele>
<time>2022-10-04T07:31:21.185Z</time>
</trkpt>
<trkpt lat="22.2884974" lon="114.1939282">
<ele>4.691</ele>
<time>2022-10-04T07:31:23.807Z</time>
</trkpt>
<trkpt lat="22.2884442" lon="114.1937433">
<ele>5.307</ele>
<time>2022-10-04T07:31:27.409Z</time>
</trkpt>
<trkpt lat="22.2883940" lon="114.1936506">
<ele>6.142</ele>
<time>2022-10-04T07:31:29.458Z</time>
</trkpt>
<trkpt lat="22.2883027" lon="114.1935445">
<ele>6.957</ele>
<time>2022-10-04T07:31:32.259Z</time>
</trkpt>
<trkpt lat="22.2881985" lon="114.1934442">
<ele>7.533</ele>
<time>2022-10-04T07:31:35.240Z</time>
</trkpt>
<trkpt lat="22.2881412" lon="114.1933302">
<ele>7.651</ele>
<time>2022-10-04T07:31:38.000Z</time>
</trkpt>
<trkpt lat="22.2880610" lon="114.1932411">
<ele>7.352</ele>
<time>2022-10-04T07:31:40.829Z</time>
</trkpt>
<trkpt lat="22.2879879" lon="114.1931557">
<ele>6.991</ele>
<time>2022-10-04T07:31:43.521Z</time>
</trkpt>
<trkpt lat="22.2878985" lon="114.1930771">
<ele>6.947</ele>
<time>2022-10-04T07:31:46.339Z</time>
</trkpt>
<trkpt lat="22.2877818" lon="114.1930449">
<ele>7.450</ele>
<time>2022-10-04T07:31:49.180Z</time>
</trkpt>
<trkpt lat="22.2876583" lon="114.1930233">
<ele>8.787</ele>
<time>2022-10-04T07:31:52.030Z</time>
</trkpt>
<trkpt lat="22.2875317" lon="114.1929995">
<ele>10.873</ele>
<time>2022-10-04T07:31:54.889Z</time>
</trkpt>
<trkpt lat="22.2874005" lon="114.1929819">
<ele>12.941</ele>
<time>2022-10-04T07:31:57.820Z</time>
</trkpt>
<trkpt lat="22.2872760" lon="114.1929695">
<ele>14.290</ele>
<time>2022-10-04T07:32:00.636Z</time>
</trkpt>
<trkpt lat="22.2871485" lon="114.1929701">
<ele>14.966</ele>
<time>2022-10-04T07:32:03.538Z</time>
</trkpt>
<trkpt lat="22.2870305" lon="114.1929589">
<ele>15.476</ele>
<time>2022-10-04T07:32:06.261Z</time>
</trkpt>
<trkpt lat="22.2869267" lon="114.1929357">
<ele>16.143</ele>
<time>2022-10-04T07:32:08.944Z</time>
</trkpt>
<trkpt lat="22.2868178" lon="114.1928982">
<ele>16.806</ele>
<time>2022-10-04T07:32:12.999Z</time>
</trkpt>
<trkpt lat="22.2868178" lon="114.1928982">
<ele>17.212</ele>
<time>2022-10-04T07:32:17.000Z</time>
</trkpt>
<trkpt lat="22.2868178" lon="114.1928982">
<ele>17.341</ele>
<time>2022-10-04T07:32:44.395Z</time>
</trkpt>
<trkpt lat="22.2866343" lon="114.1928763">
<ele>17.307</ele>
<time>2022-10-04T07:32:55.563Z</time>
</trkpt>
<trkpt lat="22.2865412" lon="114.1928616">
<ele>17.523</ele>
<time>2022-10-04T07:32:58.813Z</time>
</trkpt>
<trkpt lat="22.2864396" lon="114.1929518">
<ele>18.412</ele>
<time>2022-10-04T07:33:02.753Z</time>
</trkpt>
<trkpt lat="22.2863307" lon="114.1928898">
<ele>19.647</ele>
<time>2022-10-04T07:33:05.954Z</time>
</trkpt>
<trkpt lat="22.2862287" lon="114.1928957">
<ele>20.469</ele>
<time>2022-10-04T07:33:08.371Z</time>
</trkpt>
<trkpt lat="22.2860984" lon="114.1929425">
<ele>20.662</ele>
<time>2022-10-04T07:33:11.462Z</time>
</trkpt>
<trkpt lat="22.2859918" lon="114.1929703">
<ele>20.589</ele>
<time>2022-10-04T07:33:13.949Z</time>
</trkpt>
<trkpt lat="22.2858967" lon="114.1929988">
<ele>20.736</ele>
<time>2022-10-04T07:33:16.208Z</time>
</trkpt>
<trkpt lat="22.2857771" lon="114.1930006">
<ele>21.223</ele>
<time>2022-10-04T07:33:18.914Z</time>
</trkpt>
<trkpt lat="22.2856542" lon="114.1930028">
<ele>21.762</ele>
<time>2022-10-04T07:33:21.588Z</time>
</trkpt>
<trkpt lat="22.2855430" lon="114.1929754">
<ele>22.203</ele>
<time>2022-10-04T07:33:24.000Z</time>
</trkpt>
<trkpt lat="22.2855430" lon="114.1929754">
<ele>22.596</ele>
<time>2022-10-04T07:33:30.000Z</time>
</trkpt>
<trkpt lat="22.2855430" lon="114.1929754">
<ele>22.820</ele>
<time>2022-10-04T07:34:16.768Z</time>
</trkpt>
<trkpt lat="22.2853012" lon="114.1929403">
<ele>22.795</ele>
<time>2022-10-04T07:34:31.045Z</time>
</trkpt>
<trkpt lat="22.2851967" lon="114.1929162">
<ele>24.161</ele>
<time>2022-10-04T07:34:33.937Z</time>
</trkpt>
<trkpt lat="22.2851046" lon="114.1929167">
<ele>27.963</ele>
<time>2022-10-04T07:34:36.528Z</time>
</trkpt>
<trkpt lat="22.2850051" lon="114.1928832">
<ele>31.879</ele>
<time>2022-10-04T07:34:39.391Z</time>
</trkpt>
<trkpt lat="22.2848999" lon="114.1928093">
<ele>33.653</ele>
<time>2022-10-04T07:34:42.352Z</time>
</trkpt>
<trkpt lat="22.2847502" lon="114.1927572">
<ele>33.808</ele>
<time>2022-10-04T07:34:45.456Z</time>
</trkpt>
<trkpt lat="22.2846348" lon="114.1927176">
<ele>33.259</ele>
<time>2022-10-04T07:34:47.906Z</time>
</trkpt>
<trkpt lat="22.2845448" lon="114.1927166">
<ele>32.100</ele>
<time>2022-10-04T07:34:50.000Z</time>
</trkpt>
<trkpt lat="22.2845448" lon="114.1927166">
<ele>30.441</ele>
<time>2022-10-04T07:34:56.000Z</time>
</trkpt>
<trkpt lat="22.2845448" lon="114.1927166">
<ele>29.311</ele>
<time>2022-10-04T07:35:58.862Z</time>
</trkpt>
<trkpt lat="22.2843254" lon="114.1927293">
<ele>29.349</ele>
<time>2022-10-04T07:36:11.695Z</time>
</trkpt>
<trkpt lat="22.2841998" lon="114.1927171">
<ele>28.565</ele>
<time>2022-10-04T07:36:14.301Z</time>
</trkpt>
<trkpt lat="22.2840428" lon="114.1926006">
<ele>25.451</ele>
<time>2022-10-04T07:36:17.411Z</time>
</trkpt>
<trkpt lat="22.2838490" lon="114.1926255">
<ele>21.935</ele>
<time>2022-10-04T07:36:20.259Z</time>
</trkpt>
<trkpt lat="22.2836415" lon="114.1926571">
<ele>20.030</ele>
<time>2022-10-04T07:36:23.233Z</time>
</trkpt>
<trkpt lat="22.2834605" lon="114.1926128">
<ele>19.415</ele>
<time>2022-10-04T07:36:25.882Z</time>
</trkpt>
<trkpt lat="22.2833024" lon="114.1924872">
<ele>19.308</ele>
<time>2022-10-04T07:36:28.827Z</time>
</trkpt>
<trkpt lat="22.2832096" lon="114.1924512">
<ele>18.908</ele>
<time>2022-10-04T07:36:30.814Z</time>
</trkpt>
<trkpt lat="22.2831117" lon="114.1924142">
<ele>17.979</ele>
<time>2022-10-04T07:36:32.966Z</time>
</trkpt>
<trkpt lat="22.2830105" lon="114.1924259">
<ele>17.327</ele>
<time>2022-10-04T07:36:36.000Z</time>
</trkpt>
<trkpt lat="22.2830105" lon="114.1924259">
<ele>17.533</ele>
<time>2022-10-04T07:36:41.000Z</time>
</trkpt>
<trkpt lat="22.2830105" lon="114.1924259">
<ele>17.970</ele>
<time>2022-10-04T07:36:45.955Z</time>
</trkpt>
<trkpt lat="22.2830308" lon="114.1921630">
<ele>17.959</ele>
<time>2022-10-04T07:36:57.569Z</time>
</trkpt>
<trkpt lat="22.2829581" lon="114.1920626">
<ele>17.517</ele>
<time>2022-10-04T07:37:00.000Z</time>
</trkpt>
<trkpt lat="22.2829581" lon="114.1920626">
<ele>16.940</ele>
<time>2022-10-04T07:37:05.000Z</time>
</trkpt>
<trkpt lat="22.2829581" lon="114.1920626">
<ele>16.578</ele>
<time>2022-10-04T07:37:05.100Z</time>
</trkpt>
<trkpt lat="22.2827366" lon="114.1921915">
<ele>16.671</ele>
<time>2022-10-04T07:37:38.088Z</time>
</trkpt>
<trkpt lat="22.2826097" lon="114.1921542">
<ele>17.460</ele>
<time>2022-10-04T07:37:40.354Z</time>
</trkpt>
<trkpt lat="22.2824974" lon="114.1920093">
<ele>18.867</ele>
<time>2022-10-04T07:37:42.779Z</time>
</trkpt>
<trkpt lat="22.2823528" lon="114.1919155">
<ele>20.192</ele>
<time>2022-10-04T07:37:44.935Z</time>
</trkpt>
<trkpt lat="22.2822398" lon="114.1918054">
<ele>20.921</ele>
<time>2022-10-04T07:37:46.845Z</time>
</trkpt>
<trkpt lat="22.2821646" lon="114.1917013">
<ele>21.158</ele>
<time>2022-10-04T07:37:48.636Z</time>
</trkpt>
<trkpt lat="22.2821410" lon="114.1916057">
<ele>20.614</ele>
<time>2022-10-04T07:37:49.999Z</time>
</trkpt>
<trkpt lat="22.2821410" lon="114.1916057">
<ele>19.175</ele>
<time>2022-10-04T07:37:56.999Z</time>
</trkpt>
<trkpt lat="22.2821410" lon="114.1916057">
<ele>17.995</ele>
<time>2022-10-04T07:38:01.416Z</time>
</trkpt>
<trkpt lat="22.2820113" lon="114.1914358">
<ele>18.209</ele>
<time>2022-10-04T07:38:11.839Z</time>
</trkpt>
<trkpt lat="22.2819433" lon="114.1913357">
<ele>19.241</ele>
<time>2022-10-04T07:38:14.656Z</time>
</trkpt>
<trkpt lat="22.2818635" lon="114.1912291">
<ele>19.973</ele>
<time>2022-10-04T07:38:17.297Z</time>
</trkpt>
<trkpt lat="22.2817719" lon="114.1910848">
<ele>20.045</ele>
<time>2022-10-04T07:38:20.093Z</time>
</trkpt>
<trkpt lat="22.2816504" lon="114.1909058">
<ele>19.732</ele>
<time>2022-10-04T07:38:23.127Z</time>
</trkpt>
<trkpt lat="22.2815438" lon="114.1907281">
<ele>19.452</ele>
<time>2022-10-04T07:38:25.774Z</time>
</trkpt>
<trkpt lat="22.2814207" lon="114.1905394">
<ele>19.444</ele>
<time>2022-10-04T07:38:28.520Z</time>
</trkpt>
<trkpt lat="22.2812894" lon="114.1903398">
<ele>19.454</ele>
<time>2022-10-04T07:38:31.346Z</time>
</trkpt>
<trkpt lat="22.2811563" lon="114.1901444">
<ele>19.160</ele>
<time>2022-10-04T07:38:34.130Z</time>
</trkpt>
<trkpt lat="22.2810687" lon="114.1900160">
<ele>18.663</ele>
<time>2022-10-04T07:38:35.985Z</time>
</trkpt>
<trkpt lat="22.2809819" lon="114.1898927">
<ele>18.246</ele>
<time>2022-10-04T07:38:37.907Z</time>
</trkpt>
<trkpt lat="22.2808726" lon="114.1897399">
<ele>17.947</ele>
<time>2022-10-04T07:38:40.618Z</time>
</trkpt>
<trkpt lat="22.2807974" lon="114.1896301">
<ele>17.582</ele>
<time>2022-10-04T07:38:43.000Z</time>
</trkpt>
<trkpt lat="22.2807974" lon="114.1896301">
<ele>17.114</ele>
<time>2022-10-04T07:38:49.000Z</time>
</trkpt>
<trkpt lat="22.2807974" lon="114.1896301">
<ele>16.807</ele>
<time>2022-10-04T07:39:08.925Z</time>
</trkpt>
<trkpt lat="22.2806028" lon="114.1894661">
<ele>16.816</ele>
<time>2022-10-04T07:39:20.899Z</time>
</trkpt>
<trkpt lat="22.2805067" lon="114.1893340">
<ele>15.961</ele>
<time>2022-10-04T07:39:23.668Z</time>
</trkpt>
<trkpt lat="22.2804099" lon="114.1891766">
<ele>13.452</ele>
<time>2022-10-04T07:39:26.239Z</time>
</trkpt>
<trkpt lat="22.2803017" lon="114.1889998">
<ele>10.836</ele>
<time>2022-10-04T07:39:28.992Z</time>
</trkpt>
<trkpt lat="22.2802088" lon="114.1888237">
<ele>9.645</ele>
<time>2022-10-04T07:39:31.745Z</time>
</trkpt>
<trkpt lat="22.2801153" lon="114.1886611">
<ele>9.524</ele>
<time>2022-10-04T07:39:34.501Z</time>
</trkpt>
<trkpt lat="22.2799948" lon="114.1885258">
<ele>9.703</ele>
<time>2022-10-04T07:39:37.157Z</time>
</trkpt>
<trkpt lat="22.2798737" lon="114.1883270">
<ele>9.752</ele>
<time>2022-10-04T07:39:40.339Z</time>
</trkpt>
<trkpt lat="22.2797710" lon="114.1881672">
<ele>9.833</ele>
<time>2022-10-04T07:39:43.196Z</time>
</trkpt>
<trkpt lat="22.2797062" lon="114.1880901">
<ele>10.172</ele>
<time>2022-10-04T07:39:44.999Z</time>
</trkpt>
<trkpt lat="22.2797062" lon="114.1880901">
<ele>10.484</ele>
<time>2022-10-04T07:39:55.999Z</time>
</trkpt>
<trkpt lat="22.2797062" lon="114.1880901">
<ele>10.479</ele>
<time>2022-10-04T07:40:01.082Z</time>
</trkpt>
<trkpt lat="22.2795675" lon="114.1880561">
<ele>10.351</ele>
<time>2022-10-04T07:40:06.999Z</time>
</trkpt>
<trkpt lat="22.2795675" lon="114.1880561">
<ele>10.336</ele>
<time>2022-10-04T07:40:13.999Z</time>
</trkpt>
<trkpt lat="22.2795675" lon="114.1880561">
<ele>10.386</ele>
<time>2022-10-04T07:40:45.098Z</time>
</trkpt>
<trkpt lat="22.2795187" lon="114.1877786">
<ele>10.393</ele>
<time>2022-10-04T07:41:01.121Z</time>
</trkpt>
<trkpt lat="22.2794829" lon="114.1876672">
<ele>12.091</ele>
<time>2022-10-04T07:41:04.386Z</time>
</trkpt>
<trkpt lat="22.2794515" lon="114.1875504">
<ele>16.690</ele>
<time>2022-10-04T07:41:07.642Z</time>
</trkpt>
<trkpt lat="22.2794400" lon="114.1874372">
<ele>21.635</ele>
<time>2022-10-04T07:41:11.438Z</time>
</trkpt>
<trkpt lat="22.2794410" lon="114.1873376">
<ele>24.179</ele>
<time>2022-10-04T07:41:15.290Z</time>
</trkpt>
<trkpt lat="22.2794554" lon="114.1872316">
<ele>24.604</ele>
<time>2022-10-04T07:41:19.609Z</time>
</trkpt>
<trkpt lat="22.2794843" lon="114.1871269">
<ele>24.029</ele>
<time>2022-10-04T07:41:25.042Z</time>
</trkpt>
<trkpt lat="22.2795236" lon="114.1870141">
<ele>23.343</ele>
<time>2022-10-04T07:41:29.132Z</time>
</trkpt>
<trkpt lat="22.2795607" lon="114.1869003">
<ele>22.945</ele>
<time>2022-10-04T07:41:32.234Z</time>
</trkpt>
<trkpt lat="22.2795984" lon="114.1867753">
<ele>22.978</ele>
<time>2022-10-04T07:41:35.080Z</time>
</trkpt>
<trkpt lat="22.2796573" lon="114.1866473">
<ele>23.565</ele>
<time>2022-10-04T07:41:38.143Z</time>
</trkpt>
<trkpt lat="22.2796823" lon="114.1865329">
<ele>24.500</ele>
<time>2022-10-04T07:41:40.999Z</time>
</trkpt>
<trkpt lat="22.2796823" lon="114.1865329">
<ele>25.267</ele>
<time>2022-10-04T07:41:44.999Z</time>
</trkpt>
<trkpt lat="22.2796823" lon="114.1865329">
<ele>25.573</ele>
<time>2022-10-04T07:41:45.099Z</time>
</trkpt>
<trkpt lat="22.2797095" lon="114.1861112">
<ele>25.517</ele>
<time>2022-10-04T07:42:32.329Z</time>
</trkpt>
<trkpt lat="22.2796998" lon="114.1862539">
<ele>27.237</ele>
<time>2022-10-04T07:42:36.818Z</time>
</trkpt>
<trkpt lat="22.2797283" lon="114.1860944">
<ele>32.084</ele>
<time>2022-10-04T07:42:41.000Z</time>
</trkpt>
<trkpt lat="22.2797744" lon="114.1859719">
<ele>37.164</ele>
<time>2022-10-04T07:42:43.497Z</time>
</trkpt>
<trkpt lat="22.2797899" lon="114.1858549">
<ele>39.471</ele>
<time>2022-10-04T07:42:45.566Z</time>
</trkpt>
<trkpt lat="22.2798863" lon="114.1857447">
<ele>39.105</ele>
<time>2022-10-04T07:42:48.163Z</time>
</trkpt>
<trkpt lat="22.2799661" lon="114.1856871">
<ele>36.804</ele>
<time>2022-10-04T07:42:49.940Z</time>
</trkpt>
<trkpt lat="22.2798873" lon="114.1855472">
<ele>33.408</ele>
<time>2022-10-04T07:42:53.000Z</time>
</trkpt>
<trkpt lat="22.2798873" lon="114.1855472">
<ele>30.175</ele>
<time>2022-10-04T07:42:59.999Z</time>
</trkpt>
<trkpt lat="22.2798873" lon="114.1855472">
<ele>28.501</ele>
<time>2022-10-04T07:43:00.099Z</time>
</trkpt>
<trkpt lat="22.2800643" lon="114.1855510">
<ele>28.640</ele>
<time>2022-10-04T07:43:18.999Z</time>
</trkpt>
<trkpt lat="22.2800643" lon="114.1855510">
<ele>29.267</ele>
<time>2022-10-04T07:43:22.999Z</time>
</trkpt>
<trkpt lat="22.2800643" lon="114.1855510">
<ele>29.306</ele>
<time>2022-10-04T07:43:37.638Z</time>
</trkpt>
<trkpt lat="22.2801060" lon="114.1853718">
<ele>28.945</ele>
<time>2022-10-04T07:43:47.330Z</time>
</trkpt>
<trkpt lat="22.2801585" lon="114.1852167">
<ele>27.999</ele>
<time>2022-10-04T07:43:50.978Z</time>
</trkpt>
<trkpt lat="22.2801638" lon="114.1850444">
<ele>26.113</ele>
<time>2022-10-04T07:43:54.539Z</time>
</trkpt>
<trkpt lat="22.2801818" lon="114.1849114">
<ele>23.847</ele>
<time>2022-10-04T07:43:57.657Z</time>
</trkpt>
<trkpt lat="22.2802605" lon="114.1848292">
<ele>21.830</ele>
<time>2022-10-04T07:44:00.604Z</time>
</trkpt>
<trkpt lat="22.2802603" lon="114.1847061">
<ele>20.350</ele>
<time>2022-10-04T07:44:03.762Z</time>
</trkpt>
<trkpt lat="22.2802759" lon="114.1846045">
<ele>19.882</ele>
<time>2022-10-04T07:44:06.373Z</time>
</trkpt>
<trkpt lat="22.2802699" lon="114.1844662">
<ele>20.436</ele>
<time>2022-10-04T07:44:09.646Z</time>
</trkpt>
<trkpt lat="22.2802557" lon="114.1843111">
<ele>21.650</ele>
<time>2022-10-04T07:44:13.034Z</time>
</trkpt>
<trkpt lat="22.2802647" lon="114.1841789">
<ele>23.005</ele>
<time>2022-10-04T07:44:15.562Z</time>
</trkpt>
<trkpt lat="22.2802744" lon="114.1840014">
<ele>23.945</ele>
<time>2022-10-04T07:44:18.639Z</time>
</trkpt>
<trkpt lat="22.2802655" lon="114.1838367">
<ele>24.545</ele>
<time>2022-10-04T07:44:21.312Z</time>
</trkpt>
<trkpt lat="22.2802721" lon="114.1836448">
<ele>25.276</ele>
<time>2022-10-04T07:44:24.253Z</time>
</trkpt>
<trkpt lat="22.2802360" lon="114.1834446">
<ele>26.174</ele>
<time>2022-10-04T07:44:27.393Z</time>
</trkpt>
<trkpt lat="22.2802330" lon="114.1833081">
<ele>27.388</ele>
<time>2022-10-04T07:44:29.800Z</time>
</trkpt>
<trkpt lat="22.2802296" lon="114.1832031">
<ele>29.209</ele>
<time>2022-10-04T07:44:32.035Z</time>
</trkpt>
<trkpt lat="22.2802798" lon="114.1831077">
<ele>31.463</ele>
<time>2022-10-04T07:44:34.999Z</time>
</trkpt>
<trkpt lat="22.2802798" lon="114.1831077">
<ele>33.527</ele>
<time>2022-10-04T07:44:40.999Z</time>
</trkpt>
<trkpt lat="22.2802798" lon="114.1831077">
<ele>34.591</ele>
<time>2022-10-04T07:44:41.099Z</time>
</trkpt>
<trkpt lat="22.2801408" lon="114.1829627">
<ele>34.480</ele>
<time>2022-10-04T07:45:05.999Z</time>
</trkpt>
<trkpt lat="22.2801408" lon="114.1829627">
<ele>34.052</ele>
<time>2022-10-04T07:45:08.999Z</time>
</trkpt>
<trkpt lat="22.2801408" lon="114.1829627">
<ele>34.005</ele>
<time>2022-10-04T07:45:09.099Z</time>
</trkpt>
<trkpt lat="22.2801791" lon="114.1827600">
<ele>34.224</ele>
<time>2022-10-04T07:45:19.744Z</time>
</trkpt>
<trkpt lat="22.2801125" lon="114.1826768">
<ele>36.757</ele>
<time>2022-10-04T07:45:23.205Z</time>
</trkpt>
<trkpt lat="22.2800548" lon="114.1825917">
<ele>42.965</ele>
<time>2022-10-04T07:45:26.735Z</time>
</trkpt>
<trkpt lat="22.2799701" lon="114.1826275">
<ele>48.924</ele>
<time>2022-10-04T07:45:30.304Z</time>
</trkpt>
<trkpt lat="22.2799166" lon="114.1827771">
<ele>50.983</ele>
<time>2022-10-04T07:45:35.518Z</time>
</trkpt>
<trkpt lat="22.2797998" lon="114.1827913">
<ele>50.164</ele>
<time>2022-10-04T07:45:39.560Z</time>
</trkpt>
<trkpt lat="22.2796537" lon="114.1827863">
<ele>48.258</ele>
<time>2022-10-04T07:45:44.940Z</time>
</trkpt>
<trkpt lat="22.2795479" lon="114.1828327">
<ele>46.182</ele>
<time>2022-10-04T07:45:49.140Z</time>
</trkpt>
<trkpt lat="22.2794618" lon="114.1828923">
<ele>44.068</ele>
<time>2022-10-04T07:45:53.235Z</time>
</trkpt>
<trkpt lat="22.2793652" lon="114.1828982">
<ele>42.012</ele>
<time>2022-10-04T07:45:56.218Z</time>
</trkpt>
<trkpt lat="22.2792987" lon="114.1829756">
<ele>40.511</ele>
<time>2022-10-04T07:45:58.999Z</time>
</trkpt>
<trkpt lat="22.2792987" lon="114.1829756">
<ele>39.773</ele>
<time>2022-10-04T07:46:10.999Z</time>
</trkpt>
<trkpt lat="22.2792987" lon="114.1829756">
<ele>39.567</ele>
<time>2022-10-04T07:47:29.689Z</time>
</trkpt>
<trkpt lat="22.2791962" lon="114.1831107">
<ele>39.604</ele>
<time>2022-10-04T07:47:39.513Z</time>
</trkpt>
<trkpt lat="22.2790855" lon="114.1830753">
<ele>38.287</ele>
<time>2022-10-04T07:47:43.544Z</time>
</trkpt>
<trkpt lat="22.2790058" lon="114.1831580">
<ele>34.469</ele>
<time>2022-10-04T07:47:46.553Z</time>
</trkpt>
<trkpt lat="22.2789077" lon="114.1832354">
<ele>30.142</ele>
<time>2022-10-04T07:47:49.303Z</time>
</trkpt>
<trkpt lat="22.2787509" lon="114.1832109">
<ele>27.751</ele>
<time>2022-10-04T07:47:52.690Z</time>
</trkpt>
<trkpt lat="22.2786807" lon="114.1833009">
<ele>27.382</ele>
<time>2022-10-04T07:47:55.145Z</time>
</trkpt>
<trkpt lat="22.2785588" lon="114.1832963">
<ele>28.155</ele>
<time>2022-10-04T07:47:57.962Z</time>
</trkpt>
<trkpt lat="22.2784239" lon="114.1832655">
<ele>29.075</ele>
<time>2022-10-04T07:48:01.108Z</time>
</trkpt>
<trkpt lat="22.2783010" lon="114.1832176">
<ele>29.716</ele>
<time>2022-10-04T07:48:04.685Z</time>
</trkpt>
<trkpt lat="22.2782051" lon="114.1832022">
<ele>30.530</ele>
<time>2022-10-04T07:48:07.541Z</time>
</trkpt>
<trkpt lat="22.2781186" lon="114.1831399">
<ele>32.056</ele>
<time>2022-10-04T07:48:10.999Z</time>
</trkpt>
<trkpt lat="22.2781186" lon="114.1831399">
<ele>33.936</ele>
<time>2022-10-04T07:48:15.999Z</time>
</trkpt>
<trkpt lat="22.2781186" lon="114.1831399">
<ele>35.047</ele>
<time>2022-10-04T07:48:16.099Z</time>
</trkpt>
<trkpt lat="22.2779605" lon="114.1831771">
<ele>34.960</ele>
<time>2022-10-04T07:48:24.163Z</time>
</trkpt>
<trkpt lat="22.2778553" lon="114.1831573">
<ele>35.584</ele>
<time>2022-10-04T07:48:28.507Z</time>
</trkpt>
<trkpt lat="22.2777793" lon="114.1832233">
<ele>38.331</ele>
<time>2022-10-04T07:48:32.999Z</time>
</trkpt>
<trkpt lat="22.2777793" lon="114.1832233">
<ele>41.261</ele>
<time>2022-10-04T07:48:37.999Z</time>
</trkpt>
<trkpt lat="22.2777793" lon="114.1832233">
<ele>42.328</ele>
<time>2022-10-04T07:48:43.008Z</time>
</trkpt>
<trkpt lat="22.2775461" lon="114.1831971">
<ele>42.068</ele>
<time>2022-10-04T07:48:56.868Z</time>
</trkpt>
<trkpt lat="22.2775078" lon="114.1830998">
<ele>41.902</ele>
<time>2022-10-04T07:49:00.196Z</time>
</trkpt>
<trkpt lat="22.2775212" lon="114.1829868">
<ele>42.782</ele>
<time>2022-10-04T07:49:04.089Z</time>
</trkpt>
<trkpt lat="22.2775095" lon="114.1828755">
<ele>44.328</ele>
<time>2022-10-04T07:49:07.062Z</time>
</trkpt>
<trkpt lat="22.2774980" lon="114.1827773">
<ele>45.496</ele>
<time>2022-10-04T07:49:09.335Z</time>
</trkpt>
<trkpt lat="22.2774070" lon="114.1827465">
<ele>45.978</ele>
<time>2022-10-04T07:49:11.757Z</time>
</trkpt>
<trkpt lat="22.2773161" lon="114.1826729">
<ele>46.107</ele>
<time>2022-10-04T07:49:14.884Z</time>
</trkpt>
<trkpt lat="22.2772850" lon="114.1825246">
<ele>46.162</ele>
<time>2022-10-04T07:49:19.238Z</time>
</trkpt>
<trkpt lat="22.2772562" lon="114.1824193">
<ele>46.201</ele>
<time>2022-10-04T07:49:22.879Z</time>
</trkpt>
<trkpt lat="22.2772144" lon="114.1823013">
<ele>46.371</ele>
<time>2022-10-04T07:49:27.608Z</time>
</trkpt>
<trkpt lat="22.2771067" lon="114.1823145">
<ele>46.553</ele>
<time>2022-10-04T07:49:32.999Z</time>
</trkpt>
<trkpt lat="22.2771067" lon="114.1823145">
<ele>46.491</ele>
<time>2022-10-04T07:49:44.999Z</time>
</trkpt>
<trkpt lat="22.2771067" lon="114.1823145">
<ele>46.355</ele>
<time>2022-10-04T07:50:32.629Z</time>
</trkpt>
<trkpt lat="22.2768762" lon="114.1823626">
<ele>46.369</ele>
<time>2022-10-04T07:50:48.005Z</time>
</trkpt>
<trkpt lat="22.2767751" lon="114.1823919">
<ele>45.111</ele>
<time>2022-10-04T07:50:51.693Z</time>
</trkpt>
<trkpt lat="22.2766684" lon="114.1824414">
<ele>41.741</ele>
<time>2022-10-04T07:50:55.187Z</time>
</trkpt>
<trkpt lat="22.2765747" lon="114.1824823">
<ele>38.222</ele>
<time>2022-10-04T07:50:57.866Z</time>
</trkpt>
<trkpt lat="22.2764832" lon="114.1825234">
<ele>36.405</ele>
<time>2022-10-04T07:51:00.277Z</time>
</trkpt>
<trkpt lat="22.2763734" lon="114.1825808">
<ele>35.660</ele>
<time>2022-10-04T07:51:03.024Z</time>
</trkpt>
<trkpt lat="22.2762623" lon="114.1826431">
<ele>35.057</ele>
<time>2022-10-04T07:51:05.676Z</time>
</trkpt>
<trkpt lat="22.2761448" lon="114.1826830">
<ele>34.318</ele>
<time>2022-10-04T07:51:08.499Z</time>
</trkpt>
<trkpt lat="22.2760515" lon="114.1827197">
<ele>33.567</ele>
<time>2022-10-04T07:51:11.000Z</time>
</trkpt>
<trkpt lat="22.2760515" lon="114.1827197">
<ele>33.047</ele>
<time>2022-10-04T07:51:15.000Z</time>
</trkpt>
<trkpt lat="22.2760515" lon="114.1827197">
<ele>32.891</ele>
<time>2022-10-04T07:51:35.809Z</time>
</trkpt>
<trkpt lat="22.2759150" lon="114.1827520">
<ele>32.931</ele>
<time>2022-10-04T07:51:43.725Z</time>
</trkpt>
<trkpt lat="22.2758133" lon="114.1827962">
<ele>31.835</ele>
<time>2022-10-04T07:51:46.513Z</time>
</trkpt>
<trkpt lat="22.2756957" lon="114.1828356">
<ele>28.840</ele>
<time>2022-10-04T07:51:49.209Z</time>
</trkpt>
<trkpt lat="22.2755856" lon="114.1828672">
<ele>25.492</ele>
<time>2022-10-04T07:51:51.654Z</time>
</trkpt>
<trkpt lat="22.2754994" lon="114.1829289">
<ele>23.016</ele>
<time>2022-10-04T07:51:53.999Z</time>
</trkpt>
<trkpt lat="22.2754994" lon="114.1829289">
<ele>21.162</ele>
<time>2022-10-04T07:51:58.999Z</time>
</trkpt>
<trkpt lat="22.2754994" lon="114.1829289">
<ele>20.215</ele>
<time>2022-10-04T07:51:59.099Z</time>
</trkpt>
<trkpt lat="22.2753573" lon="114.1830876">
<ele>20.294</ele>
<time>2022-10-04T07:52:09.119Z</time>
</trkpt>
<trkpt lat="22.2752769" lon="114.1831742">
<ele>20.767</ele>
<time>2022-10-04T07:52:11.985Z</time>
</trkpt>
<trkpt lat="22.2751641" lon="114.1832185">
<ele>21.106</ele>
<time>2022-10-04T07:52:14.813Z</time>
</trkpt>
<trkpt lat="22.2750556" lon="114.1832541">
<ele>21.308</ele>
<time>2022-10-04T07:52:17.430Z</time>
</trkpt>
<trkpt lat="22.2749505" lon="114.1832983">
<ele>21.625</ele>
<time>2022-10-04T07:52:19.987Z</time>
</trkpt>
<trkpt lat="22.2748372" lon="114.1833410">
<ele>22.144</ele>
<time>2022-10-04T07:52:22.804Z</time>
</trkpt>
<trkpt lat="22.2747467" lon="114.1833735">
<ele>22.626</ele>
<time>2022-10-04T07:52:25.117Z</time>
</trkpt>
<trkpt lat="22.2746409" lon="114.1834383">
<ele>22.858</ele>
<time>2022-10-04T07:52:28.029Z</time>
</trkpt>
<trkpt lat="22.2745345" lon="114.1834880">
<ele>22.877</ele>
<time>2022-10-04T07:52:30.755Z</time>
</trkpt>
<trkpt lat="22.2744442" lon="114.1835250">
<ele>22.825</ele>
<time>2022-10-04T07:52:33.155Z</time>
</trkpt>
<trkpt lat="22.2743416" lon="114.1835795">
<ele>22.829</ele>
<time>2022-10-04T07:52:36.087Z</time>
</trkpt>
<trkpt lat="22.2742154" lon="114.1836496">
<ele>22.989</ele>
<time>2022-10-04T07:52:39.248Z</time>
</trkpt>
<trkpt lat="22.2740964" lon="114.1837034">
<ele>23.389</ele>
<time>2022-10-04T07:52:41.999Z</time>
</trkpt>
<trkpt lat="22.2740964" lon="114.1837034">
<ele>23.936</ele>
<time>2022-10-04T07:52:47.999Z</time>
</trkpt>
<trkpt lat="22.2740964" lon="114.1837034">
<ele>24.282</ele>
<time>2022-10-04T07:52:53.949Z</time>
</trkpt>
<trkpt lat="22.2738863" lon="114.1837585">
<ele>24.177</ele>
<time>2022-10-04T07:53:04.655Z</time>
</trkpt>
<trkpt lat="22.2737381" lon="114.1838178">
<ele>23.750</ele>
<time>2022-10-04T07:53:07.771Z</time>
</trkpt>
<trkpt lat="22.2735930" lon="114.1838497">
<ele>23.312</ele>
<time>2022-10-04T07:53:10.227Z</time>
</trkpt>
<trkpt lat="22.2734199" lon="114.1839498">
<ele>23.126</ele>
<time>2022-10-04T07:53:13.138Z</time>
</trkpt>
<trkpt lat="22.2732319" lon="114.1840878">
<ele>23.303</ele>
<time>2022-10-04T07:53:16.239Z</time>
</trkpt>
<trkpt lat="22.2730660" lon="114.1842111">
<ele>23.701</ele>
<time>2022-10-04T07:53:18.855Z</time>
</trkpt>
<trkpt lat="22.2728580" lon="114.1843067">
<ele>23.771</ele>
<time>2022-10-04T07:53:21.767Z</time>
</trkpt>
<trkpt lat="22.2726973" lon="114.1844267">
<ele>23.213</ele>
<time>2022-10-04T07:53:24.324Z</time>
</trkpt>
<trkpt lat="22.2724498" lon="114.1844719">
<ele>22.448</ele>
<time>2022-10-04T07:53:27.684Z</time>
</trkpt>
<trkpt lat="22.2722915" lon="114.1845980">
<ele>21.942</ele>
<time>2022-10-04T07:53:30.389Z</time>
</trkpt>
<trkpt lat="22.2721026" lon="114.1846783">
<ele>21.684</ele>
<time>2022-10-04T07:53:33.346Z</time>
</trkpt>
<trkpt lat="22.2719613" lon="114.1847514">
<ele>21.498</ele>
<time>2022-10-04T07:53:35.996Z</time>
</trkpt>
<trkpt lat="22.2718662" lon="114.1847777">
<ele>21.265</ele>
<time>2022-10-04T07:53:37.999Z</time>
</trkpt>
<trkpt lat="22.2718662" lon="114.1847777">
<ele>21.032</ele>
<time>2022-10-04T07:53:41.999Z</time>
</trkpt>
<trkpt lat="22.2718662" lon="114.1847777">
<ele>20.902</ele>
<time>2022-10-04T07:53:51.275Z</time>
</trkpt>
<trkpt lat="22.2717069" lon="114.1848042">
<ele>20.904</ele>
<time>2022-10-04T07:53:59.048Z</time>
</trkpt>
<trkpt lat="22.2715794" lon="114.1848300">
<ele>20.777</ele>
<time>2022-10-04T07:54:01.832Z</time>
</trkpt>
<trkpt lat="22.2714112" lon="114.1848729">
<ele>20.204</ele>
<time>2022-10-04T07:54:04.793Z</time>
</trkpt>
<trkpt lat="22.2712203" lon="114.1848840">
<ele>18.970</ele>
<time>2022-10-04T07:54:07.711Z</time>
</trkpt>
<trkpt lat="22.2710301" lon="114.1848853">
<ele>17.107</ele>
<time>2022-10-04T07:54:10.602Z</time>
</trkpt>
<trkpt lat="22.2708692" lon="114.1849008">
<ele>15.030</ele>
<time>2022-10-04T07:54:13.228Z</time>
</trkpt>
<trkpt lat="22.2707100" lon="114.1848672">
<ele>13.186</ele>
<time>2022-10-04T07:54:16.165Z</time>
</trkpt>
<trkpt lat="22.2705912" lon="114.1848205">
<ele>11.748</ele>
<time>2022-10-04T07:54:18.754Z</time>
</trkpt>
<trkpt lat="22.2704732" lon="114.1847599">
<ele>10.855</ele>
<time>2022-10-04T07:54:21.765Z</time>
</trkpt>
<trkpt lat="22.2703816" lon="114.1846937">
<ele>10.637</ele>
<time>2022-10-04T07:54:24.516Z</time>
</trkpt>
<trkpt lat="22.2702746" lon="114.1846138">
<ele>11.026</ele>
<time>2022-10-04T07:54:28.067Z</time>
</trkpt>
<trkpt lat="22.2701922" lon="114.1845697">
<ele>11.778</ele>
<time>2022-10-04T07:54:30.999Z</time>
</trkpt>
<trkpt lat="22.2701922" lon="114.1845697">
<ele>12.580</ele>
<time>2022-10-04T07:54:40.999Z</time>
</trkpt>
<trkpt lat="22.2701922" lon="114.1845697">
<ele>13.038</ele>
<time>2022-10-04T07:54:50.394Z</time>
</trkpt>
<trkpt lat="22.2700721" lon="114.1844429">
<ele>13.000</ele>
<time>2022-10-04T07:55:01.215Z</time>
</trkpt>
<trkpt lat="22.2699829" lon="114.1843937">
<ele>13.185</ele>
<time>2022-10-04T07:55:05.999Z</time>
</trkpt>
<trkpt lat="22.2699829" lon="114.1843937">
<ele>14.126</ele>
<time>2022-10-04T07:55:18.999Z</time>
</trkpt>
<trkpt lat="22.2699829" lon="114.1843937">
<ele>14.995</ele>
<time>2022-10-04T07:55:42.496Z</time>
</trkpt>
<trkpt lat="22.2699527" lon="114.1842981">
<ele>14.515</ele>
<time>2022-10-04T07:55:56.827Z</time>
</trkpt>
<trkpt lat="22.2699408" lon="114.1841915">
<ele>14.166</ele>
<time>2022-10-04T07:56:04.999Z</time>
</trkpt>
<trkpt lat="22.2699408" lon="114.1841915">
<ele>14.042</ele>
<time>2022-10-04T07:56:11.018Z</time>
</trkpt>
<trkpt lat="22.2699408" lon="114.1841915">
<ele>14.041</ele>
<time>2022-10-04T07:56:36.554Z</time>
</trkpt>
<trkpt lat="22.2700111" lon="114.1842161">
<ele>5.442</ele>
<time>2022-10-04T08:00:08.000Z</time>
</trkpt>
<trkpt lat="22.2700111" lon="114.1842161">
<ele>5.439</ele>
<time>2022-10-04T08:00:15.000Z</time>
</trkpt>
<trkpt lat="22.2700111" lon="114.1842161">
<ele>5.438</ele>
<time>2022-10-04T08:00:15.100Z</time>
</trkpt>
<trkpt lat="22.2699532" lon="114.1842936">
<ele>5.437</ele>
<time>2022-10-04T08:00:23.629Z</time>
</trkpt>
<trkpt lat="22.2699643" lon="114.1843919">
<ele>5.457</ele>
<time>2022-10-04T08:00:30.767Z</time>
</trkpt>
<trkpt lat="22.2699742" lon="114.1842821">
<ele>5.513</ele>
<time>2022-10-04T08:00:40.465Z</time>
</trkpt>
<trkpt lat="22.2699688" lon="114.1841849">
<ele>5.629</ele>
<time>2022-10-04T08:00:52.000Z</time>
</trkpt>
<trkpt lat="22.2699688" lon="114.1841849">
<ele>5.755</ele>
<time>2022-10-04T08:00:55.000Z</time>
</trkpt>
<trkpt lat="22.2699688" lon="114.1841849">
<ele>5.792</ele>
<time>2022-10-04T08:01:32.312Z</time>
</trkpt>
<trkpt lat="22.2698456" lon="114.1840406">
<ele>5.762</ele>
<time>2022-10-04T08:01:54.423Z</time>
</trkpt>
<trkpt lat="22.2698008" lon="114.1839282">
<ele>7.214</ele>
<time>2022-10-04T08:01:59.658Z</time>
</trkpt>
<trkpt lat="22.2698379" lon="114.1838134">
<ele>11.137</ele>
<time>2022-10-04T08:02:03.223Z</time>
</trkpt>
<trkpt lat="22.2699236" lon="114.1836807">
<ele>15.453</ele>
<time>2022-10-04T08:02:08.029Z</time>
</trkpt>
<trkpt lat="22.2698588" lon="114.1835293">
<ele>17.907</ele>
<time>2022-10-04T08:02:14.024Z</time>
</trkpt>
<trkpt lat="22.2698518" lon="114.1834036">
<ele>18.517</ele>
<time>2022-10-04T08:02:18.614Z</time>
</trkpt>
<trkpt lat="22.2698878" lon="114.1832980">
<ele>17.757</ele>
<time>2022-10-04T08:02:22.307Z</time>
</trkpt>
<trkpt lat="22.2699547" lon="114.1831792">
<ele>15.518</ele>
<time>2022-10-04T08:02:25.302Z</time>
</trkpt>
<trkpt lat="22.2700303" lon="114.1830342">
<ele>12.144</ele>
<time>2022-10-04T08:02:28.274Z</time>
</trkpt>
<trkpt lat="22.2701149" lon="114.1828855">
<ele>9.348</ele>
<time>2022-10-04T08:02:31.150Z</time>
</trkpt>
<trkpt lat="22.2702372" lon="114.1827544">
<ele>8.316</ele>
<time>2022-10-04T08:02:34.111Z</time>
</trkpt>
<trkpt lat="22.2703112" lon="114.1825913">
<ele>8.498</ele>
<time>2022-10-04T08:02:36.956Z</time>
</trkpt>
<trkpt lat="22.2704222" lon="114.1824629">
<ele>8.870</ele>
<time>2022-10-04T08:02:39.603Z</time>
</trkpt>
<trkpt lat="22.2705446" lon="114.1823210">
<ele>8.873</ele>
<time>2022-10-04T08:02:42.377Z</time>
</trkpt>
<trkpt lat="22.2706518" lon="114.1821775">
<ele>8.585</ele>
<time>2022-10-04T08:02:44.958Z</time>
</trkpt>
<trkpt lat="22.2707154" lon="114.1820089">
<ele>8.284</ele>
<time>2022-10-04T08:02:47.390Z</time>
</trkpt>
<trkpt lat="22.2708116" lon="114.1818047">
<ele>8.288</ele>
<time>2022-10-04T08:02:50.493Z</time>
</trkpt>
<trkpt lat="22.2708770" lon="114.1816440">
<ele>8.735</ele>
<time>2022-10-04T08:02:52.883Z</time>
</trkpt>
<trkpt lat="22.2709668" lon="114.1814507">
<ele>9.326</ele>
<time>2022-10-04T08:02:55.781Z</time>
</trkpt>
<trkpt lat="22.2710761" lon="114.1812647">
<ele>9.904</ele>
<time>2022-10-04T08:02:58.714Z</time>
</trkpt>
<trkpt lat="22.2711928" lon="114.1810979">
<ele>11.005</ele>
<time>2022-10-04T08:03:01.446Z</time>
</trkpt>
<trkpt lat="22.2713165" lon="114.1809136">
<ele>13.284</ele>
<time>2022-10-04T08:03:04.365Z</time>
</trkpt>
<trkpt lat="22.2714223" lon="114.1807616">
<ele>16.680</ele>
<time>2022-10-04T08:03:06.818Z</time>
</trkpt>
<trkpt lat="22.2715480" lon="114.1805785">
<ele>20.401</ele>
<time>2022-10-04T08:03:09.809Z</time>
</trkpt>
<trkpt lat="22.2716550" lon="114.1804203">
<ele>23.606</ele>
<time>2022-10-04T08:03:12.521Z</time>
</trkpt>
<trkpt lat="22.2717356" lon="114.1802946">
<ele>25.975</ele>
<time>2022-10-04T08:03:14.999Z</time>
</trkpt>
<trkpt lat="22.2717356" lon="114.1802946">
<ele>27.510</ele>
<time>2022-10-04T08:03:21.999Z</time>
</trkpt>
<trkpt lat="22.2717356" lon="114.1802946">
<ele>28.153</ele>
<time>2022-10-04T08:03:22.129Z</time>
</trkpt>
<trkpt lat="22.2719389" lon="114.1803060">
<ele>28.055</ele>
<time>2022-10-04T08:03:31.072Z</time>
</trkpt>
<trkpt lat="22.2722522" lon="114.1804288">
<ele>28.356</ele>
<time>2022-10-04T08:03:35.483Z</time>
</trkpt>
<trkpt lat="22.2725333" lon="114.1804358">
<ele>29.790</ele>
<time>2022-10-04T08:03:38.068Z</time>
</trkpt>
<trkpt lat="22.2728454" lon="114.1799218">
<ele>31.373</ele>
<time>2022-10-04T08:03:43.041Z</time>
</trkpt>
<trkpt lat="22.2730550" lon="114.1797294">
<ele>32.073</ele>
<time>2022-10-04T08:03:45.654Z</time>
</trkpt>
<trkpt lat="22.2732184" lon="114.1796096">
<ele>32.102</ele>
<time>2022-10-04T08:03:47.727Z</time>
</trkpt>
<trkpt lat="22.2733899" lon="114.1795275">
<ele>31.905</ele>
<time>2022-10-04T08:03:49.988Z</time>
</trkpt>
<trkpt lat="22.2735199" lon="114.1794597">
<ele>31.713</ele>
<time>2022-10-04T08:03:51.874Z</time>
</trkpt>
<trkpt lat="22.2736577" lon="114.1793922">
<ele>31.631</ele>
<time>2022-10-04T08:03:53.999Z</time>
</trkpt>
<trkpt lat="22.2736577" lon="114.1793922">
<ele>31.675</ele>
<time>2022-10-04T08:03:58.999Z</time>
</trkpt>
<trkpt lat="22.2736577" lon="114.1793922">
<ele>31.734</ele>
<time>2022-10-04T08:04:19.649Z</time>
</trkpt>
<trkpt lat="22.2738688" lon="114.1792668">
<ele>31.724</ele>
<time>2022-10-04T08:04:45.239Z</time>
</trkpt>
<trkpt lat="22.2742254" lon="114.1795696">
<ele>31.954</ele>
<time>2022-10-04T08:05:05.451Z</time>
</trkpt>
<trkpt lat="22.2742996" lon="114.1794878">
<ele>32.710</ele>
<time>2022-10-04T08:05:10.487Z</time>
</trkpt>
<trkpt lat="22.2743630" lon="114.1793886">
<ele>33.497</ele>
<time>2022-10-04T08:05:17.221Z</time>
</trkpt>
<trkpt lat="22.2744559" lon="114.1793068">
<ele>34.060</ele>
<time>2022-10-04T08:05:25.828Z</time>
</trkpt>
<trkpt lat="22.2746159" lon="114.1792101">
<ele>34.736</ele>
<time>2022-10-04T08:05:38.999Z</time>
</trkpt>
<trkpt lat="22.2746159" lon="114.1792101">
<ele>35.533</ele>
<time>2022-10-04T08:05:57.999Z</time>
</trkpt>
<trkpt lat="22.2746159" lon="114.1792101">
<ele>35.997</ele>
<time>2022-10-04T08:06:02.044Z</time>
</trkpt>
<trkpt lat="22.2746990" lon="114.1790308">
<ele>35.841</ele>
<time>2022-10-04T08:06:14.342Z</time>
</trkpt>
<trkpt lat="22.2748626" lon="114.1790378">
<ele>35.037</ele>
<time>2022-10-04T08:06:17.814Z</time>
</trkpt>
<trkpt lat="22.2751694" lon="114.1791307">
<ele>33.887</ele>
<time>2022-10-04T08:06:23.688Z</time>
</trkpt>
<trkpt lat="22.2750719" lon="114.1791534">
<ele>33.013</ele>
<time>2022-10-04T08:06:25.631Z</time>
</trkpt>
<trkpt lat="22.2751752" lon="114.1792727">
<ele>32.889</ele>
<time>2022-10-04T08:06:27.989Z</time>
</trkpt>
<trkpt lat="22.2751783" lon="114.1794032">
<ele>33.374</ele>
<time>2022-10-04T08:06:29.702Z</time>
</trkpt>
<trkpt lat="22.2752607" lon="114.1794989">
<ele>33.940</ele>
<time>2022-10-04T08:06:31.346Z</time>
</trkpt>
<trkpt lat="22.2753355" lon="114.1795843">
<ele>34.226</ele>
<time>2022-10-04T08:06:32.790Z</time>
</trkpt>
<trkpt lat="22.2754146" lon="114.1796731">
<ele>34.308</ele>
<time>2022-10-04T08:06:34.305Z</time>
</trkpt>
<trkpt lat="22.2755008" lon="114.1797986">
<ele>34.315</ele>
<time>2022-10-04T08:06:36.313Z</time>
</trkpt>
<trkpt lat="22.2755390" lon="114.1800041">
<ele>34.017</ele>
<time>2022-10-04T08:06:39.208Z</time>
</trkpt>
<trkpt lat="22.2755508" lon="114.1801264">
<ele>32.997</ele>
<time>2022-10-04T08:06:40.937Z</time>
</trkpt>
<trkpt lat="22.2756973" lon="114.1801877">
<ele>31.429</ele>
<time>2022-10-04T08:06:43.024Z</time>
</trkpt>
<trkpt lat="22.2758396" lon="114.1802319">
<ele>30.084</ele>
<time>2022-10-04T08:06:45.245Z</time>
</trkpt>
<trkpt lat="22.2758947" lon="114.1803433">
<ele>29.427</ele>
<time>2022-10-04T08:06:46.999Z</time>
</trkpt>
<trkpt lat="22.2758947" lon="114.1803433">
<ele>29.288</ele>
<time>2022-10-04T08:06:49.999Z</time>
</trkpt>
<trkpt lat="22.2758947" lon="114.1803433">
<ele>29.307</ele>
<time>2022-10-04T08:06:57.322Z</time>
</trkpt>
<trkpt lat="22.2760509" lon="114.1803931">
<ele>29.303</ele>
<time>2022-10-04T08:07:17.999Z</time>
</trkpt>
<trkpt lat="22.2760509" lon="114.1803931">
<ele>29.276</ele>
<time>2022-10-04T08:07:21.999Z</time>
</trkpt>
<trkpt lat="22.2760509" lon="114.1803931">
<ele>29.255</ele>
<time>2022-10-04T08:07:22.099Z</time>
</trkpt>
<trkpt lat="22.2762161" lon="114.1801834">
<ele>29.244</ele>
<time>2022-10-04T08:07:39.292Z</time>
</trkpt>
<trkpt lat="22.2763261" lon="114.1803941">
<ele>29.240</ele>
<time>2022-10-04T08:07:51.545Z</time>
</trkpt>
<trkpt lat="22.2763664" lon="114.1804910">
<ele>29.942</ele>
<time>2022-10-04T08:07:57.999Z</time>
</trkpt>
<trkpt lat="22.2763664" lon="114.1804910">
<ele>31.770</ele>
<time>2022-10-04T08:08:14.999Z</time>
</trkpt>
<trkpt lat="22.2763664" lon="114.1804910">
<ele>33.289</ele>
<time>2022-10-04T08:08:18.345Z</time>
</trkpt>
<trkpt lat="22.2765277" lon="114.1803861">
<ele>33.250</ele>
<time>2022-10-04T08:08:56.999Z</time>
</trkpt>
<trkpt lat="22.2765277" lon="114.1803861">
<ele>32.635</ele>
<time>2022-10-04T08:09:01.999Z</time>
</trkpt>
<trkpt lat="22.2765277" lon="114.1803861">
<ele>32.562</ele>
<time>2022-10-04T08:09:02.099Z</time>
</trkpt>
<trkpt lat="22.2767606" lon="114.1804330">
<ele>32.888</ele>
<time>2022-10-04T08:09:24.798Z</time>
</trkpt>
<trkpt lat="22.2768790" lon="114.1804163">
<ele>33.830</ele>
<time>2022-10-04T08:09:28.553Z</time>
</trkpt>
<trkpt lat="22.2769744" lon="114.1803989">
<ele>35.700</ele>
<time>2022-10-04T08:09:31.481Z</time>
</trkpt>
<trkpt lat="22.2770899" lon="114.1803486">
<ele>37.417</ele>
<time>2022-10-04T08:09:35.044Z</time>
</trkpt>
<trkpt lat="22.2771885" lon="114.1803404">
<ele>37.735</ele>
<time>2022-10-04T08:09:38.373Z</time>
</trkpt>
<trkpt lat="22.2772775" lon="114.1803064">
<ele>36.865</ele>
<time>2022-10-04T08:09:41.843Z</time>
</trkpt>
<trkpt lat="22.2773451" lon="114.1802368">
<ele>35.492</ele>
<time>2022-10-04T08:09:46.970Z</time>
</trkpt>
<trkpt lat="22.2774497" lon="114.1802395">
<ele>33.783</ele>
<time>2022-10-04T08:09:55.014Z</time>
</trkpt>
<trkpt lat="22.2775251" lon="114.1804026">
<ele>31.828</ele>
<time>2022-10-04T08:10:07.999Z</time>
</trkpt>
<trkpt lat="22.2775251" lon="114.1804026">
<ele>30.250</ele>
<time>2022-10-04T08:10:16.999Z</time>
</trkpt>
<trkpt lat="22.2775251" lon="114.1804026">
<ele>29.560</ele>
<time>2022-10-04T08:10:18.245Z</time>
</trkpt>
<trkpt lat="22.2776659" lon="114.1803480">
<ele>29.635</ele>
<time>2022-10-04T08:10:27.013Z</time>
</trkpt>
<trkpt lat="22.2777610" lon="114.1803257">
<ele>29.752</ele>
<time>2022-10-04T08:10:29.844Z</time>
</trkpt>
<trkpt lat="22.2778487" lon="114.1802658">
<ele>29.402</ele>
<time>2022-10-04T08:10:32.785Z</time>
</trkpt>
<trkpt lat="22.2778821" lon="114.1801598">
<ele>28.873</ele>
<time>2022-10-04T08:10:36.339Z</time>
</trkpt>
<trkpt lat="22.2779846" lon="114.1800686">
<ele>28.567</ele>
<time>2022-10-04T08:10:42.944Z</time>
</trkpt>
<trkpt lat="22.2779948" lon="114.1798795">
<ele>28.465</ele>
<time>2022-10-04T08:10:52.828Z</time>
</trkpt>
<trkpt lat="22.2779702" lon="114.1796826">
<ele>28.408</ele>
<time>2022-10-04T08:11:02.431Z</time>
</trkpt>
<trkpt lat="22.2780889" lon="114.1797185">
<ele>27.088</ele>
<time>2022-10-04T08:11:07.553Z</time>
</trkpt>
<trkpt lat="22.2781930" lon="114.1797293">
<ele>23.797</ele>
<time>2022-10-04T08:11:10.777Z</time>
</trkpt>
<trkpt lat="22.2783156" lon="114.1797661">
<ele>20.542</ele>
<time>2022-10-04T08:11:13.861Z</time>
</trkpt>
<trkpt lat="22.2784385" lon="114.1797223">
<ele>19.161</ele>
<time>2022-10-04T08:11:16.742Z</time>
</trkpt>
<trkpt lat="22.2784652" lon="114.1796254">
<ele>19.232</ele>
<time>2022-10-04T08:11:18.999Z</time>
</trkpt>
<trkpt lat="22.2784652" lon="114.1796254">
<ele>19.743</ele>
<time>2022-10-04T08:11:23.999Z</time>
</trkpt>
<trkpt lat="22.2784652" lon="114.1796254">
<ele>19.970</ele>
<time>2022-10-04T08:11:24.099Z</time>
</trkpt>
<trkpt lat="22.2786733" lon="114.1795018">
<ele>19.884</ele>
<time>2022-10-04T08:12:03.447Z</time>
</trkpt>
<trkpt lat="22.2787419" lon="114.1794144">
<ele>19.798</ele>
<time>2022-10-04T08:12:06.924Z</time>
</trkpt>
<trkpt lat="22.2787566" lon="114.1793174">
<ele>19.916</ele>
<time>2022-10-04T08:12:09.268Z</time>
</trkpt>
<trkpt lat="22.2788961" lon="114.1791866">
<ele>20.290</ele>
<time>2022-10-04T08:12:13.063Z</time>
</trkpt>
<trkpt lat="22.2789932" lon="114.1791242">
<ele>20.719</ele>
<time>2022-10-04T08:12:15.105Z</time>
</trkpt>
<trkpt lat="22.2790379" lon="114.1789697">
<ele>21.330</ele>
<time>2022-10-04T08:12:17.355Z</time>
</trkpt>
<trkpt lat="22.2788838" lon="114.1787445">
<ele>22.477</ele>
<time>2022-10-04T08:12:20.635Z</time>
</trkpt>
<trkpt lat="22.2787248" lon="114.1785317">
<ele>24.025</ele>
<time>2022-10-04T08:12:23.388Z</time>
</trkpt>
<trkpt lat="22.2787985" lon="114.1782566">
<ele>25.747</ele>
<time>2022-10-04T08:12:26.403Z</time>
</trkpt>
<trkpt lat="22.2787528" lon="114.1780978">
<ele>27.423</ele>
<time>2022-10-04T08:12:28.407Z</time>
</trkpt>
<trkpt lat="22.2786108" lon="114.1779780">
<ele>28.346</ele>
<time>2022-10-04T08:12:31.086Z</time>
</trkpt>
<trkpt lat="22.2785876" lon="114.1778547">
<ele>28.143</ele>
<time>2022-10-04T08:12:33.073Z</time>
</trkpt>
<trkpt lat="22.2785035" lon="114.1777596">
<ele>27.371</ele>
<time>2022-10-04T08:12:35.931Z</time>
</trkpt>
<trkpt lat="22.2784440" lon="114.1776688">
<ele>27.061</ele>
<time>2022-10-04T08:12:38.999Z</time>
</trkpt>
<trkpt lat="22.2784440" lon="114.1776688">
<ele>27.626</ele>
<time>2022-10-04T08:12:43.000Z</time>
</trkpt>
<trkpt lat="22.2784440" lon="114.1776688">
<ele>28.274</ele>
<time>2022-10-04T08:12:51.901Z</time>
</trkpt>
<trkpt lat="22.2783717" lon="114.1775074">
<ele>28.273</ele>
<time>2022-10-04T08:12:59.601Z</time>
</trkpt>
<trkpt lat="22.2783498" lon="114.1773103">
<ele>28.333</ele>
<time>2022-10-04T08:13:02.879Z</time>
</trkpt>
<trkpt lat="22.2782806" lon="114.1771105">
<ele>29.167</ele>
<time>2022-10-04T08:13:05.758Z</time>
</trkpt>
<trkpt lat="22.2781130" lon="114.1769426">
<ele>30.224</ele>
<time>2022-10-04T08:13:08.835Z</time>
</trkpt>
<trkpt lat="22.2779368" lon="114.1767747">
<ele>31.011</ele>
<time>2022-10-04T08:13:11.762Z</time>
</trkpt>
<trkpt lat="22.2777519" lon="114.1765714">
<ele>31.821</ele>
<time>2022-10-04T08:13:14.852Z</time>
</trkpt>
<trkpt lat="22.2776125" lon="114.1763773">
<ele>32.683</ele>
<time>2022-10-04T08:13:17.548Z</time>
</trkpt>
<trkpt lat="22.2775162" lon="114.1761516">
<ele>33.257</ele>
<time>2022-10-04T08:13:20.582Z</time>
</trkpt>
<trkpt lat="22.2774403" lon="114.1760049">
<ele>33.359</ele>
<time>2022-10-04T08:13:23.062Z</time>
</trkpt>
<trkpt lat="22.2774595" lon="114.1758950">
<ele>33.048</ele>
<time>2022-10-04T08:13:24.999Z</time>
</trkpt>
<trkpt lat="22.2774595" lon="114.1758950">
<ele>32.569</ele>
<time>2022-10-04T08:13:30.999Z</time>
</trkpt>
<trkpt lat="22.2774595" lon="114.1758950">
<ele>32.266</ele>
<time>2022-10-04T08:13:44.286Z</time>
</trkpt>
<trkpt lat="22.2774688" lon="114.1756540">
<ele>32.336</ele>
<time>2022-10-04T08:13:55.630Z</time>
</trkpt>
<trkpt lat="22.2773426" lon="114.1755245">
<ele>32.695</ele>
<time>2022-10-04T08:13:59.394Z</time>
</trkpt>
<trkpt lat="22.2772631" lon="114.1754212">
<ele>33.534</ele>
<time>2022-10-04T08:14:01.986Z</time>
</trkpt>
<trkpt lat="22.2771896" lon="114.1753366">
<ele>35.125</ele>
<time>2022-10-04T08:14:04.313Z</time>
</trkpt>
<trkpt lat="22.2770743" lon="114.1753038">
<ele>36.921</ele>
<time>2022-10-04T08:14:06.999Z</time>
</trkpt>
<trkpt lat="22.2770743" lon="114.1753038">
<ele>38.062</ele>
<time>2022-10-04T08:14:20.999Z</time>
</trkpt>
<trkpt lat="22.2770743" lon="114.1753038">
<ele>38.413</ele>
<time>2022-10-04T08:14:42.192Z</time>
</trkpt>
<trkpt lat="22.2771009" lon="114.1750135">
<ele>38.320</ele>
<time>2022-10-04T08:15:05.490Z</time>
</trkpt>
<trkpt lat="22.2771056" lon="114.1748910">
<ele>41.917</ele>
<time>2022-10-04T08:15:09.116Z</time>
</trkpt>
<trkpt lat="22.2769795" lon="114.1747876">
<ele>51.671</ele>
<time>2022-10-04T08:15:13.594Z</time>
</trkpt>
<trkpt lat="22.2769129" lon="114.1746726">
<ele>61.777</ele>
<time>2022-10-04T08:15:16.751Z</time>
</trkpt>
<trkpt lat="22.2767839" lon="114.1745611">
<ele>66.595</ele>
<time>2022-10-04T08:15:20.792Z</time>
</trkpt>
<trkpt lat="22.2769956" lon="114.1743700">
<ele>67.156</ele>
<time>2022-10-04T08:15:32.098Z</time>
</trkpt>
<trkpt lat="22.2769982" lon="114.1741960">
<ele>65.681</ele>
<time>2022-10-04T08:15:41.473Z</time>
</trkpt>
<trkpt lat="22.2771011" lon="114.1740054">
<ele>63.458</ele>
<time>2022-10-04T08:15:53.364Z</time>
</trkpt>
<trkpt lat="22.2769729" lon="114.1738577">
<ele>60.980</ele>
<time>2022-10-04T08:16:04.276Z</time>
</trkpt>
<trkpt lat="22.2767849" lon="114.1737594">
<ele>58.468</ele>
<time>2022-10-04T08:16:16.439Z</time>
</trkpt>
<trkpt lat="22.2766081" lon="114.1733049">
<ele>54.792</ele>
<time>2022-10-04T08:16:42.999Z</time>
</trkpt>
<trkpt lat="22.2766081" lon="114.1733049">
<ele>50.766</ele>
<time>2022-10-04T08:16:43.000Z</time>
</trkpt>
<trkpt lat="22.2766081" lon="114.1733049">
<ele>42.307</ele>
<time>2022-10-04T08:16:43.100Z</time>
</trkpt>
<trkpt lat="22.2766653" lon="114.1731239">
<ele>39.918</ele>
<time>2022-10-04T08:16:51.483Z</time>
</trkpt>
<trkpt lat="22.2767010" lon="114.1730257">
<ele>44.018</ele>
<time>2022-10-04T08:16:54.399Z</time>
</trkpt>
<trkpt lat="22.2766946" lon="114.1729249">
<ele>41.244</ele>
<time>2022-10-04T08:16:56.869Z</time>
</trkpt>
<trkpt lat="22.2766613" lon="114.1727696">
<ele>34.776</ele>
<time>2022-10-04T08:17:00.174Z</time>
</trkpt>
<trkpt lat="22.2766307" lon="114.1726188">
<ele>29.869</ele>
<time>2022-10-04T08:17:03.270Z</time>
</trkpt>
<trkpt lat="22.2765747" lon="114.1724814">
<ele>27.176</ele>
<time>2022-10-04T08:17:06.596Z</time>
</trkpt>
<trkpt lat="22.2765714" lon="114.1723472">
<ele>25.536</ele>
<time>2022-10-04T08:17:09.729Z</time>
</trkpt>
<trkpt lat="22.2765884" lon="114.1722341">
<ele>24.260</ele>
<time>2022-10-04T08:17:12.330Z</time>
</trkpt>
<trkpt lat="22.2765789" lon="114.1721041">
<ele>23.695</ele>
<time>2022-10-04T08:17:16.989Z</time>
</trkpt>
<trkpt lat="22.2765789" lon="114.1721041">
<ele>23.695</ele>
<time>2022-10-04T08:17:16.989Z</time>
</trkpt>
<trkpt lat="22.2763961" lon="114.1717950">
<ele>17.575</ele>
<time>2022-10-04T08:17:31.514Z</time>
</trkpt>
<trkpt lat="22.2764045" lon="114.1716834">
<ele>17.567</ele>
<time>2022-10-04T08:17:37.436Z</time>
</trkpt>
<trkpt lat="22.2764569" lon="114.1715775">
<ele>18.045</ele>
<time>2022-10-04T08:17:40.725Z</time>
</trkpt>
<trkpt lat="22.2765131" lon="114.1714815">
<ele>19.380</ele>
<time>2022-10-04T08:17:43.592Z</time>
</trkpt>
<trkpt lat="22.2765713" lon="114.1713944">
<ele>20.951</ele>
<time>2022-10-04T08:17:46.716Z</time>
</trkpt>
<trkpt lat="22.2766072" lon="114.1712905">
<ele>21.969</ele>
<time>2022-10-04T08:17:50.068Z</time>
</trkpt>
<trkpt lat="22.2766692" lon="114.1711731">
<ele>22.399</ele>
<time>2022-10-04T08:17:53.887Z</time>
</trkpt>
<trkpt lat="22.2767073" lon="114.1710714">
<ele>22.596</ele>
<time>2022-10-04T08:17:57.125Z</time>
</trkpt>
<trkpt lat="22.2767328" lon="114.1709418">
<ele>23.383</ele>
<time>2022-10-04T08:18:01.522Z</time>
</trkpt>
<trkpt lat="22.2768351" lon="114.1708875">
<ele>25.040</ele>
<time>2022-10-04T08:18:06.471Z</time>
</trkpt>
<trkpt lat="22.2769047" lon="114.1708041">
<ele>26.618</ele>
<time>2022-10-04T08:18:11.086Z</time>
</trkpt>
<trkpt lat="22.2769013" lon="114.1706931">
<ele>27.527</ele>
<time>2022-10-04T08:18:14.999Z</time>
</trkpt>
<trkpt lat="22.2769013" lon="114.1706931">
<ele>28.120</ele>
<time>2022-10-04T08:18:23.999Z</time>
</trkpt>
<trkpt lat="22.2769013" lon="114.1706931">
<ele>28.441</ele>
<time>2022-10-04T08:18:24.099Z</time>
</trkpt>
<trkpt lat="22.2770532" lon="114.1704562">
<ele>28.322</ele>
<time>2022-10-04T08:18:37.794Z</time>
</trkpt>
<trkpt lat="22.2771583" lon="114.1703659">
<ele>27.927</ele>
<time>2022-10-04T08:18:44.295Z</time>
</trkpt>
<trkpt lat="22.2772233" lon="114.1702878">
<ele>27.577</ele>
<time>2022-10-04T08:18:48.999Z</time>
</trkpt>
<trkpt lat="22.2772233" lon="114.1702878">
<ele>27.433</ele>
<time>2022-10-04T08:18:49.999Z</time>
</trkpt>
<trkpt lat="22.2772233" lon="114.1702878">
<ele>27.442</ele>
<time>2022-10-04T08:19:02.945Z</time>
</trkpt>
<trkpt lat="22.2774915" lon="114.1701592">
<ele>27.480</ele>
<time>2022-10-04T08:19:13.674Z</time>
</trkpt>
<trkpt lat="22.2775411" lon="114.1699619">
<ele>27.046</ele>
<time>2022-10-04T08:19:16.915Z</time>
</trkpt>
<trkpt lat="22.2776275" lon="114.1698721">
<ele>25.908</ele>
<time>2022-10-04T08:19:19.072Z</time>
</trkpt>
<trkpt lat="22.2776421" lon="114.1697091">
<ele>25.123</ele>
<time>2022-10-04T08:19:22.633Z</time>
</trkpt>
<trkpt lat="22.2776432" lon="114.1695777">
<ele>25.760</ele>
<time>2022-10-04T08:19:26.999Z</time>
</trkpt>
<trkpt lat="22.2776432" lon="114.1695777">
<ele>27.236</ele>
<time>2022-10-04T08:19:29.999Z</time>
</trkpt>
<trkpt lat="22.2776432" lon="114.1695777">
<ele>28.190</ele>
<time>2022-10-04T08:19:30.109Z</time>
</trkpt>
<trkpt lat="22.2776115" lon="114.1693569">
<ele>28.130</ele>
<time>2022-10-04T08:19:44.365Z</time>
</trkpt>
<trkpt lat="22.2776479" lon="114.1691888">
<ele>28.300</ele>
<time>2022-10-04T08:19:47.109Z</time>
</trkpt>
<trkpt lat="22.2776538" lon="114.1690614">
<ele>29.821</ele>
<time>2022-10-04T08:19:48.820Z</time>
</trkpt>
<trkpt lat="22.2777386" lon="114.1689251">
<ele>31.695</ele>
<time>2022-10-04T08:19:51.028Z</time>
</trkpt>
<trkpt lat="22.2777829" lon="114.1688032">
<ele>32.365</ele>
<time>2022-10-04T08:19:52.851Z</time>
</trkpt>
<trkpt lat="22.2778522" lon="114.1687322">
<ele>31.760</ele>
<time>2022-10-04T08:19:54.321Z</time>
</trkpt>
<trkpt lat="22.2779134" lon="114.1685906">
<ele>30.723</ele>
<time>2022-10-04T08:19:56.366Z</time>
</trkpt>
<trkpt lat="22.2781220" lon="114.1684952">
<ele>29.654</ele>
<time>2022-10-04T08:19:59.355Z</time>
</trkpt>
<trkpt lat="22.2782694" lon="114.1684635">
<ele>27.595</ele>
<time>2022-10-04T08:20:00.999Z</time>
</trkpt>
<trkpt lat="22.2782694" lon="114.1684635">
<ele>24.308</ele>
<time>2022-10-04T08:20:04.999Z</time>
</trkpt>
<trkpt lat="22.2782694" lon="114.1684635">
<ele>21.972</ele>
<time>2022-10-04T08:20:05.099Z</time>
</trkpt>
<trkpt lat="22.2780410" lon="114.1682886">
<ele>22.051</ele>
<time>2022-10-04T08:20:22.084Z</time>
</trkpt>
<trkpt lat="22.2781050" lon="114.1681863">
<ele>21.905</ele>
<time>2022-10-04T08:20:25.722Z</time>
</trkpt>
<trkpt lat="22.2780931" lon="114.1680652">
<ele>19.260</ele>
<time>2022-10-04T08:20:29.375Z</time>
</trkpt>
<trkpt lat="22.2779157" lon="114.1681042">
<ele>16.276</ele>
<time>2022-10-04T08:20:35.224Z</time>
</trkpt>
<trkpt lat="22.2778024" lon="114.1680444">
<ele>15.543</ele>
<time>2022-10-04T08:20:37.897Z</time>
</trkpt>
<trkpt lat="22.2779154" lon="114.1679490">
<ele>16.620</ele>
<time>2022-10-04T08:20:40.400Z</time>
</trkpt>
<trkpt lat="22.2779497" lon="114.1677828">
<ele>18.140</ele>
<time>2022-10-04T08:20:42.769Z</time>
</trkpt>
<trkpt lat="22.2780039" lon="114.1675988">
<ele>19.492</ele>
<time>2022-10-04T08:20:45.302Z</time>
</trkpt>
<trkpt lat="22.2780610" lon="114.1673892">
<ele>20.626</ele>
<time>2022-10-04T08:20:48.190Z</time>
</trkpt>
<trkpt lat="22.2780844" lon="114.1671789">
<ele>21.201</ele>
<time>2022-10-04T08:20:51.069Z</time>
</trkpt>
<trkpt lat="22.2781199" lon="114.1670121">
<ele>21.008</ele>
<time>2022-10-04T08:20:53.371Z</time>
</trkpt>
<trkpt lat="22.2781140" lon="114.1668250">
<ele>20.607</ele>
<time>2022-10-04T08:20:55.836Z</time>
</trkpt>
<trkpt lat="22.2781227" lon="114.1666594">
<ele>20.605</ele>
<time>2022-10-04T08:20:58.140Z</time>
</trkpt>
<trkpt lat="22.2781280" lon="114.1664638">
<ele>21.148</ele>
<time>2022-10-04T08:21:01.351Z</time>
</trkpt>
<trkpt lat="22.2781316" lon="114.1663025">
<ele>22.079</ele>
<time>2022-10-04T08:21:04.293Z</time>
</trkpt>
<trkpt lat="22.2781189" lon="114.1661087">
<ele>23.077</ele>
<time>2022-10-04T08:21:07.918Z</time>
</trkpt>
<trkpt lat="22.2781477" lon="114.1659294">
<ele>23.895</ele>
<time>2022-10-04T08:21:11.451Z</time>
</trkpt>
<trkpt lat="22.2781800" lon="114.1658147">
<ele>24.496</ele>
<time>2022-10-04T08:21:13.813Z</time>
</trkpt>
<trkpt lat="22.2781473" lon="114.1656992">
<ele>25.007</ele>
<time>2022-10-04T08:21:16.131Z</time>
</trkpt>
<trkpt lat="22.2780326" lon="114.1655310">
<ele>25.547</ele>
<time>2022-10-04T08:21:20.338Z</time>
</trkpt>
<trkpt lat="22.2779603" lon="114.1654239">
<ele>26.024</ele>
<time>2022-10-04T08:21:23.650Z</time>
</trkpt>
<trkpt lat="22.2779603" lon="114.1654239">
<ele>26.024</ele>
<time>2022-10-04T08:21:23.650Z</time>
</trkpt>
<trkpt lat="22.2783699" lon="114.1646595">
<ele>25.368</ele>
<time>2022-10-04T08:21:48.295Z</time>
</trkpt>
<trkpt lat="22.2784627" lon="114.1646704">
<ele>25.356</ele>
<time>2022-10-04T08:21:52.545Z</time>
</trkpt>
<trkpt lat="22.2784660" lon="114.1645322">
<ele>25.352</ele>
<time>2022-10-04T08:22:04.999Z</time>
</trkpt>
<trkpt lat="22.2784660" lon="114.1645322">
<ele>25.336</ele>
<time>2022-10-04T08:22:05.000Z</time>
</trkpt>
<trkpt lat="22.2784660" lon="114.1645322">
<ele>25.295</ele>
<time>2022-10-04T08:22:14.421Z</time>
</trkpt>
<trkpt lat="22.2785525" lon="114.1643355">
<ele>25.262</ele>
<time>2022-10-04T08:22:25.186Z</time>
</trkpt>
<trkpt lat="22.2786159" lon="114.1642341">
<ele>25.492</ele>
<time>2022-10-04T08:22:28.763Z</time>
</trkpt>
<trkpt lat="22.2786590" lon="114.1641387">
<ele>26.100</ele>
<time>2022-10-04T08:22:32.332Z</time>
</trkpt>
<trkpt lat="22.2787227" lon="114.1640623">
<ele>26.429</ele>
<time>2022-10-04T08:22:36.212Z</time>
</trkpt>
<trkpt lat="22.2787811" lon="114.1639514">
<ele>25.521</ele>
<time>2022-10-04T08:22:40.385Z</time>
</trkpt>
<trkpt lat="22.2787542" lon="114.1637911">
<ele>23.527</ele>
<time>2022-10-04T08:22:44.469Z</time>
</trkpt>
<trkpt lat="22.2787400" lon="114.1636592">
<ele>21.355</ele>
<time>2022-10-04T08:22:47.453Z</time>
</trkpt>
<trkpt lat="22.2786824" lon="114.1635260">
<ele>19.514</ele>
<time>2022-10-04T08:22:50.465Z</time>
</trkpt>
<trkpt lat="22.2787960" lon="114.1634220">
<ele>17.783</ele>
<time>2022-10-04T08:22:53.650Z</time>
</trkpt>
<trkpt lat="22.2789076" lon="114.1633267">
<ele>16.069</ele>
<time>2022-10-04T08:22:56.778Z</time>
</trkpt>
<trkpt lat="22.2789894" lon="114.1632072">
<ele>14.836</ele>
<time>2022-10-04T08:22:59.866Z</time>
</trkpt>
<trkpt lat="22.2790885" lon="114.1631254">
<ele>14.298</ele>
<time>2022-10-04T08:23:02.588Z</time>
</trkpt>
<trkpt lat="22.2791691" lon="114.1630382">
<ele>14.033</ele>
<time>2022-10-04T08:23:05.194Z</time>
</trkpt>
<trkpt lat="22.2792564" lon="114.1630065">
<ele>13.831</ele>
<time>2022-10-04T08:23:07.865Z</time>
</trkpt>
<trkpt lat="22.2792991" lon="114.1629123">
<ele>13.718</ele>
<time>2022-10-04T08:23:11.999Z</time>
</trkpt>
<trkpt lat="22.2792991" lon="114.1629123">
<ele>13.681</ele>
<time>2022-10-04T08:23:14.999Z</time>
</trkpt>
<trkpt lat="22.2792991" lon="114.1629123">
<ele>13.681</ele>
<time>2022-10-04T08:24:04.997Z</time>
</trkpt>
<trkpt lat="22.2794914" lon="114.1627428">
<ele>13.691</ele>
<time>2022-10-04T08:24:17.064Z</time>
</trkpt>
<trkpt lat="22.2795468" lon="114.1626510">
<ele>13.907</ele>
<time>2022-10-04T08:24:19.352Z</time>
</trkpt>
<trkpt lat="22.2796245" lon="114.1625040">
<ele>14.665</ele>
<time>2022-10-04T08:24:23.171Z</time>
</trkpt>
<trkpt lat="22.2796251" lon="114.1624011">
<ele>15.777</ele>
<time>2022-10-04T08:24:26.165Z</time>
</trkpt>
<trkpt lat="22.2796765" lon="114.1622967">
<ele>16.516</ele>
<time>2022-10-04T08:24:30.350Z</time>
</trkpt>
<trkpt lat="22.2797042" lon="114.1621768">
<ele>16.578</ele>
<time>2022-10-04T08:24:34.949Z</time>
</trkpt>
<trkpt lat="22.2797581" lon="114.1620543">
<ele>16.576</ele>
<time>2022-10-04T08:24:39.090Z</time>
</trkpt>
<trkpt lat="22.2797859" lon="114.1619113">
<ele>17.081</ele>
<time>2022-10-04T08:24:42.387Z</time>
</trkpt>
<trkpt lat="22.2798376" lon="114.1618129">
<ele>17.972</ele>
<time>2022-10-04T08:24:44.768Z</time>
</trkpt>
<trkpt lat="22.2798798" lon="114.1616896">
<ele>18.895</ele>
<time>2022-10-04T08:24:47.569Z</time>
</trkpt>
<trkpt lat="22.2799339" lon="114.1615701">
<ele>19.579</ele>
<time>2022-10-04T08:24:50.338Z</time>
</trkpt>
<trkpt lat="22.2799885" lon="114.1614510">
<ele>19.881</ele>
<time>2022-10-04T08:24:52.999Z</time>
</trkpt>
<trkpt lat="22.2799885" lon="114.1614510">
<ele>19.929</ele>
<time>2022-10-04T08:24:57.999Z</time>
</trkpt>
<trkpt lat="22.2799885" lon="114.1614510">
<ele>19.892</ele>
<time>2022-10-04T08:25:23.115Z</time>
</trkpt>
<trkpt lat="22.2799931" lon="114.1611259">
<ele>19.859</ele>
<time>2022-10-04T08:25:44.015Z</time>
</trkpt>
<trkpt lat="22.2800151" lon="114.1609548">
<ele>19.280</ele>
<time>2022-10-04T08:25:47.674Z</time>
</trkpt>
<trkpt lat="22.2800538" lon="114.1608185">
<ele>17.802</ele>
<time>2022-10-04T08:25:50.833Z</time>
</trkpt>
<trkpt lat="22.2801081" lon="114.1607154">
<ele>16.490</ele>
<time>2022-10-04T08:25:53.791Z</time>
</trkpt>
<trkpt lat="22.2801650" lon="114.1606091">
<ele>16.824</ele>
<time>2022-10-04T08:25:57.114Z</time>
</trkpt>
<trkpt lat="22.2802456" lon="114.1605658">
<ele>18.699</ele>
<time>2022-10-04T08:25:59.732Z</time>
</trkpt>
<trkpt lat="22.2803143" lon="114.1604957">
<ele>20.681</ele>
<time>2022-10-04T08:26:02.593Z</time>
</trkpt>
<trkpt lat="22.2804032" lon="114.1604635">
<ele>21.578</ele>
<time>2022-10-04T08:26:05.567Z</time>
</trkpt>
<trkpt lat="22.2804926" lon="114.1604099">
<ele>21.307</ele>
<time>2022-10-04T08:26:08.885Z</time>
</trkpt>
<trkpt lat="22.2805640" lon="114.1603114">
<ele>20.318</ele>
<time>2022-10-04T08:26:12.370Z</time>
</trkpt>
<trkpt lat="22.2805807" lon="114.1602113">
<ele>19.143</ele>
<time>2022-10-04T08:26:14.983Z</time>
</trkpt>
<trkpt lat="22.2806056" lon="114.1600865">
<ele>17.996</ele>
<time>2022-10-04T08:26:18.072Z</time>
</trkpt>
<trkpt lat="22.2806263" lon="114.1599806">
<ele>16.932</ele>
<time>2022-10-04T08:26:20.855Z</time>
</trkpt>
<trkpt lat="22.2806537" lon="114.1598658">
<ele>16.163</ele>
<time>2022-10-04T08:26:24.847Z</time>
</trkpt>
<trkpt lat="22.2807016" lon="114.1597713">
<ele>15.797</ele>
<time>2022-10-04T08:26:28.999Z</time>
</trkpt>
<trkpt lat="22.2807016" lon="114.1597713">
<ele>15.671</ele>
<time>2022-10-04T08:26:39.999Z</time>
</trkpt>
<trkpt lat="22.2807016" lon="114.1597713">
<ele>15.655</ele>
<time>2022-10-04T08:26:42.471Z</time>
</trkpt>
<trkpt lat="22.2807240" lon="114.1595141">
<ele>15.667</ele>
<time>2022-10-04T08:26:59.605Z</time>
</trkpt>
<trkpt lat="22.2806836" lon="114.1594022">
<ele>15.161</ele>
<time>2022-10-04T08:27:03.275Z</time>
</trkpt>
<trkpt lat="22.2807169" lon="114.1592824">
<ele>13.712</ele>
<time>2022-10-04T08:27:05.786Z</time>
</trkpt>
<trkpt lat="22.2808063" lon="114.1590948">
<ele>11.802</ele>
<time>2022-10-04T08:27:09.792Z</time>
</trkpt>
<trkpt lat="22.2807235" lon="114.1590253">
<ele>9.972</ele>
<time>2022-10-04T08:27:11.999Z</time>
</trkpt>
<trkpt lat="22.2807235" lon="114.1590253">
<ele>8.411</ele>
<time>2022-10-04T08:27:13.999Z</time>
</trkpt>
<trkpt lat="22.2807235" lon="114.1590253">
<ele>7.605</ele>
<time>2022-10-04T08:27:14.099Z</time>
</trkpt>
<trkpt lat="22.2808776" lon="114.1589073">
<ele>7.675</ele>
<time>2022-10-04T08:27:17.999Z</time>
</trkpt>
<trkpt lat="22.2808776" lon="114.1589073">
<ele>7.980</ele>
<time>2022-10-04T08:27:22.999Z</time>
</trkpt>
<trkpt lat="22.2808776" lon="114.1589073">
<ele>8.001</ele>
<time>2022-10-04T08:27:37.923Z</time>
</trkpt>
<trkpt lat="22.2809909" lon="114.1586991">
<ele>7.871</ele>
<time>2022-10-04T08:27:54.062Z</time>
</trkpt>
<trkpt lat="22.2810651" lon="114.1586035">
<ele>8.301</ele>
<time>2022-10-04T08:27:57.766Z</time>
</trkpt>
<trkpt lat="22.2810948" lon="114.1584623">
<ele>9.548</ele>
<time>2022-10-04T08:28:01.157Z</time>
</trkpt>
<trkpt lat="22.2811529" lon="114.1583486">
<ele>10.879</ele>
<time>2022-10-04T08:28:03.617Z</time>
</trkpt>
<trkpt lat="22.2812934" lon="114.1582996">
<ele>11.636</ele>
<time>2022-10-04T08:28:06.610Z</time>
</trkpt>
<trkpt lat="22.2813957" lon="114.1582267">
<ele>11.886</ele>
<time>2022-10-04T08:28:09.350Z</time>
</trkpt>
<trkpt lat="22.2814903" lon="114.1581667">
<ele>11.836</ele>
<time>2022-10-04T08:28:12.516Z</time>
</trkpt>
<trkpt lat="22.2815582" lon="114.1580812">
<ele>11.548</ele>
<time>2022-10-04T08:28:16.472Z</time>
</trkpt>
<trkpt lat="22.2816562" lon="114.1579696">
<ele>11.066</ele>
<time>2022-10-04T08:28:21.877Z</time>
</trkpt>
<trkpt lat="22.2817105" lon="114.1578637">
<ele>10.843</ele>
<time>2022-10-04T08:28:26.129Z</time>
</trkpt>
<trkpt lat="22.2821160" lon="114.1575980">
<ele>11.714</ele>
<time>2022-10-04T08:28:44.132Z</time>
</trkpt>
<trkpt lat="22.2822111" lon="114.1575689">
<ele>12.581</ele>
<time>2022-10-04T08:28:47.883Z</time>
</trkpt>
<trkpt lat="22.2823577" lon="114.1574583">
<ele>14.256</ele>
<time>2022-10-04T08:28:54.669Z</time>
</trkpt>
<trkpt lat="22.2825037" lon="114.1573571">
<ele>16.339</ele>
<time>2022-10-04T08:29:01.251Z</time>
</trkpt>
<trkpt lat="22.2826050" lon="114.1573858">
<ele>17.970</ele>
<time>2022-10-04T08:29:05.410Z</time>
</trkpt>
<trkpt lat="22.2826436" lon="114.1572848">
<ele>18.348</ele>
<time>2022-10-04T08:29:08.670Z</time>
</trkpt>
<trkpt lat="22.2827015" lon="114.1572046">
<ele>17.204</ele>
<time>2022-10-04T08:29:10.915Z</time>
</trkpt>
<trkpt lat="22.2827162" lon="114.1570838">
<ele>15.579</ele>
<time>2022-10-04T08:29:13.662Z</time>
</trkpt>
<trkpt lat="22.2827886" lon="114.1569912">
<ele>14.597</ele>
<time>2022-10-04T08:29:17.278Z</time>
</trkpt>
<trkpt lat="22.2830331" lon="114.1569735">
<ele>14.303</ele>
<time>2022-10-04T08:29:27.025Z</time>
</trkpt>
<trkpt lat="22.2831028" lon="114.1567770">
<ele>14.322</ele>
<time>2022-10-04T08:29:31.612Z</time>
</trkpt>
<trkpt lat="22.2832442" lon="114.1566603">
<ele>14.272</ele>
<time>2022-10-04T08:29:35.026Z</time>
</trkpt>
<trkpt lat="22.2833731" lon="114.1566108">
<ele>13.928</ele>
<time>2022-10-04T08:29:37.732Z</time>
</trkpt>
<trkpt lat="22.2834598" lon="114.1565714">
<ele>13.282</ele>
<time>2022-10-04T08:29:39.869Z</time>
</trkpt>
<trkpt lat="22.2835195" lon="114.1564802">
<ele>12.211</ele>
<time>2022-10-04T08:29:43.145Z</time>
</trkpt>
<trkpt lat="22.2834794" lon="114.1563233">
<ele>10.834</ele>
<time>2022-10-04T08:29:50.999Z</time>
</trkpt>
<trkpt lat="22.2834794" lon="114.1563233">
<ele>9.756</ele>
<time>2022-10-04T08:29:53.999Z</time>
</trkpt>
<trkpt lat="22.2834794" lon="114.1563233">
<ele>9.336</ele>
<time>2022-10-04T08:29:54.099Z</time>
</trkpt>
<trkpt lat="22.2836251" lon="114.1564532">
<ele>9.546</ele>
<time>2022-10-04T08:30:28.077Z</time>
</trkpt>
<trkpt lat="22.2837340" lon="114.1564065">
<ele>10.816</ele>
<time>2022-10-04T08:30:30.409Z</time>
</trkpt>
<trkpt lat="22.2838511" lon="114.1563719">
<ele>13.530</ele>
<time>2022-10-04T08:30:32.312Z</time>
</trkpt>
<trkpt lat="22.2839013" lon="114.1561674">
<ele>16.749</ele>
<time>2022-10-04T08:30:35.124Z</time>
</trkpt>
<trkpt lat="22.2840524" lon="114.1560357">
<ele>18.957</ele>
<time>2022-10-04T08:30:38.051Z</time>
</trkpt>
<trkpt lat="22.2841808" lon="114.1559855">
<ele>19.739</ele>
<time>2022-10-04T08:30:40.281Z</time>
</trkpt>
<trkpt lat="22.2843310" lon="114.1559607">
<ele>19.669</ele>
<time>2022-10-04T08:30:42.648Z</time>
</trkpt>
<trkpt lat="22.2844757" lon="114.1558184">
<ele>19.422</ele>
<time>2022-10-04T08:30:45.561Z</time>
</trkpt>
<trkpt lat="22.2846050" lon="114.1556909">
<ele>19.312</ele>
<time>2022-10-04T08:30:48.116Z</time>
</trkpt>
<trkpt lat="22.2847480" lon="114.1555506">
<ele>19.330</ele>
<time>2022-10-04T08:30:51.145Z</time>
</trkpt>
<trkpt lat="22.2848746" lon="114.1555091">
<ele>19.388</ele>
<time>2022-10-04T08:30:53.687Z</time>
</trkpt>
<trkpt lat="22.2849544" lon="114.1553849">
<ele>19.696</ele>
<time>2022-10-04T08:30:56.658Z</time>
</trkpt>
<trkpt lat="22.2850279" lon="114.1552260">
<ele>20.735</ele>
<time>2022-10-04T08:30:59.695Z</time>
</trkpt>
<trkpt lat="22.2851803" lon="114.1551805">
<ele>22.410</ele>
<time>2022-10-04T08:31:02.819Z</time>
</trkpt>
<trkpt lat="22.2853780" lon="114.1552030">
<ele>24.375</ele>
<time>2022-10-04T08:31:07.999Z</time>
</trkpt>
<trkpt lat="22.2853780" lon="114.1552030">
<ele>26.385</ele>
<time>2022-10-04T08:31:10.999Z</time>
</trkpt>
<trkpt lat="22.2853780" lon="114.1552030">
<ele>27.608</ele>
<time>2022-10-04T08:31:11.099Z</time>
</trkpt>
<trkpt lat="22.2853322" lon="114.1550059">
<ele>27.522</ele>
<time>2022-10-04T08:31:36.999Z</time>
</trkpt>
<trkpt lat="22.2853322" lon="114.1550059">
<ele>27.032</ele>
<time>2022-10-04T08:31:40.999Z</time>
</trkpt>
<trkpt lat="22.2853322" lon="114.1550059">
<ele>26.980</ele>
<time>2022-10-04T08:31:41.190Z</time>
</trkpt>
<trkpt lat="22.2852045" lon="114.1549922">
<ele>27.237</ele>
<time>2022-10-04T08:31:46.104Z</time>
</trkpt>
<trkpt lat="22.2850281" lon="114.1549219">
<ele>28.969</ele>
<time>2022-10-04T08:31:49.095Z</time>
</trkpt>
<trkpt lat="22.2846583" lon="114.1546673">
<ele>33.021</ele>
<time>2022-10-04T08:31:53.374Z</time>
</trkpt>
<trkpt lat="22.2843838" lon="114.1545279">
<ele>37.040</ele>
<time>2022-10-04T08:31:57.582Z</time>
</trkpt>
<trkpt lat="22.2845370" lon="114.1545552">
<ele>38.696</ele>
<time>2022-10-04T08:31:59.999Z</time>
</trkpt>
<trkpt lat="22.2845370" lon="114.1545552">
<ele>38.323</ele>
<time>2022-10-04T08:32:00.000Z</time>
</trkpt>
<trkpt lat="22.2845370" lon="114.1545552">
<ele>37.045</ele>
<time>2022-10-04T08:32:00.100Z</time>
</trkpt>
<trkpt lat="22.2848235" lon="114.1541582">
<ele>36.050</ele>
<time>2022-10-04T08:32:05.832Z</time>
</trkpt>
<trkpt lat="22.2857263" lon="114.1538607">
<ele>35.830</ele>
<time>2022-10-04T08:32:13.105Z</time>
</trkpt>
<trkpt lat="22.2859083" lon="114.1537151">
<ele>35.948</ele>
<time>2022-10-04T08:32:14.840Z</time>
</trkpt>
<trkpt lat="22.2860213" lon="114.1536181">
<ele>35.910</ele>
<time>2022-10-04T08:32:16.345Z</time>
</trkpt>
<trkpt lat="22.2861916" lon="114.1536055">
<ele>35.422</ele>
<time>2022-10-04T08:32:18.433Z</time>
</trkpt>
<trkpt lat="22.2862086" lon="114.1534283">
<ele>34.705</ele>
<time>2022-10-04T08:32:22.245Z</time>
</trkpt>
<trkpt lat="22.2862092" lon="114.1533304">
<ele>34.363</ele>
<time>2022-10-04T08:32:25.000Z</time>
</trkpt>
<trkpt lat="22.2862092" lon="114.1533304">
<ele>34.459</ele>
<time>2022-10-04T08:32:29.000Z</time>
</trkpt>
<trkpt lat="22.2862092" lon="114.1533304">
<ele>34.562</ele>
<time>2022-10-04T08:32:29.100Z</time>
</trkpt>
<trkpt lat="22.2861694" lon="114.1530818">
<ele>34.536</ele>
<time>2022-10-04T08:32:34.000Z</time>
</trkpt>
<trkpt lat="22.2861694" lon="114.1530818">
<ele>34.442</ele>
<time>2022-10-04T08:32:39.000Z</time>
</trkpt>
<trkpt lat="22.2861694" lon="114.1530818">
<ele>34.387</ele>
<time>2022-10-04T08:32:39.100Z</time>
</trkpt>
<trkpt lat="22.2862269" lon="114.1527993">
<ele>34.395</ele>
<time>2022-10-04T08:32:59.835Z</time>
</trkpt>
<trkpt lat="22.2862796" lon="114.1526992">
<ele>34.943</ele>
<time>2022-10-04T08:33:03.024Z</time>
</trkpt>
<trkpt lat="22.2863772" lon="114.1526425">
<ele>36.919</ele>
<time>2022-10-04T08:33:05.999Z</time>
</trkpt>
<trkpt lat="22.2863772" lon="114.1526425">
<ele>39.896</ele>
<time>2022-10-04T08:33:22.999Z</time>
</trkpt>
<trkpt lat="22.2863772" lon="114.1526425">
<ele>41.806</ele>
<time>2022-10-04T08:33:48.425Z</time>
</trkpt>
<trkpt lat="22.2864200" lon="114.1523948">
<ele>41.569</ele>
<time>2022-10-04T08:34:30.997Z</time>
</trkpt>
<trkpt lat="22.2865064" lon="114.1523380">
<ele>40.363</ele>
<time>2022-10-04T08:34:49.477Z</time>
</trkpt>
<trkpt lat="22.2865526" lon="114.1522071">
<ele>39.596</ele>
<time>2022-10-04T08:34:57.999Z</time>
</trkpt>
<trkpt lat="22.2865526" lon="114.1522071">
<ele>39.427</ele>
<time>2022-10-04T08:35:20.999Z</time>
</trkpt>
<trkpt lat="22.2865526" lon="114.1522071">
<ele>39.478</ele>
<time>2022-10-04T08:35:21.099Z</time>
</trkpt>
<trkpt lat="22.2865956" lon="114.1519643">
<ele>39.542</ele>
<time>2022-10-04T08:35:39.676Z</time>
</trkpt>
<trkpt lat="22.2866013" lon="114.1518603">
<ele>40.316</ele>
<time>2022-10-04T08:35:43.484Z</time>
</trkpt>
<trkpt lat="22.2866196" lon="114.1517522">
<ele>42.294</ele>
<time>2022-10-04T08:35:47.502Z</time>
</trkpt>
<trkpt lat="22.2867179" lon="114.1516227">
<ele>44.436</ele>
<time>2022-10-04T08:35:57.043Z</time>
</trkpt>
<trkpt lat="22.2868252" lon="114.1516465">
<ele>45.759</ele>
<time>2022-10-04T08:36:03.999Z</time>
</trkpt>
<trkpt lat="22.2868252" lon="114.1516465">
<ele>46.413</ele>
<time>2022-10-04T08:36:15.999Z</time>
</trkpt>
<trkpt lat="22.2868252" lon="114.1516465">
<ele>46.614</ele>
<time>2022-10-04T08:37:05.198Z</time>
</trkpt>
<trkpt lat="22.2867730" lon="114.1514644">
<ele>46.460</ele>
<time>2022-10-04T08:37:21.901Z</time>
</trkpt>
<trkpt lat="22.2866809" lon="114.1513985">
<ele>45.482</ele>
<time>2022-10-04T08:37:28.589Z</time>
</trkpt>
<trkpt lat="22.2867258" lon="114.1512914">
<ele>43.547</ele>
<time>2022-10-04T08:37:35.136Z</time>
</trkpt>
<trkpt lat="22.2868006" lon="114.1511946">
<ele>41.871</ele>
<time>2022-10-04T08:37:42.893Z</time>
</trkpt>
<trkpt lat="22.2868330" lon="114.1510880">
<ele>41.389</ele>
<time>2022-10-04T08:37:48.117Z</time>
</trkpt>
<trkpt lat="22.2868418" lon="114.1509700">
<ele>41.524</ele>
<time>2022-10-04T08:37:53.639Z</time>
</trkpt>
<trkpt lat="22.2868344" lon="114.1508604">
<ele>41.411</ele>
<time>2022-10-04T08:37:58.771Z</time>
</trkpt>
<trkpt lat="22.2868439" lon="114.1507380">
<ele>40.668</ele>
<time>2022-10-04T08:38:05.389Z</time>
</trkpt>
<trkpt lat="22.2869526" lon="114.1506829">
<ele>39.284</ele>
<time>2022-10-04T08:38:13.582Z</time>
</trkpt>
<trkpt lat="22.2869927" lon="114.1505926">
<ele>35.445</ele>
<time>2022-10-04T08:38:19.651Z</time>
</trkpt>
<trkpt lat="22.2871127" lon="114.1506008">
<ele>28.490</ele>
<time>2022-10-04T08:38:27.100Z</time>
</trkpt>
<trkpt lat="22.2872398" lon="114.1505614">
<ele>22.425</ele>
<time>2022-10-04T08:38:35.880Z</time>
</trkpt>
<trkpt lat="22.2873433" lon="114.1505594">
<ele>20.470</ele>
<time>2022-10-04T08:38:43.000Z</time>
</trkpt>
<trkpt lat="22.2873433" lon="114.1505594">
<ele>21.095</ele>
<time>2022-10-04T08:38:54.999Z</time>
</trkpt>
<trkpt lat="22.2873433" lon="114.1505594">
<ele>21.914</ele>
<time>2022-10-04T08:38:55.099Z</time>
</trkpt>
<trkpt lat="22.2875292" lon="114.1506048">
<ele>21.927</ele>
<time>2022-10-04T08:39:16.752Z</time>
</trkpt>
<trkpt lat="22.2876237" lon="114.1505617">
<ele>21.475</ele>
<time>2022-10-04T08:39:20.527Z</time>
</trkpt>
<trkpt lat="22.2877014" lon="114.1504895">
<ele>20.721</ele>
<time>2022-10-04T08:39:23.404Z</time>
</trkpt>
<trkpt lat="22.2876696" lon="114.1503781">
<ele>19.386</ele>
<time>2022-10-04T08:39:25.351Z</time>
</trkpt>
<trkpt lat="22.2877448" lon="114.1501505">
<ele>17.932</ele>
<time>2022-10-04T08:39:28.332Z</time>
</trkpt>
<trkpt lat="22.2877734" lon="114.1499785">
<ele>17.071</ele>
<time>2022-10-04T08:39:30.532Z</time>
</trkpt>
<trkpt lat="22.2877850" lon="114.1498674">
<ele>16.817</ele>
<time>2022-10-04T08:39:31.999Z</time>
</trkpt>
<trkpt lat="22.2877850" lon="114.1498674">
<ele>16.829</ele>
<time>2022-10-04T08:39:36.999Z</time>
</trkpt>
<trkpt lat="22.2877850" lon="114.1498674">
<ele>16.848</ele>
<time>2022-10-04T08:39:37.099Z</time>
</trkpt>
<trkpt lat="22.2877900" lon="114.1495016">
<ele>16.829</ele>
<time>2022-10-04T08:40:01.155Z</time>
</trkpt>
<trkpt lat="22.2878605" lon="114.1490105">
<ele>16.863</ele>
<time>2022-10-04T08:40:16.030Z</time>
</trkpt>
<trkpt lat="22.2881036" lon="114.1485931">
<ele>17.013</ele>
<time>2022-10-04T08:40:30.999Z</time>
</trkpt>
<trkpt lat="22.2881036" lon="114.1485931">
<ele>17.171</ele>
<time>2022-10-04T08:40:31.000Z</time>
</trkpt>
<trkpt lat="22.2881036" lon="114.1485931">
<ele>17.252</ele>
<time>2022-10-04T08:40:31.100Z</time>
</trkpt>
<trkpt lat="22.2881036" lon="114.1485931">
<ele>17.216</ele>
<time>2022-10-04T08:40:39.999Z</time>
</trkpt>
<trkpt lat="22.2881036" lon="114.1485931">
<ele>17.176</ele>
<time>2022-10-04T08:40:40.099Z</time>
</trkpt>
<trkpt lat="22.2880767" lon="114.1483090">
<ele>17.169</ele>
<time>2022-10-04T08:40:59.052Z</time>
</trkpt>
<trkpt lat="22.2881380" lon="114.1481595">
<ele>16.498</ele>
<time>2022-10-04T08:41:02.106Z</time>
</trkpt>
<trkpt lat="22.2880995" lon="114.1480357">
<ele>14.729</ele>
<time>2022-10-04T08:41:04.118Z</time>
</trkpt>
<trkpt lat="22.2880403" lon="114.1479175">
<ele>12.987</ele>
<time>2022-10-04T08:41:05.969Z</time>
</trkpt>
<trkpt lat="22.2880364" lon="114.1477560">
<ele>12.459</ele>
<time>2022-10-04T08:41:07.999Z</time>
</trkpt>
<trkpt lat="22.2880364" lon="114.1477560">
<ele>12.876</ele>
<time>2022-10-04T08:41:14.999Z</time>
</trkpt>
<trkpt lat="22.2880364" lon="114.1477560">
<ele>13.344</ele>
<time>2022-10-04T08:41:15.278Z</time>
</trkpt>
<trkpt lat="22.2880895" lon="114.1475684">
<ele>13.345</ele>
<time>2022-10-04T08:41:29.321Z</time>
</trkpt>
<trkpt lat="22.2881399" lon="114.1474876">
<ele>13.278</ele>
<time>2022-10-04T08:41:31.999Z</time>
</trkpt>
<trkpt lat="22.2881399" lon="114.1474876">
<ele>13.580</ele>
<time>2022-10-04T08:41:33.999Z</time>
</trkpt>
<trkpt lat="22.2881399" lon="114.1474876">
<ele>13.924</ele>
<time>2022-10-04T08:41:34.830Z</time>
</trkpt>
<trkpt lat="22.2882067" lon="114.1473408">
<ele>13.882</ele>
<time>2022-10-04T08:41:39.999Z</time>
</trkpt>
<trkpt lat="22.2882067" lon="114.1473408">
<ele>13.623</ele>
<time>2022-10-04T08:41:43.999Z</time>
</trkpt>
<trkpt lat="22.2882067" lon="114.1473408">
<ele>13.483</ele>
<time>2022-10-04T08:41:44.099Z</time>
</trkpt>
<trkpt lat="22.2883111" lon="114.1471133">
<ele>13.503</ele>
<time>2022-10-04T08:41:55.966Z</time>
</trkpt>
<trkpt lat="22.2883808" lon="114.1469593">
<ele>13.321</ele>
<time>2022-10-04T08:41:58.109Z</time>
</trkpt>
<trkpt lat="22.2887208" lon="114.1465880">
<ele>12.098</ele>
<time>2022-10-04T08:42:06.179Z</time>
</trkpt>
<trkpt lat="22.2883646" lon="114.1462821">
<ele>12.006</ele>
<time>2022-10-04T08:42:14.999Z</time>
</trkpt>
<trkpt lat="22.2883646" lon="114.1462821">
<ele>12.503</ele>
<time>2022-10-04T08:42:15.000Z</time>
</trkpt>
<trkpt lat="22.2883646" lon="114.1462821">
<ele>13.135</ele>
<time>2022-10-04T08:42:15.100Z</time>
</trkpt>
<trkpt lat="22.2881397" lon="114.1460175">
<ele>13.490</ele>
<time>2022-10-04T08:42:24.798Z</time>
</trkpt>
<trkpt lat="22.2879739" lon="114.1458966">
<ele>13.598</ele>
<time>2022-10-04T08:42:29.405Z</time>
</trkpt>
<trkpt lat="22.2880031" lon="114.1457565">
<ele>14.094</ele>
<time>2022-10-04T08:42:32.097Z</time>
</trkpt>
<trkpt lat="22.2879584" lon="114.1456194">
<ele>15.366</ele>
<time>2022-10-04T08:42:34.752Z</time>
</trkpt>
<trkpt lat="22.2879621" lon="114.1454943">
<ele>16.751</ele>
<time>2022-10-04T08:42:36.900Z</time>
</trkpt>
<trkpt lat="22.2879848" lon="114.1453662">
<ele>17.609</ele>
<time>2022-10-04T08:42:38.989Z</time>
</trkpt>
<trkpt lat="22.2879473" lon="114.1452398">
<ele>18.028</ele>
<time>2022-10-04T08:42:40.817Z</time>
</trkpt>
<trkpt lat="22.2879374" lon="114.1450344">
<ele>18.160</ele>
<time>2022-10-04T08:42:43.597Z</time>
</trkpt>
<trkpt lat="22.2879298" lon="114.1449164">
<ele>18.097</ele>
<time>2022-10-04T08:42:45.207Z</time>
</trkpt>
<trkpt lat="22.2879836" lon="114.1448222">
<ele>17.935</ele>
<time>2022-10-04T08:42:46.773Z</time>
</trkpt>
<trkpt lat="22.2879768" lon="114.1446869">
<ele>17.851</ele>
<time>2022-10-04T08:42:48.792Z</time>
</trkpt>
<trkpt lat="22.2879873" lon="114.1445554">
<ele>17.952</ele>
<time>2022-10-04T08:42:50.936Z</time>
</trkpt>
<trkpt lat="22.2879695" lon="114.1444514">
<ele>18.172</ele>
<time>2022-10-04T08:42:52.882Z</time>
</trkpt>
<trkpt lat="22.2879715" lon="114.1443335">
<ele>18.381</ele>
<time>2022-10-04T08:42:55.161Z</time>
</trkpt>
<trkpt lat="22.2879501" lon="114.1442274">
<ele>18.495</ele>
<time>2022-10-04T08:42:57.391Z</time>
</trkpt>
<trkpt lat="22.2878882" lon="114.1441322">
<ele>18.459</ele>
<time>2022-10-04T08:42:59.999Z</time>
</trkpt>
<trkpt lat="22.2878882" lon="114.1441322">
<ele>18.309</ele>
<time>2022-10-04T08:43:04.999Z</time>
</trkpt>
<trkpt lat="22.2878882" lon="114.1441322">
<ele>18.186</ele>
<time>2022-10-04T08:43:33.437Z</time>
</trkpt>
<trkpt lat="22.2879491" lon="114.1437421">
<ele>18.202</ele>
<time>2022-10-04T08:43:53.915Z</time>
</trkpt>
<trkpt lat="22.2879569" lon="114.1436057">
<ele>18.658</ele>
<time>2022-10-04T08:43:56.645Z</time>
</trkpt>
<trkpt lat="22.2879544" lon="114.1434783">
<ele>20.002</ele>
<time>2022-10-04T08:43:58.997Z</time>
</trkpt>
<trkpt lat="22.2879920" lon="114.1433439">
<ele>21.868</ele>
<time>2022-10-04T08:44:01.534Z</time>
</trkpt>
<trkpt lat="22.2880960" lon="114.1432485">
<ele>23.160</ele>
<time>2022-10-04T08:44:04.161Z</time>
</trkpt>
<trkpt lat="22.2880872" lon="114.1430879">
<ele>23.443</ele>
<time>2022-10-04T08:44:07.021Z</time>
</trkpt>
<trkpt lat="22.2880525" lon="114.1429436">
<ele>23.093</ele>
<time>2022-10-04T08:44:09.734Z</time>
</trkpt>
<trkpt lat="22.2880385" lon="114.1428047">
<ele>22.448</ele>
<time>2022-10-04T08:44:12.375Z</time>
</trkpt>
<trkpt lat="22.2879861" lon="114.1426695">
<ele>21.711</ele>
<time>2022-10-04T08:44:15.336Z</time>
</trkpt>
<trkpt lat="22.2880487" lon="114.1425694">
<ele>21.111</ele>
<time>2022-10-04T08:44:18.002Z</time>
</trkpt>
<trkpt lat="22.2880581" lon="114.1424678">
<ele>20.742</ele>
<time>2022-10-04T08:44:20.339Z</time>
</trkpt>
<trkpt lat="22.2880078" lon="114.1423028">
<ele>20.562</ele>
<time>2022-10-04T08:44:23.854Z</time>
</trkpt>
<trkpt lat="22.2880163" lon="114.1422021">
<ele>20.499</ele>
<time>2022-10-04T08:44:25.799Z</time>
</trkpt>
<trkpt lat="22.2880008" lon="114.1420763">
<ele>20.433</ele>
<time>2022-10-04T08:44:28.404Z</time>
</trkpt>
<trkpt lat="22.2879710" lon="114.1419244">
<ele>20.312</ele>
<time>2022-10-04T08:44:31.743Z</time>
</trkpt>
<trkpt lat="22.2880148" lon="114.1418148">
<ele>20.008</ele>
<time>2022-10-04T08:44:34.332Z</time>
</trkpt>
<trkpt lat="22.2882645" lon="114.1418036">
<ele>19.428</ele>
<time>2022-10-04T08:44:39.317Z</time>
</trkpt>
<trkpt lat="22.2881203" lon="114.1416165">
<ele>18.812</ele>
<time>2022-10-04T08:44:43.588Z</time>
</trkpt>
<trkpt lat="22.2880642" lon="114.1415047">
<ele>18.258</ele>
<time>2022-10-04T08:44:46.328Z</time>
</trkpt>
<trkpt lat="22.2880115" lon="114.1414121">
<ele>17.573</ele>
<time>2022-10-04T08:44:49.223Z</time>
</trkpt>
<trkpt lat="22.2879860" lon="114.1412970">
<ele>16.893</ele>
<time>2022-10-04T08:44:53.000Z</time>
</trkpt>
<trkpt lat="22.2879860" lon="114.1412970">
<ele>16.505</ele>
<time>2022-10-04T08:44:56.000Z</time>
</trkpt>
<trkpt lat="22.2879860" lon="114.1412970">
<ele>16.400</ele>
<time>2022-10-04T08:45:00.788Z</time>
</trkpt>
<trkpt lat="22.2881311" lon="114.1411033">
<ele>16.475</ele>
<time>2022-10-04T08:45:28.972Z</time>
</trkpt>
<trkpt lat="22.2881502" lon="114.1409869">
<ele>17.420</ele>
<time>2022-10-04T08:45:33.536Z</time>
</trkpt>
<trkpt lat="22.2882189" lon="114.1409116">
<ele>19.615</ele>
<time>2022-10-04T08:45:37.007Z</time>
</trkpt>
<trkpt lat="22.2881093" lon="114.1408567">
<ele>22.663</ele>
<time>2022-10-04T08:45:41.076Z</time>
</trkpt>
<trkpt lat="22.2880846" lon="114.1407199">
<ele>26.506</ele>
<time>2022-10-04T08:45:44.843Z</time>
</trkpt>
<trkpt lat="22.2880490" lon="114.1405995">
<ele>30.499</ele>
<time>2022-10-04T08:45:47.819Z</time>
</trkpt>
<trkpt lat="22.2880063" lon="114.1404746">
<ele>33.364</ele>
<time>2022-10-04T08:45:50.636Z</time>
</trkpt>
<trkpt lat="22.2879678" lon="114.1403378">
<ele>34.961</ele>
<time>2022-10-04T08:45:53.472Z</time>
</trkpt>
<trkpt lat="22.2879428" lon="114.1402091">
<ele>35.521</ele>
<time>2022-10-04T08:45:56.058Z</time>
</trkpt>
<trkpt lat="22.2879139" lon="114.1400839">
<ele>35.102</ele>
<time>2022-10-04T08:45:58.686Z</time>
</trkpt>
<trkpt lat="22.2879148" lon="114.1399834">
<ele>33.960</ele>
<time>2022-10-04T08:46:00.826Z</time>
</trkpt>
<trkpt lat="22.2879310" lon="114.1398744">
<ele>32.619</ele>
<time>2022-10-04T08:46:03.216Z</time>
</trkpt>
<trkpt lat="22.2879605" lon="114.1397649">
<ele>31.788</ele>
<time>2022-10-04T08:46:05.502Z</time>
</trkpt>
<trkpt lat="22.2878783" lon="114.1395873">
<ele>31.989</ele>
<time>2022-10-04T08:46:09.141Z</time>
</trkpt>
<trkpt lat="22.2877862" lon="114.1395132">
<ele>33.332</ele>
<time>2022-10-04T08:46:11.634Z</time>
</trkpt>
<trkpt lat="22.2877923" lon="114.1394040">
<ele>35.199</ele>
<time>2022-10-04T08:46:13.999Z</time>
</trkpt>
<trkpt lat="22.2877923" lon="114.1394040">
<ele>36.562</ele>
<time>2022-10-04T08:46:17.999Z</time>
</trkpt>
<trkpt lat="22.2877923" lon="114.1394040">
<ele>37.017</ele>
<time>2022-10-04T08:46:18.099Z</time>
</trkpt>
<trkpt lat="22.2876978" lon="114.1392611">
<ele>36.813</ele>
<time>2022-10-04T08:46:26.119Z</time>
</trkpt>
<trkpt lat="22.2876421" lon="114.1391720">
<ele>36.328</ele>
<time>2022-10-04T08:46:30.555Z</time>
</trkpt>
<trkpt lat="22.2876142" lon="114.1390718">
<ele>35.580</ele>
<time>2022-10-04T08:46:35.517Z</time>
</trkpt>
<trkpt lat="22.2875662" lon="114.1389828">
<ele>34.519</ele>
<time>2022-10-04T08:46:38.999Z</time>
</trkpt>
<trkpt lat="22.2875662" lon="114.1389828">
<ele>33.714</ele>
<time>2022-10-04T08:46:41.999Z</time>
</trkpt>
<trkpt lat="22.2875662" lon="114.1389828">
<ele>33.644</ele>
<time>2022-10-04T08:46:55.196Z</time>
</trkpt>
<trkpt lat="22.2875163" lon="114.1387360">
<ele>33.979</ele>
<time>2022-10-04T08:47:07.815Z</time>
</trkpt>
<trkpt lat="22.2874621" lon="114.1385961">
<ele>35.105</ele>
<time>2022-10-04T08:47:11.514Z</time>
</trkpt>
<trkpt lat="22.2874236" lon="114.1384963">
<ele>37.370</ele>
<time>2022-10-04T08:47:14.289Z</time>
</trkpt>
<trkpt lat="22.2874114" lon="114.1383811">
<ele>39.561</ele>
<time>2022-10-04T08:47:17.272Z</time>
</trkpt>
<trkpt lat="22.2873685" lon="114.1382528">
<ele>40.571</ele>
<time>2022-10-04T08:47:20.993Z</time>
</trkpt>
<trkpt lat="22.2873204" lon="114.1381659">
<ele>40.604</ele>
<time>2022-10-04T08:47:24.057Z</time>
</trkpt>
<trkpt lat="22.2873301" lon="114.1380590">
<ele>40.147</ele>
<time>2022-10-04T08:47:27.999Z</time>
</trkpt>
<trkpt lat="22.2873301" lon="114.1380590">
<ele>39.690</ele>
<time>2022-10-04T08:47:37.999Z</time>
</trkpt>
<trkpt lat="22.2873301" lon="114.1380590">
<ele>39.491</ele>
<time>2022-10-04T08:47:57.409Z</time>
</trkpt>
<trkpt lat="22.2873164" lon="114.1378546">
<ele>39.502</ele>
<time>2022-10-04T08:48:10.649Z</time>
</trkpt>
<trkpt lat="22.2873500" lon="114.1377496">
<ele>38.722</ele>
<time>2022-10-04T08:48:14.055Z</time>
</trkpt>
<trkpt lat="22.2873695" lon="114.1375436">
<ele>36.509</ele>
<time>2022-10-04T08:48:17.698Z</time>
</trkpt>
<trkpt lat="22.2872573" lon="114.1373339">
<ele>34.147</ele>
<time>2022-10-04T08:48:20.902Z</time>
</trkpt>
<trkpt lat="22.2871460" lon="114.1372187">
<ele>32.867</ele>
<time>2022-10-04T08:48:23.343Z</time>
</trkpt>
<trkpt lat="22.2871919" lon="114.1371331">
<ele>32.387</ele>
<time>2022-10-04T08:48:24.999Z</time>
</trkpt>
<trkpt lat="22.2871919" lon="114.1371331">
<ele>32.273</ele>
<time>2022-10-04T08:48:28.999Z</time>
</trkpt>
<trkpt lat="22.2871919" lon="114.1371331">
<ele>32.297</ele>
<time>2022-10-04T08:48:29.099Z</time>
</trkpt>
<trkpt lat="22.2872365" lon="114.1369774">
<ele>32.332</ele>
<time>2022-10-04T08:48:36.615Z</time>
</trkpt>
<trkpt lat="22.2871283" lon="114.1368978">
<ele>33.056</ele>
<time>2022-10-04T08:48:40.999Z</time>
</trkpt>
<trkpt lat="22.2871283" lon="114.1368978">
<ele>34.896</ele>
<time>2022-10-04T08:48:45.999Z</time>
</trkpt>
<trkpt lat="22.2871283" lon="114.1368978">
<ele>36.421</ele>
<time>2022-10-04T08:48:46.099Z</time>
</trkpt>
<trkpt lat="22.2870034" lon="114.1367385">
<ele>36.358</ele>
<time>2022-10-04T08:48:50.999Z</time>
</trkpt>
<trkpt lat="22.2870034" lon="114.1367385">
<ele>35.500</ele>
<time>2022-10-04T08:48:54.999Z</time>
</trkpt>
<trkpt lat="22.2870034" lon="114.1367385">
<ele>34.975</ele>
<time>2022-10-04T08:49:49.568Z</time>
</trkpt>
<trkpt lat="22.2869347" lon="114.1365111">
<ele>35.118</ele>
<time>2022-10-04T08:50:02.101Z</time>
</trkpt>
<trkpt lat="22.2869531" lon="114.1363606">
<ele>37.848</ele>
<time>2022-10-04T08:50:07.409Z</time>
</trkpt>
<trkpt lat="22.2870139" lon="114.1361322">
<ele>43.998</ele>
<time>2022-10-04T08:50:10.999Z</time>
</trkpt>
<trkpt lat="22.2870139" lon="114.1361322">
<ele>49.986</ele>
<time>2022-10-04T08:50:15.999Z</time>
</trkpt>
<trkpt lat="22.2870139" lon="114.1361322">
<ele>52.427</ele>
<time>2022-10-04T08:50:22.330Z</time>
</trkpt>
<trkpt lat="22.2869513" lon="114.1349922">
<ele>10.867</ele>
<time>2022-10-04T08:51:51.549Z</time>
</trkpt>
<trkpt lat="22.2869799" lon="114.1348904">
<ele>10.862</ele>
<time>2022-10-04T08:51:59.854Z</time>
</trkpt>
<trkpt lat="22.2870021" lon="114.1347818">
<ele>10.230</ele>
<time>2022-10-04T08:52:06.972Z</time>
</trkpt>
<trkpt lat="22.2870188" lon="114.1346776">
<ele>8.590</ele>
<time>2022-10-04T08:52:14.165Z</time>
</trkpt>
<trkpt lat="22.2870771" lon="114.1346034">
<ele>6.929</ele>
<time>2022-10-04T08:52:22.216Z</time>
</trkpt>
<trkpt lat="22.2871231" lon="114.1344898">
<ele>7.858</ele>
<time>2022-10-04T08:52:38.999Z</time>
</trkpt>
<trkpt lat="22.2871231" lon="114.1344898">
<ele>12.149</ele>
<time>2022-10-04T08:52:53.999Z</time>
</trkpt>
<trkpt lat="22.2871231" lon="114.1344898">
<ele>15.896</ele>
<time>2022-10-04T08:53:06.499Z</time>
</trkpt>
<trkpt lat="22.2871725" lon="114.1342111">
<ele>15.847</ele>
<time>2022-10-04T08:53:30.548Z</time>
</trkpt>
<trkpt lat="22.2871775" lon="114.1341081">
<ele>15.216</ele>
<time>2022-10-04T08:53:34.709Z</time>
</trkpt>
<trkpt lat="22.2872010" lon="114.1340080">
<ele>17.278</ele>
<time>2022-10-04T08:53:38.086Z</time>
</trkpt>
<trkpt lat="22.2872252" lon="114.1339116">
<ele>19.826</ele>
<time>2022-10-04T08:53:41.163Z</time>
</trkpt>
<trkpt lat="22.2872489" lon="114.1338148">
<ele>20.059</ele>
<time>2022-10-04T08:53:44.162Z</time>
</trkpt>
<trkpt lat="22.2872656" lon="114.1337063">
<ele>18.770</ele>
<time>2022-10-04T08:53:47.187Z</time>
</trkpt>
<trkpt lat="22.2872775" lon="114.1335920">
<ele>17.514</ele>
<time>2022-10-04T08:53:50.110Z</time>
</trkpt>
<trkpt lat="22.2873113" lon="114.1334739">
<ele>16.770</ele>
<time>2022-10-04T08:53:53.272Z</time>
</trkpt>
<trkpt lat="22.2873280" lon="114.1333744">
<ele>16.592</ele>
<time>2022-10-04T08:53:55.961Z</time>
</trkpt>
<trkpt lat="22.2873506" lon="114.1332677">
<ele>16.846</ele>
<time>2022-10-04T08:53:59.037Z</time>
</trkpt>
<trkpt lat="22.2873665" lon="114.1331610">
<ele>17.130</ele>
<time>2022-10-04T08:54:01.838Z</time>
</trkpt>
<trkpt lat="22.2873740" lon="114.1330313">
<ele>17.172</ele>
<time>2022-10-04T08:54:05.005Z</time>
</trkpt>
<trkpt lat="22.2874032" lon="114.1329257">
<ele>17.103</ele>
<time>2022-10-04T08:54:08.171Z</time>
</trkpt>
<trkpt lat="22.2873676" lon="114.1328280">
<ele>17.785</ele>
<time>2022-10-04T08:54:11.752Z</time>
</trkpt>
<trkpt lat="22.2873376" lon="114.1327333">
<ele>19.656</ele>
<time>2022-10-04T08:54:15.999Z</time>
</trkpt>
<trkpt lat="22.2873376" lon="114.1327333">
<ele>21.582</ele>
<time>2022-10-04T08:54:24.999Z</time>
</trkpt>
<trkpt lat="22.2873376" lon="114.1327333">
<ele>22.388</ele>
<time>2022-10-04T08:54:30.651Z</time>
</trkpt>
<trkpt lat="22.2872312" lon="114.1325592">
<ele>22.259</ele>
<time>2022-10-04T08:54:39.008Z</time>
</trkpt>
<trkpt lat="22.2871488" lon="114.1325082">
<ele>22.659</ele>
<time>2022-10-04T08:54:41.354Z</time>
</trkpt>
<trkpt lat="22.2870265" lon="114.1324683">
<ele>24.499</ele>
<time>2022-10-04T08:54:44.358Z</time>
</trkpt>
<trkpt lat="22.2869175" lon="114.1324282">
<ele>26.416</ele>
<time>2022-10-04T08:54:47.060Z</time>
</trkpt>
<trkpt lat="22.2868089" lon="114.1323706">
<ele>26.881</ele>
<time>2022-10-04T08:54:49.984Z</time>
</trkpt>
<trkpt lat="22.2867125" lon="114.1323135">
<ele>25.941</ele>
<time>2022-10-04T08:54:53.158Z</time>
</trkpt>
<trkpt lat="22.2866335" lon="114.1322501">
<ele>24.386</ele>
<time>2022-10-04T08:54:57.072Z</time>
</trkpt>
<trkpt lat="22.2866516" lon="114.1321495">
<ele>23.914</ele>
<time>2022-10-04T08:55:02.366Z</time>
</trkpt>
<trkpt lat="22.2865592" lon="114.1320826">
<ele>27.801</ele>
<time>2022-10-04T08:55:08.697Z</time>
</trkpt>
<trkpt lat="22.2864688" lon="114.1320564">
<ele>36.112</ele>
<time>2022-10-04T08:55:13.720Z</time>
</trkpt>
<trkpt lat="22.2863823" lon="114.1319901">
<ele>43.693</ele>
<time>2022-10-04T08:55:19.443Z</time>
</trkpt>
<trkpt lat="22.2863227" lon="114.1319069">
<ele>46.972</ele>
<time>2022-10-04T08:55:24.707Z</time>
</trkpt>
<trkpt lat="22.2862180" lon="114.1318861">
<ele>47.359</ele>
<time>2022-10-04T08:55:29.455Z</time>
</trkpt>
<trkpt lat="22.2860846" lon="114.1318444">
<ele>47.115</ele>
<time>2022-10-04T08:55:32.680Z</time>
</trkpt>
<trkpt lat="22.2859555" lon="114.1318106">
<ele>47.314</ele>
<time>2022-10-04T08:55:35.326Z</time>
</trkpt>
<trkpt lat="22.2858591" lon="114.1317312">
<ele>47.870</ele>
<time>2022-10-04T08:55:37.949Z</time>
</trkpt>
<trkpt lat="22.2857603" lon="114.1316711">
<ele>48.414</ele>
<time>2022-10-04T08:55:40.544Z</time>
</trkpt>
<trkpt lat="22.2856893" lon="114.1315340">
<ele>48.683</ele>
<time>2022-10-04T08:55:43.934Z</time>
</trkpt>
<trkpt lat="22.2856195" lon="114.1315966">
<ele>48.617</ele>
<time>2022-10-04T08:55:46.404Z</time>
</trkpt>
<trkpt lat="22.2856236" lon="114.1314833">
<ele>48.323</ele>
<time>2022-10-04T08:55:50.305Z</time>
</trkpt>
<trkpt lat="22.2855487" lon="114.1314237">
<ele>48.003</ele>
<time>2022-10-04T08:55:55.999Z</time>
</trkpt>
<trkpt lat="22.2855487" lon="114.1314237">
<ele>47.828</ele>
<time>2022-10-04T08:55:57.999Z</time>
</trkpt>
<trkpt lat="22.2855487" lon="114.1314237">
<ele>47.823</ele>
<time>2022-10-04T08:56:49.682Z</time>
</trkpt>
<trkpt lat="22.2854045" lon="114.1313899">
<ele>47.864</ele>
<time>2022-10-04T08:56:58.063Z</time>
</trkpt>
<trkpt lat="22.2853086" lon="114.1313014">
<ele>46.157</ele>
<time>2022-10-04T08:57:01.198Z</time>
</trkpt>
<trkpt lat="22.2852221" lon="114.1311961">
<ele>41.698</ele>
<time>2022-10-04T08:57:04.030Z</time>
</trkpt>
<trkpt lat="22.2851289" lon="114.1310937">
<ele>37.143</ele>
<time>2022-10-04T08:57:06.755Z</time>
</trkpt>
<trkpt lat="22.2850183" lon="114.1309874">
<ele>35.049</ele>
<time>2022-10-04T08:57:09.394Z</time>
</trkpt>
<trkpt lat="22.2848715" lon="114.1308210">
<ele>35.055</ele>
<time>2022-10-04T08:57:12.611Z</time>
</trkpt>
<trkpt lat="22.2847354" lon="114.1306697">
<ele>36.100</ele>
<time>2022-10-04T08:57:15.589Z</time>
</trkpt>
<trkpt lat="22.2846510" lon="114.1305667">
<ele>37.159</ele>
<time>2022-10-04T08:57:17.784Z</time>
</trkpt>
<trkpt lat="22.2845545" lon="114.1304540">
<ele>37.641</ele>
<time>2022-10-04T08:57:20.568Z</time>
</trkpt>
<trkpt lat="22.2844810" lon="114.1303630">
<ele>37.268</ele>
<time>2022-10-04T08:57:22.999Z</time>
</trkpt>
<trkpt lat="22.2844810" lon="114.1303630">
<ele>36.204</ele>
<time>2022-10-04T08:57:28.999Z</time>
</trkpt>
<trkpt lat="22.2844810" lon="114.1303630">
<ele>35.373</ele>
<time>2022-10-04T08:57:33.504Z</time>
</trkpt>
<trkpt lat="22.2843749" lon="114.1301714">
<ele>35.379</ele>
<time>2022-10-04T08:57:44.432Z</time>
</trkpt>
<trkpt lat="22.2842954" lon="114.1301132">
<ele>35.665</ele>
<time>2022-10-04T08:57:47.549Z</time>
</trkpt>
<trkpt lat="22.2842223" lon="114.1300494">
<ele>35.336</ele>
<time>2022-10-04T08:57:50.824Z</time>
</trkpt>
<trkpt lat="22.2841515" lon="114.1299756">
<ele>33.263</ele>
<time>2022-10-04T08:57:54.999Z</time>
</trkpt>
<trkpt lat="22.2841515" lon="114.1299756">
<ele>29.534</ele>
<time>2022-10-04T08:57:59.999Z</time>
</trkpt>
<trkpt lat="22.2841515" lon="114.1299756">
<ele>26.827</ele>
<time>2022-10-04T08:58:00.099Z</time>
</trkpt>
<trkpt lat="22.2840099" lon="114.1298442">
<ele>26.910</ele>
<time>2022-10-04T08:58:09.679Z</time>
</trkpt>
<trkpt lat="22.2839387" lon="114.1297794">
<ele>26.056</ele>
<time>2022-10-04T08:58:12.534Z</time>
</trkpt>
<trkpt lat="22.2838761" lon="114.1297080">
<ele>21.001</ele>
<time>2022-10-04T08:58:15.489Z</time>
</trkpt>
<trkpt lat="22.2837992" lon="114.1296283">
<ele>14.530</ele>
<time>2022-10-04T08:58:20.039Z</time>
</trkpt>
<trkpt lat="22.2837231" lon="114.1295724">
<ele>10.207</ele>
<time>2022-10-04T08:58:24.204Z</time>
</trkpt>
<trkpt lat="22.2836800" lon="114.1294750">
<ele>7.915</ele>
<time>2022-10-04T08:58:30.976Z</time>
</trkpt>
<trkpt lat="22.2836864" lon="114.1293664">
<ele>6.619</ele>
<time>2022-10-04T08:58:37.999Z</time>
</trkpt>
<trkpt lat="22.2836864" lon="114.1293664">
<ele>5.801</ele>
<time>2022-10-04T08:58:48.999Z</time>
</trkpt>
<trkpt lat="22.2836864" lon="114.1293664">
<ele>5.467</ele>
<time>2022-10-04T08:59:05.909Z</time>
</trkpt>
<trkpt lat="22.2835303" lon="114.1291919">
<ele>5.512</ele>
<time>2022-10-04T08:59:38.557Z</time>
</trkpt>
<trkpt lat="22.2834292" lon="114.1291570">
<ele>5.601</ele>
<time>2022-10-04T08:59:45.335Z</time>
</trkpt>
<trkpt lat="22.2833585" lon="114.1290686">
<ele>5.519</ele>
<time>2022-10-04T08:59:52.169Z</time>
</trkpt>
<trkpt lat="22.2833975" lon="114.1289565">
<ele>5.567</ele>
<time>2022-10-04T08:59:56.873Z</time>
</trkpt>
<trkpt lat="22.2833997" lon="114.1288341">
<ele>6.033</ele>
<time>2022-10-04T09:00:01.136Z</time>
</trkpt>
<trkpt lat="22.2833746" lon="114.1287125">
<ele>6.761</ele>
<time>2022-10-04T09:00:05.578Z</time>
</trkpt>
<trkpt lat="22.2833661" lon="114.1286051">
<ele>7.544</ele>
<time>2022-10-04T09:00:09.833Z</time>
</trkpt>
<trkpt lat="22.2833573" lon="114.1285019">
<ele>8.264</ele>
<time>2022-10-04T09:00:14.563Z</time>
</trkpt>
<trkpt lat="22.2833407" lon="114.1284006">
<ele>8.781</ele>
<time>2022-10-04T09:00:19.512Z</time>
</trkpt>
<trkpt lat="22.2833249" lon="114.1282842">
<ele>9.084</ele>
<time>2022-10-04T09:00:25.505Z</time>
</trkpt>
<trkpt lat="22.2833016" lon="114.1281870">
<ele>9.361</ele>
<time>2022-10-04T09:00:31.000Z</time>
</trkpt>
<trkpt lat="22.2833016" lon="114.1281870">
<ele>9.761</ele>
<time>2022-10-04T09:00:39.000Z</time>
</trkpt>
<trkpt lat="22.2833016" lon="114.1281870">
<ele>10.059</ele>
<time>2022-10-04T09:00:59.519Z</time>
</trkpt>
<trkpt lat="22.2832779" lon="114.1280037">
<ele>10.046</ele>
<time>2022-10-04T09:01:12.393Z</time>
</trkpt>
<trkpt lat="22.2832655" lon="114.1278823">
<ele>9.894</ele>
<time>2022-10-04T09:01:17.648Z</time>
</trkpt>
<trkpt lat="22.2832520" lon="114.1277650">
<ele>9.801</ele>
<time>2022-10-04T09:01:23.700Z</time>
</trkpt>
<trkpt lat="22.2832300" lon="114.1276676">
<ele>9.774</ele>
<time>2022-10-04T09:01:28.909Z</time>
</trkpt>
<trkpt lat="22.2832088" lon="114.1275458">
<ele>9.739</ele>
<time>2022-10-04T09:01:35.030Z</time>
</trkpt>
<trkpt lat="22.2831925" lon="114.1274411">
<ele>9.619</ele>
<time>2022-10-04T09:01:39.831Z</time>
</trkpt>
<trkpt lat="22.2831894" lon="114.1273384">
<ele>9.453</ele>
<time>2022-10-04T09:01:45.497Z</time>
</trkpt>
<trkpt lat="22.2832075" lon="114.1272362">
<ele>9.363</ele>
<time>2022-10-04T09:01:53.368Z</time>
</trkpt>
<trkpt lat="22.2832011" lon="114.1271332">
<ele>9.731</ele>
<time>2022-10-04T09:02:02.999Z</time>
</trkpt>
<trkpt lat="22.2832011" lon="114.1271332">
<ele>10.702</ele>
<time>2022-10-04T09:02:12.999Z</time>
</trkpt>
<trkpt lat="22.2832011" lon="114.1271332">
<ele>11.502</ele>
<time>2022-10-04T09:02:28.983Z</time>
</trkpt>
<trkpt lat="22.2832251" lon="114.1270280">
<ele>11.055</ele>
<time>2022-10-04T09:02:37.000Z</time>
</trkpt>
<trkpt lat="22.2831615" lon="114.1269546">
<ele>12.139</ele>
<time>2022-10-04T09:02:48.022Z</time>
</trkpt>
<trkpt lat="22.2831881" lon="114.1268495">
<ele>15.753</ele>
<time>2022-10-04T09:02:54.999Z</time>
</trkpt>
</trkseg>
</trk>
<extensions>
<fpdata xmlns="http://www.motionx.com/GPX-Extensions/1/1" sfv="10" origin="MotionXGPSFull 24.4 Build 5112 R64">
<bin enc="base64">
RgIAAAACAAAAvCV2qvbO2EEBAAAANBLN1f3O2EEAADBc4ziwQM0EAAC3vxkAq5jsLCEf
EUDhYEu4XoEvQAAAAAAYAAAA6YGK6Zu76LuK5rKzIHdpdGggQWduZXMAFQAAAE9jdCA0
LCAyMDIyICAzOjAzIHBtAAAAAABNEs3V/c7YQRDJqtz9zthBrwBTADc/wSdrZXlALAAA
AAEAAAA+HcYUp45cQHsRlHPmRjZAq5jsLCEfEUBGc+3/3CUYQAAAAAAAAChAAAAAAADE
k0AAAAAAAAAAAAAAAABRuB6F6xljQJgzFx/PKiJAAQAAAIAKOgmUaLe/AQAAAAEAAAA0
V8D9RnKxP4AKOgmUaLe/AQAAAAEAAAAOAAAAP8rvZZwwakAAAAAAAAAAAAAAAAAAAAAA
AAAAAAAAAAAAAAAAAAAAAAAAAAAAAAAA+wAAAK3+v6/9zthBAAAAAAAAAAAAAAAAAAAA
AP8lRLwCAAAAAAAAAAAAAAABAAAAKAAAADI0LjQgQnVpbGQgNTExMiBSNjQsIE1YQUUg
OC4xIGIuIDYyNlI2NAAAAAAAZmoAAAEAAAABeAAAAKnaO2PA9jtjBKImdqr2zthBoiZ2
qvbO2EEAAAAAAFARPwAAAAACwCV2qvbO2EH61AKr9s7YQQAAAEDnlQFAAAAAAAK1pcKt
9s7YQQx3AsL2zthBAAAAkYDMVEAAAAAAAsLAwtP2zthBoGzC3PbO2EEAAABvLMxdQAAA
AAACsB9D6PbO2EHYDMLx9s7YQQAAgMuMpWNAAAAAAAOOBCr29s7YQY4EKvb2zthBAABA
9VT4Y0AAAAAABCO+ggD3zthBI76CAPfO2EEAAIC9sSRpQAAAAAACQ3SE9fbO2EEAG4MA
987YQQAAACrgJGlAAAAAAAPS/ikC987YQdL+KQL3zthBAAAAKuAkaUAAAAAABLQeghD3
zthBtB6CEPfO2EEAAAAq4CRpQAAAAAACImqCEPfO2EF0f0IS987YQebQIq7kV25AAAAA
AAKGkUIW987YQYibQhz3zthBc2iR1/SrcEAAAAAAAva5Qh/3zthBFoOCIffO2EFzaJEf
5ztxQAAAAAACwLNCJvfO2EEawYI6987YQXNoEXbqS3ZAAAAAAAKCjANN987YQWb1wlT3
zthBc2gRr8Q7eEAAAAAAAubHgmH3zthBmGYCY/fO2EFzaJFbrJt4QAAAAAACkfGCZPfO
2EH/XAKI987YQTq0iJvDvYBAAAAAAAIqjUKM987YQUAXApT3zthBOrRI3rS1gUAAAAAA
At4jA5j3zthB0F1CnPfO2EE6tIgcnD2CQAAAAAACUg8DpffO2EF+F0Os987YQTq0CCKd
JYNAAAAAAAITnYKx987YQenTgbv3zthBOrTI/INlhEAAAAAAAjjVQsf3zthBMxdC2PfO
2EE6tCg8bIWGQAAAAAACYOjC4ffO2EGqRULp987YQTq0aOVXdYdAAAAAAAKU3sLx987Y
QdB8gvX3zthBOrTorEvth0AAAAAAAmJmQ/n3zthB5IVCBPjO2EE6tCidL02JQAAAAAAC
CJECB/jO2EF8vAII+M7YQTq0qAs1bYlAAAAAAALKvsIZ+M7YQWReAiz4zthBOrTo/ii1
i0AAAAAAAujZQjP4zthBC30CRvjO2EE6tEhjHQ2OQAAAAAAClnmDTvjO2EEqkkJg+M7Y
QR1a5DqAIpBAAAAAAAKkq0Jp+M7YQUKZgnL4zthBHVrEFH+2kEAAAAAAAoRFA4H4zthB
9G4CiPjO2EEdWsSrcSaRQAAAAAACRG5DmvjO2EE740Ki+M7YQR1aNPtoppFAAAAAAAJa
LEOm+M7YQT49Qqj4zthBHVp0CVrGkUAAAAAAAvjgAq/4zthBQplCtfjO2EEdWhSOVSqS
QAAAAAACtB1DuPjO2EHg10LC+M7YQR1a1DBRypJAAAAAAAKDF4PJ+M7YQZjCAtP4zthB
HVok4ktik0AAAAAAAuM0w9X4zthBUpqC1/jO2EEdWhQ5Qn6TQAAAAAACMnND4vjO2EEw
ukLu+M7YQR1a9Kg2PpRAAAAAAAJy+wL3+M7YQVUWAgH5zthBHVokVyjelEAAAAAAAobg
wgX5zthBZW/CBvnO2EEdWhRFIe6UQAAAAAACDBxDDPnO2EGY9UIa+c7YQR1a1N0ezpVA
AAAAAAIxz4Ig+c7YQTT2QiH5zthBHVoETiHalUAAAAAAAmgCQyP5zthBIM/CMPnO2EEd
WoQZHrKWQAAAAAAC7pZDRvnO2EEUfAJQ+c7YQR1a5GsMTpdAAAAAAAI10wJR+c7YQWaB
glX5zthBHVr0TgeWl0AAAAAAAt8Yg1n5zthB3QpDZvnO2EEdWtRuBmKYQAAAAAACcLgC
dfnO2EE+z8J8+c7YQR1atNsH3phAAAAAAAKTqYKD+c7YQdgMwof5zthBHVoEEP4hmUAA
AAAAAjNtg4n5zthBsmYClPnO2EEdWvSn7cmZQAAAAAACdViDl/nO2EEEcYKh+c7YQR1a
5DDfaZpAAAAAAAKi6kKl+c7YQS7HQrD5zthBHVqk+dwZm0AAAAAAAjYlg7T5zthBAYnC
ufnO2EEdWlQ2022bQAAAAAACFARDwvnO2EGAu2nH+c7YQR1aFK0+wJtAAAAAAAPYEmrO
+c7YQdgSas75zthBHVoUrT7Am0AAAAAABKhsAgL6zthBqGwCAvrO2EEdWhStPsCbQAAA
AAACDDwDBPrO2EE7VQIO+s7YQR1aBEAwYJxAAAAAAAK0IEMb+s7YQVn5gTL6zthBHVpU
yh3UnUAAAAAAAtScgjT6zthBkX/CO/rO2EEdWiT2G0ieQAAAAAACavWCRvrO2EFckIJZ
+s7YQR1aRKUVeJ9AAAAAAAIev0Jd+s7YQfq2gmb6zthBDi2CkQoGoEAAAAAAArdDg236
zthBPpiCbvrO2EEOLbo1BQ6gQAAAAAAC3umCcfrO2EHRk8J7+s7YQQ4tUoUCYKBAAAAA
AAIKaEOG+s7YQUyPgof6zthBDi1iv/tpoEAAAAAAArfQAoz6zthBlzhDmvrO2EEOLWL+
/tugQAAAAAAC9PlCnPrO2EEFwwKr+s7YQQ4t6kb9UaFAAAAAAALjwoKy+s7YQe9Xwr76
zthBDi1K7/mzoUAAAAAAAuKrgsL6zthB6DTDyvrO2EEOLXo3/vWhQAAAAAACQbmC0PrO
2EECnULX+s7YQQ4tglX9K6JAAAAAAALRBYPg+s7YQRDqw/r6zthBDi16dwT+okAAAAAA
A+fg6AP7zthB5+DoA/vO2EEOLcpNNEOjQAAAAAAEbhYCB/vO2EFuFgIH+87YQQ4tvvn9
W6NAAAAAAAIu5kL7+s7YQU6aAhT7zthBDi16GALEo0AAAAAAAjzZghX7zthB/PyBGvvO
2EEOLXo2++ujQAAAAAAC9FVCIPvO2EEIHYIk+87YQQ4tGm/5DaRAAAAAAAIw8sIn+87Y
QRYyQi37zthBDi1KbvM5pEAAAAAAAyfbaED7zthBJ9toQPvO2EEOLSq8Ir2kQAAAAAAE
h96BRfvO2EGH3oFF+87YQQ4totbq5aRAAAAAAAKA8QIw+87YQU+wQkv7zthBDi3CZPET
pUAAAAAAAiz0wk/7zthBlIXCXPvO2EEOLQLw7XulQAAAAAAC7BaDa/vO2EETnYJ2+87Y
QQ4tOiHq06VAAAAAAAK1bAOB+87YQRR6ApD7zthBDi0yjOJLpkAAAAAAAtXrQpT7zthB
Xr6CmPvO2EEOLXog4W2mQAAAAAAClrWCmfvO2EGMa8Ka+87YQQ4tKtDed6ZAAAAAAAJ+
VkOh+87YQRTNgsD7zthBDi3ahNpxp0AAAAAAAlRsQ8f7zthBKnbC0/vO2EEOLYrT0tWn
QAAAAAACakpD2vvO2EGgiULb+87YQQ4tOs3M3adAAAAAAALUDEPc+87YQS4dA+D7zthB
Di0KUM37p0AAAAAAAgSMA+H7zthBFqJC5/vO2EEOLZoAxi2oQAAAAAACCmqE6PvO2EFG
JMPp+87YQQ4tetK7N6hAAAAAAAI2JUPu+87YQftbw/T7zthBDi2iiL1rqEAAAAAAAh6l
gwr8zthBmL1CEvzO2EEOLXJMtqmoQAAAAAACIehCFfzO2EE+kgIg/M7YQQ4tWp2z/6hA
AAAAAALSV4Mv/M7YQWpvwkf8zthBDi0aWqzBqUAAAAAAAgsMQ0v8zthBVrhCUvzO2EEO
LXK8qfmpQAAAAAACiDADV/zO2EFs08Jf/M7YQQ4tktOmP6pAAAAAAAKgOENh/M7YQWKI
AmL8zthBDi2iUaFFqkAAAAAAAiSyAmb8zthBHHzCavzO2EEOLWKhn2uqQAAAAAACOQpD
bvzO2EFMb4Jv/M7YQQ4t+smadapAAAAAAALrjwNx/M7YQep4AnL8zthBDi3yEZJ9qkAA
AAAAAh7HQnT8zthBJVzCefzO2EEOLSq6jqmqQAAAAAACxvcCevzO2EFcHEKG/M7YQQ4t
2t6HC6tAAAAAAALyuIOR/M7YQQqbAqL8zthBDi2a736Pq0AAAAAAAtO9Aqn8zthBiV+C
tvzO2EEOLUr9e/urQAAAAAACW+yCt/zO2EHzHoK8/M7YQQ4tCpJ1I6xAAAAAAALcY0PC
/M7YQdKQgsr8zthBDi26+W5lrEAAAAAAAi51A9L8zthBjs1C1/zO2EEOLbq8aY+sQAAA
AAACRpbC2PzO2EGo+oLb/M7YQQ4tyt9spaxAAAAAAAJSs8Lc/M7YQUxvwt38zthBDi2a
v2qtrEAAAAAAAi7FQ+/8zthBEDwC8vzO2EEOLap2XsOsQAAAAAADg/un8/zO2EGD+6fz
/M7YQQ4tqnZew6xAAAAAAAQYmQIN/c7YQRiZAg39zthBDi2qdl7DrEAAAAAAAhDqAg39
zthB4naCGf3O2EEAAIg/q16tQAAAAAACrIsDIf3O2EEVOUIw/c7YQQAA0Kqg2K1AAAAA
AAJe9EIz/c7YQdqLgkf9zthBAACwZp16rkAAAAAAAj+rA1b9zthBoMZCXv3O2EEAALhB
lryuQAAAAAACTBWDYf3O2EFckAJm/c7YQQAAOBqS4K5AAAAAAAKqDoNn/c7YQTbGQnL9
zthBAACY1o82r0AAAAAAAnO6Q3z9zthBeZLCjf3O2EEAAMiWhsKvQAAAAAAClskClf3O
2EHy7EKl/c7YQQAA1NhDIrBAAAAAAAHKToOq/c7YQaEvK7D9zthBAAAwXOM4sEAAAAAA
AAAAAA==
</bin>
</fpdata>
</extensions>
</gpx>
